Darstellungsparameter: Aktuell verwendete Einstellungen:
Skalierung der Graphiken ... ?
xyx+y,   Skalierungsfaktor:      Skalierung: Modus: x, Faktor: 1
Darstellungszeitraum ... ?
Vom - - bis: - -   Zeitraum: 09.11.2010 - 08.12.2010
Min/Max/Avg-Anzeige ... ?
Zeige MMA aktuell
Zeige MMA Monat
Zeige MMA alles
Zeige --A aktuell
Zeige --A Monat
Zeige --A alles
Keine MMA-Anzeige
MMA:
Average (ber die Originaldaten)
MMA-Basis: 09.11.2010 - 08.12.2010
Quicknavigation für Darstellung... ?
Tage:      1T, 2T, 3T, 5T -1T -2T -3T -5T +1T +2T +3T +5T
Wochen: 1W, 2W, 3W -1W -2W -3W +1W +2W +3W
Monate: 1M, 3M, 6M -1M -3M -6M +1M +3M +6M
Jahre:    1J, 3J, 5J, 10J -1J -3J -5J -10J +1J +3J +5J +10J
Nutze für die Darstellung ... ?
Originaldaten oder Mittelwerte auf ...
Stundenbasis Tagesbasis Wochenbasis
Monatsbasis Jahresbasis      Datenbasis: Original-Daten
Darstellen als:
Statistik (Auto) Statistik J:M      Darstellung:
Zur Graphik,    zurück zur Übersicht aller Sensoren.
 
Tabellarische Datenbersicht: ?
 
Sensor: Nr:Datum:Temp:Abs-Feuchte:Windchill:Wind:
Aussen-T/F 1 09-11-2010 00:10:05 4.3 C 5.58 g/m*3 4.3 C 0 km/h
2 09-11-2010 00:22:05 4.1 C 5.57 g/m*3 4.1 C 0 km/h
3 09-11-2010 00:34:05 4.1 C 5.63 g/m*3 4.1 C 0 km/h
4 09-11-2010 00:46:05 4.4 C 5.75 g/m*3 4.4 C 0 km/h
5 09-11-2010 00:58:06 4.3 C 5.71 g/m*3 4.3 C 0 km/h
6 09-11-2010 01:10:06 4.1 C 5.7 g/m*3 4.1 C 0 km/h
7 09-11-2010 01:22:06 4.2 C 5.73 g/m*3 4.2 C 0 km/h
8 09-11-2010 01:34:06 4.3 C 5.77 g/m*3 4.3 C 0 km/h
9 09-11-2010 01:46:06 4.3 C 5.77 g/m*3 4.3 C 0 km/h
10 09-11-2010 01:58:06 4.1 C 5.7 g/m*3 4.1 C 0 km/h
11 09-11-2010 02:10:06 4.1 C 5.7 g/m*3 4.1 C 0 km/h
12 09-11-2010 02:22:06 4.1 C 5.7 g/m*3 4.1 C 0 km/h
13 09-11-2010 02:34:06 4.1 C 5.76 g/m*3 4.1 C 0 km/h
14 09-11-2010 02:46:06 4.3 C 5.84 g/m*3 4.3 C 0 km/h
15 09-11-2010 02:58:06 4.4 C 5.94 g/m*3 4.4 C 0 km/h
16 09-11-2010 03:10:06 4.3 C 5.9 g/m*3 4.3 C 0 km/h
17 09-11-2010 03:22:06 4.5 C 5.98 g/m*3 4.5 C 0 km/h
18 09-11-2010 03:34:06 4.4 C 5.94 g/m*3 4.4 C 0 km/h
19 09-11-2010 03:46:06 4.4 C 5.94 g/m*3 4.4 C 0 km/h
20 09-11-2010 03:58:06 4.7 C 6.06 g/m*3 4.7 C 0 km/h
21 09-11-2010 04:10:06 4.3 C 5.9 g/m*3 4.3 C 0 km/h
22 09-11-2010 04:22:06 4.3 C 5.9 g/m*3 4.3 C 0 km/h
23 09-11-2010 04:34:06 4.6 C 6.02 g/m*3 4.6 C 0 km/h
24 09-11-2010 04:46:06 4.5 C 5.98 g/m*3 4.5 C 0 km/h
25 09-11-2010 04:58:06 4.5 C 5.98 g/m*3 4.5 C 0 km/h
Sensor: Nr:Datum:Temp:Abs-Feuchte:Windchill:Wind:
Aussen-T/F 26 09-11-2010 05:10:07 4.7 C 6.06 g/m*3 4.7 C 0 km/h
27 09-11-2010 05:22:07 4.7 C 6.06 g/m*3 4.7 C 0 km/h
28 09-11-2010 05:34:07 4.7 C 6.06 g/m*3 4.7 C 0 km/h
29 09-11-2010 05:46:07 4.8 C 6.1 g/m*3 4.8 C 0 km/h
30 09-11-2010 05:58:07 4.8 C 6.1 g/m*3 4.8 C 0 km/h
31 09-11-2010 06:10:07 5 C 6.12 g/m*3 5 C 0 km/h
32 09-11-2010 06:22:07 5.1 C 6.16 g/m*3 5.1 C 0 km/h
33 09-11-2010 06:34:07 5.1 C 6.16 g/m*3 5.1 C 0 km/h
34 09-11-2010 06:46:07 5.1 C 6.16 g/m*3 5.1 C 0 km/h
35 09-11-2010 06:58:07 5.2 C 6.2 g/m*3 5.2 C 0 km/h
36 09-11-2010 07:10:07 5.3 C 6.24 g/m*3 5.3 C 0 km/h
37 09-11-2010 07:22:04 5.4 C 6.28 g/m*3 5.4 C 0 km/h
38 09-11-2010 07:34:04 5.6 C 6.29 g/m*3 5.6 C 0 km/h
39 09-11-2010 07:46:01 5.7 C 6.19 g/m*3 5.7 C 0 km/h
40 09-11-2010 07:58:01 5.9 C 6.2 g/m*3 5.9 C 0 km/h
41 09-11-2010 08:10:02 6.1 C 6.06 g/m*3 6.1 C 0 km/h
42 09-11-2010 08:22:02 6.2 C 6.1 g/m*3 6.2 C 0 km/h
43 09-11-2010 08:34:02 6.5 C 6.15 g/m*3 6.5 C 0 km/h
44 09-11-2010 08:46:01 6.5 C 6 g/m*3 6.5 C 0 km/h
45 09-11-2010 08:58:01 6.8 C 6.12 g/m*3 6.8 C 0 km/h
46 09-11-2010 09:10:02 7 C 6.04 g/m*3 7 C 0 km/h
47 09-11-2010 09:22:02 7 C 6.04 g/m*3 7 C 0 km/h
48 09-11-2010 09:34:02 6.7 C 6.08 g/m*3 6.7 C 0 km/h
49 09-11-2010 09:46:02 6.5 C 6 g/m*3 6.5 C 0 km/h
50 09-11-2010 09:58:02 7.3 C 6.32 g/m*3 7.3 C 0 km/h
Sensor: Nr:Datum:Temp:Abs-Feuchte:Windchill:Wind:
Aussen-T/F 51 09-11-2010 10:10:01 7.1 C 6.08 g/m*3 7.1 C 0 km/h
52 09-11-2010 10:22:02 6.6 C 6.11 g/m*3 6.6 C 0 km/h
53 09-11-2010 10:34:01 7.6 C 6.61 g/m*3 7.6 C 0 km/h
54 09-11-2010 10:46:02 9 C 6.26 g/m*3 9 C 0 km/h
55 09-11-2010 10:58:02 9.2 C 6.16 g/m*3 9.2 C 0 km/h
56 09-11-2010 11:10:01 9.1 C 6.03 g/m*3 9.1 C 0 km/h
57 09-11-2010 11:22:02 9.4 C 6.24 g/m*3 9.4 C 0 km/h
58 09-11-2010 11:34:01 9.2 C 6.16 g/m*3 9.2 C 0 km/h
59 09-11-2010 11:46:03 8.7 C 6.4 g/m*3 8.7 C 0 km/h
60 09-11-2010 11:58:03 9.4 C 6.6 g/m*3 9.4 C 0 km/h
61 09-11-2010 12:10:02 9.2 C 6.43 g/m*3 9.2 C 0 km/h
62 09-11-2010 12:22:02 9.8 C 6.49 g/m*3 9.8 C 0 km/h
63 09-11-2010 12:34:02 9.6 C 6.32 g/m*3 9.6 C 0 km/h
64 09-11-2010 12:46:02 9.4 C 6.42 g/m*3 9.4 C 0 km/h
65 09-11-2010 12:58:02 9.6 C 6.5 g/m*3 9.6 C 0 km/h
66 09-11-2010 13:10:01 9.9 C 6.44 g/m*3 9.9 C 0 km/h
67 09-11-2010 13:22:02 10 C 6.3 g/m*3 10 C 0 km/h
68 09-11-2010 13:34:02 9.2 C 6.25 g/m*3 9.2 C 0 km/h
69 09-11-2010 13:46:02 9.7 C 6.73 g/m*3 9.7 C 0 km/h
70 09-11-2010 13:58:02 9.5 C 6.64 g/m*3 9.5 C 0 km/h
71 09-11-2010 14:10:03 9.1 C 6.65 g/m*3 9.1 C 0 km/h
72 09-11-2010 14:22:02 9 C 6.7 g/m*3 9 C 0 km/h
73 09-11-2010 14:34:02 8.8 C 6.88 g/m*3 8.8 C 0 km/h
74 09-11-2010 14:46:01 8.7 C 6.92 g/m*3 8.7 C 0 km/h
75 09-11-2010 14:58:01 8.7 C 7.09 g/m*3 8.7 C 0 km/h
Sensor: Nr:Datum:Temp:Abs-Feuchte:Windchill:Wind:
Aussen-T/F 76 09-11-2010 15:10:02 8.6 C 7.05 g/m*3 8.6 C 0 km/h
77 09-11-2010 15:22:01 8.5 C 7 g/m*3 8.5 C 0 km/h
78 09-11-2010 15:34:01 8.4 C 7.04 g/m*3 8.4 C 0 km/h
79 09-11-2010 15:46:01 8.4 C 7.13 g/m*3 8.4 C 0 km/h
80 09-11-2010 15:58:01 8.2 C 7.12 g/m*3 8.2 C 0 km/h
81 09-11-2010 16:10:02 8.1 C 7.16 g/m*3 8.1 C 0 km/h
82 09-11-2010 16:22:01 8 C 7.11 g/m*3 8 C 0 km/h
83 09-11-2010 16:34:02 7.9 C 7.23 g/m*3 7.9 C 0 km/h
84 09-11-2010 16:46:02 7.8 C 7.18 g/m*3 7.8 C 0 km/h
85 09-11-2010 16:58:02 7.8 C 7.26 g/m*3 7.8 C 0 km/h
86 09-11-2010 17:10:02 7.7 C 7.22 g/m*3 7.7 C 0 km/h
87 09-11-2010 17:22:02 7.5 C 7.12 g/m*3 7.5 C 0 km/h
88 09-11-2010 17:34:02 7.2 C 6.99 g/m*3 7.2 C 0 km/h
89 09-11-2010 17:46:02 7.1 C 6.94 g/m*3 7.1 C 0 km/h
90 09-11-2010 17:58:02 7 C 6.97 g/m*3 7 C 0 km/h
91 09-11-2010 18:10:03 6.8 C 6.88 g/m*3 6.8 C 0 km/h
92 09-11-2010 18:22:02 6.7 C 6.84 g/m*3 6.7 C 0 km/h
93 09-11-2010 18:34:02 6.3 C 6.66 g/m*3 6.3 C 0 km/h
94 09-11-2010 18:46:01 6.4 C 6.78 g/m*3 6.4 C 0 km/h
95 09-11-2010 18:58:01 7 C 6.97 g/m*3 7 C 0 km/h
96 09-11-2010 19:10:02 7 C 7.05 g/m*3 7 C 0 km/h
97 09-11-2010 19:22:01 7 C 7.05 g/m*3 7 C 0 km/h
98 09-11-2010 19:34:01 6.7 C 6.91 g/m*3 6.7 C 0 km/h
99 09-11-2010 19:46:01 6.9 C 7.08 g/m*3 6.9 C 0 km/h
100 09-11-2010 19:58:01 6.7 C 6.99 g/m*3 6.7 C 0 km/h
Sensor: Nr:Datum:Temp:Abs-Feuchte:Windchill:Wind:
Aussen-T/F 101 09-11-2010 20:10:02 6.7 C 6.99 g/m*3 6.7 C 0 km/h
102 09-11-2010 20:22:01 6.7 C 6.99 g/m*3 6.7 C 0 km/h
103 09-11-2010 20:34:01 6.7 C 6.99 g/m*3 6.7 C 0 km/h
104 09-11-2010 20:46:01 6.9 C 7.08 g/m*3 6.9 C 0 km/h
105 09-11-2010 20:58:01 6.9 C 7.08 g/m*3 6.9 C 0 km/h
106 09-11-2010 21:10:02 6.9 C 7.08 g/m*3 6.9 C 0 km/h
107 09-11-2010 21:22:01 6.9 C 7.08 g/m*3 6.9 C 0 km/h
108 09-11-2010 21:34:01 6.9 C 7.08 g/m*3 6.9 C 0 km/h
109 09-11-2010 21:46:01 6.8 C 7.04 g/m*3 6.8 C 0 km/h
110 09-11-2010 21:58:01 6.7 C 6.99 g/m*3 6.7 C 0 km/h
111 09-11-2010 22:10:02 6.7 C 6.99 g/m*3 6.7 C 0 km/h
112 09-11-2010 22:23:03 6.7 C 6.99 g/m*3 6.7 C 0 km/h
113 09-11-2010 22:35:03 6.7 C 6.99 g/m*3 6.7 C 0 km/h
114 09-11-2010 22:47:03 6.9 C 7.08 g/m*3 6.9 C 0 km/h
115 09-11-2010 22:59:03 6.9 C 7.08 g/m*3 6.9 C 0 km/h
116 09-11-2010 23:11:03 6.9 C 7.08 g/m*3 6.9 C 0 km/h
117 09-11-2010 23:23:03 6.9 C 7.08 g/m*3 6.9 C 0 km/h
118 09-11-2010 23:35:03 6.9 C 7.08 g/m*3 6.9 C 0 km/h
119 09-11-2010 23:47:03 6.8 C 7.04 g/m*3 6.8 C 0 km/h
120 09-11-2010 23:59:03 6.7 C 6.99 g/m*3 6.7 C 0 km/h
121 10-11-2010 00:11:03 6.6 C 6.95 g/m*3 6.6 C 0 km/h
122 10-11-2010 00:23:03 6.4 C 6.85 g/m*3 6.4 C 0 km/h
123 10-11-2010 00:35:03 6.3 C 6.81 g/m*3 6.3 C 0 km/h
124 10-11-2010 00:47:03 6.7 C 6.99 g/m*3 6.7 C 0 km/h
125 10-11-2010 00:59:03 6.8 C 7.04 g/m*3 6.8 C 0 km/h
Sensor: Nr:Datum:Temp:Abs-Feuchte:Windchill:Wind:
Aussen-T/F 126 10-11-2010 01:11:03 6.9 C 7.08 g/m*3 6.9 C 0 km/h
127 10-11-2010 01:23:03 6.9 C 7.16 g/m*3 6.9 C 0 km/h
128 10-11-2010 01:35:03 7 C 7.13 g/m*3 7 C 0 km/h
129 10-11-2010 01:47:04 6.9 C 7.16 g/m*3 6.9 C 0 km/h
130 10-11-2010 01:59:04 6.9 C 7.16 g/m*3 6.9 C 0 km/h
131 10-11-2010 02:11:04 6.9 C 7.16 g/m*3 6.9 C 0 km/h
132 10-11-2010 02:23:04 6.9 C 7.16 g/m*3 6.9 C 0 km/h
133 10-11-2010 02:35:04 6.8 C 7.11 g/m*3 6.8 C 0 km/h
134 10-11-2010 02:47:04 6.9 C 7.16 g/m*3 6.9 C 0 km/h
135 10-11-2010 02:59:04 7 C 7.13 g/m*3 7 C 0 km/h
136 10-11-2010 03:11:04 7.1 C 7.18 g/m*3 7.1 C 0 km/h
137 10-11-2010 03:23:04 7.1 C 7.18 g/m*3 7.1 C 0 km/h
138 10-11-2010 03:35:04 7 C 7.13 g/m*3 7 C 0 km/h
139 10-11-2010 03:47:04 7.2 C 7.22 g/m*3 7.2 C 0 km/h
140 10-11-2010 03:59:04 7.1 C 7.18 g/m*3 7.1 C 0 km/h
141 10-11-2010 04:11:04 7 C 7.13 g/m*3 7 C 0 km/h
142 10-11-2010 04:23:04 7 C 7.13 g/m*3 7 C 0 km/h
143 10-11-2010 04:35:04 6.8 C 7.11 g/m*3 6.8 C 0 km/h
144 10-11-2010 04:47:04 6.8 C 7.11 g/m*3 6.8 C 0 km/h
145 10-11-2010 04:59:04 6.8 C 7.11 g/m*3 6.8 C 0 km/h
146 10-11-2010 05:11:04 6.8 C 7.11 g/m*3 6.8 C 0 km/h
147 10-11-2010 05:23:04 6.7 C 7.07 g/m*3 6.7 C 0 km/h
148 10-11-2010 05:35:04 6.9 C 7.16 g/m*3 6.9 C 0 km/h
149 10-11-2010 05:47:05 7 C 7.13 g/m*3 7 C 0 km/h
150 10-11-2010 05:59:05 7.1 C 7.18 g/m*3 7.1 C 0 km/h
Sensor: Nr:Datum:Temp:Abs-Feuchte:Windchill:Wind:
Aussen-T/F 151 10-11-2010 06:11:05 7.1 C 7.18 g/m*3 7.1 C 0 km/h
152 10-11-2010 06:23:05 7 C 7.13 g/m*3 7 C 0 km/h
153 10-11-2010 06:35:05 6.9 C 7.16 g/m*3 6.9 C 0 km/h
154 10-11-2010 06:47:05 6.8 C 7.11 g/m*3 6.8 C 0 km/h
155 10-11-2010 06:59:05 6.3 C 6.88 g/m*3 6.3 C 0 km/h
156 10-11-2010 07:11:05 6.1 C 6.79 g/m*3 6.1 C 0 km/h
157 10-11-2010 07:23:05 6.1 C 6.79 g/m*3 6.1 C 0 km/h
158 10-11-2010 07:35:05 6.7 C 6.99 g/m*3 6.7 C 0 km/h
159 10-11-2010 07:47:03 6.3 C 6.81 g/m*3 6.3 C 0 km/h
160 10-11-2010 07:59:03 6.5 C 6.97 g/m*3 6.5 C 0 km/h
161 10-11-2010 08:11:02 6.6 C 7.02 g/m*3 6.6 C 0 km/h
162 10-11-2010 08:23:03 6.6 C 7.02 g/m*3 6.6 C 0 km/h
163 10-11-2010 08:35:02 6.7 C 7.07 g/m*3 6.7 C 0 km/h
164 10-11-2010 08:47:02 6.7 C 6.99 g/m*3 6.7 C 0 km/h
165 10-11-2010 08:59:02 7 C 7.13 g/m*3 7 C 0 km/h
166 10-11-2010 09:11:02 7.3 C 7.27 g/m*3 7.3 C 0 km/h
167 10-11-2010 09:23:02 8.2 C 7.62 g/m*3 8.2 C 0 km/h
168 10-11-2010 09:35:03 8.3 C 7.67 g/m*3 8.3 C 0 km/h
169 10-11-2010 09:47:02 8.6 C 7.73 g/m*3 8.6 C 0 km/h
170 10-11-2010 09:59:03 8.7 C 7.52 g/m*3 8.7 C 0 km/h
171 10-11-2010 10:11:01 9 C 7.32 g/m*3 9 C 0 km/h
172 10-11-2010 10:23:02 9.5 C 7.19 g/m*3 9.5 C 0 km/h
173 10-11-2010 10:35:02 9.6 C 6.96 g/m*3 9.6 C 0 km/h
174 10-11-2010 10:47:02 9.8 C 6.59 g/m*3 9.8 C 0 km/h
175 10-11-2010 10:59:02 10.1 C 6.52 g/m*3 10.1 C 0 km/h
Sensor: Nr:Datum:Temp:Abs-Feuchte:Windchill:Wind:
Aussen-T/F 176 10-11-2010 11:11:03 9.6 C 6.41 g/m*3 9.6 C 0 km/h
177 10-11-2010 11:23:02 9.6 C 6.5 g/m*3 9.6 C 0 km/h
178 10-11-2010 11:35:02 9.5 C 6.46 g/m*3 9.5 C 0 km/h
179 10-11-2010 11:47:01 9.6 C 6.5 g/m*3 9.6 C 0 km/h
180 10-11-2010 11:59:01 9.9 C 6.54 g/m*3 9.9 C 0 km/h
181 10-11-2010 12:11:02 9.8 C 6.49 g/m*3 9.8 C 0 km/h
182 10-11-2010 12:23:01 10.1 C 6.43 g/m*3 10.1 C 0 km/h
183 10-11-2010 12:35:01 9.8 C 6.49 g/m*3 9.8 C 0 km/h
184 10-11-2010 12:47:01 10.4 C 6.55 g/m*3 10.4 C 0 km/h
185 10-11-2010 12:59:01 10.8 C 6.42 g/m*3 10.8 C 0 km/h
186 10-11-2010 13:11:02 10.9 C 6.47 g/m*3 10.9 C 0 km/h
187 10-11-2010 13:23:01 11.2 C 6.18 g/m*3 11.2 C 0 km/h
188 10-11-2010 13:35:01 11.2 C 6.18 g/m*3 11.2 C 0 km/h
189 10-11-2010 13:47:01 11.2 C 5.98 g/m*3 11.2 C 0 km/h
190 10-11-2010 13:59:01 10.9 C 5.97 g/m*3 10.9 C 0 km/h
191 10-11-2010 14:11:01 10.5 C 5.92 g/m*3 10.5 C 0 km/h
192 10-11-2010 14:23:02 10.5 C 6.01 g/m*3 10.5 C 0 km/h
193 10-11-2010 14:35:01 10.5 C 6.01 g/m*3 10.5 C 0 km/h
194 10-11-2010 14:47:02 10.6 C 6.05 g/m*3 10.6 C 0 km/h
195 10-11-2010 14:59:02 10.5 C 6.11 g/m*3 10.5 C 0 km/h
196 10-11-2010 15:11:01 10.2 C 6.28 g/m*3 10.2 C 0 km/h
197 10-11-2010 15:23:02 7.9 C 6.32 g/m*3 7.9 C 0 km/h
198 10-11-2010 15:35:01 7.4 C 6.44 g/m*3 7.4 C 0 km/h
199 10-11-2010 15:47:02 7.1 C 6.47 g/m*3 7.1 C 0 km/h
200 10-11-2010 15:59:02 6.7 C 6.38 g/m*3 6.7 C 0 km/h
Sensor: Nr:Datum:Temp:Abs-Feuchte:Windchill:Wind:
Aussen-T/F 201 10-11-2010 16:11:02 6.5 C 6.22 g/m*3 6.5 C 0 km/h
202 10-11-2010 16:23:02 6.1 C 6.14 g/m*3 6.1 C 0 km/h
203 10-11-2010 16:35:02 6.3 C 6.22 g/m*3 6.3 C 0 km/h
204 10-11-2010 16:47:02 6.1 C 6.14 g/m*3 6.1 C 0 km/h
205 10-11-2010 16:59:02 6.2 C 6.18 g/m*3 6.2 C 0 km/h
206 10-11-2010 17:11:02 6.3 C 6 g/m*3 6.3 C 0 km/h
207 10-11-2010 17:23:02 6.1 C 5.77 g/m*3 6.1 C 0 km/h
208 10-11-2010 17:35:01 5.9 C 5.84 g/m*3 5.9 C 0 km/h
209 10-11-2010 17:47:02 5.7 C 5.69 g/m*3 5.7 C 0 km/h
210 10-11-2010 17:59:02 5.7 C 5.76 g/m*3 5.7 C 0 km/h
211 10-11-2010 18:11:01 5.4 C 5.58 g/m*3 5.4 C 0 km/h
212 10-11-2010 18:23:02 5.3 C 5.68 g/m*3 5.3 C 0 km/h
213 10-11-2010 18:35:01 5.2 C 5.65 g/m*3 5.2 C 0 km/h
214 10-11-2010 18:47:02 5.2 C 5.71 g/m*3 5.2 C 0 km/h
215 10-11-2010 18:59:03 5 C 5.71 g/m*3 5 C 0 km/h
216 10-11-2010 19:11:02 5.1 C 5.68 g/m*3 5.1 C 0 km/h
217 10-11-2010 19:23:02 5 C 5.64 g/m*3 5 C 0 km/h
218 10-11-2010 19:35:02 5.3 C 5.68 g/m*3 5.3 C 0 km/h
219 10-11-2010 19:47:01 5.3 C 5.61 g/m*3 5.3 C 0 km/h
220 10-11-2010 19:59:01 5.3 C 5.54 g/m*3 5.3 C 0 km/h
221 10-11-2010 20:11:02 5.2 C 5.51 g/m*3 5.2 C 0 km/h
222 10-11-2010 20:23:01 5.4 C 5.51 g/m*3 5.4 C 0 km/h
223 10-11-2010 20:35:02 5.5 C 5.48 g/m*3 5.5 C 0 km/h
224 10-11-2010 20:47:02 5.3 C 5.54 g/m*3 5.3 C 0 km/h
225 10-11-2010 20:59:02 5.3 C 5.48 g/m*3 5.3 C 0 km/h
Sensor: Nr:Datum:Temp:Abs-Feuchte:Windchill:Wind:
Aussen-T/F 226 10-11-2010 21:11:02 5 C 5.5 g/m*3 5 C 0 km/h
227 10-11-2010 21:23:02 4.8 C 5.63 g/m*3 4.8 C 0 km/h
228 10-11-2010 21:35:02 4.6 C 5.62 g/m*3 4.6 C 0 km/h
229 10-11-2010 21:47:02 4.1 C 5.44 g/m*3 4.1 C 0 km/h
230 10-11-2010 21:59:02 3.8 C 5.4 g/m*3 3.8 C 0 km/h
231 10-11-2010 22:11:02 4.1 C 5.5 g/m*3 4.1 C 0 km/h
232 10-11-2010 22:24:03 4.3 C 5.58 g/m*3 4.3 C 0 km/h
233 10-11-2010 22:36:04 4.9 C 5.74 g/m*3 4.9 C 0 km/h
234 10-11-2010 22:48:04 4.9 C 5.54 g/m*3 4.9 C 0 km/h
235 10-11-2010 23:00:04 4.5 C 5.32 g/m*3 4.5 C 0 km/h
236 10-11-2010 23:12:04 4.5 C 5.39 g/m*3 4.5 C 0 km/h
237 10-11-2010 23:24:04 4.2 C 5.35 g/m*3 4.2 C 0 km/h
238 10-11-2010 23:36:04 4.1 C 5.31 g/m*3 4.1 C 0 km/h
239 10-11-2010 23:48:04 4.2 C 5.35 g/m*3 4.2 C 0 km/h
240 11-11-2010 00:00:04 4.5 C 5.39 g/m*3 4.5 C 0 km/h
241 11-11-2010 00:12:04 4.8 C 5.3 g/m*3 4.8 C 0 km/h
242 11-11-2010 00:24:04 4.8 C 5.23 g/m*3 4.8 C 0 km/h
243 11-11-2010 00:36:04 4.5 C 5.19 g/m*3 4.5 C 0 km/h
244 11-11-2010 00:48:04 4.4 C 5.35 g/m*3 4.4 C 0 km/h
245 11-11-2010 01:00:04 4.4 C 5.42 g/m*3 4.4 C 0 km/h
246 11-11-2010 01:12:04 4.5 C 5.46 g/m*3 4.5 C 0 km/h
247 11-11-2010 01:24:04 4.5 C 5.46 g/m*3 4.5 C 0 km/h
248 11-11-2010 01:36:04 4.6 C 5.49 g/m*3 4.6 C 0 km/h
249 11-11-2010 01:48:04 4.5 C 5.39 g/m*3 4.5 C 0 km/h
250 11-11-2010 02:00:04 5 C 5.5 g/m*3 5 C 0 km/h
Sensor: Nr:Datum:Temp:Abs-Feuchte:Windchill:Wind:
Aussen-T/F 251 11-11-2010 02:12:04 5 C 5.44 g/m*3 5 C 0 km/h
252 11-11-2010 02:24:04 4.9 C 5.4 g/m*3 4.9 C 0 km/h
253 11-11-2010 02:36:04 5.1 C 5.4 g/m*3 5.1 C 0 km/h
254 11-11-2010 02:48:04 5.1 C 5.34 g/m*3 5.1 C 0 km/h
255 11-11-2010 03:00:05 5.2 C 5.3 g/m*3 5.2 C 0 km/h
256 11-11-2010 03:12:05 5.2 C 5.3 g/m*3 5.2 C 0 km/h
257 11-11-2010 03:24:05 5.2 C 5.23 g/m*3 5.2 C 0 km/h
258 11-11-2010 03:36:05 4.4 C 5.09 g/m*3 4.4 C 0 km/h
259 11-11-2010 03:48:05 4.2 C 5.22 g/m*3 4.2 C 0 km/h
260 11-11-2010 04:00:05 4.6 C 5.29 g/m*3 4.6 C 0 km/h
261 11-11-2010 04:12:05 4.1 C 5.12 g/m*3 4.1 C 0 km/h
262 11-11-2010 04:24:05 4.2 C 5.22 g/m*3 4.2 C 0 km/h
263 11-11-2010 04:36:05 4.5 C 5.32 g/m*3 4.5 C 0 km/h
264 11-11-2010 04:48:05 4.1 C 5.25 g/m*3 4.1 C 0 km/h
265 11-11-2010 05:00:05 3.8 C 5.21 g/m*3 3.8 C 0 km/h
266 11-11-2010 05:12:05 4 C 5.28 g/m*3 4 C 0 km/h
267 11-11-2010 05:24:05 3.7 C 5.11 g/m*3 3.7 C 0 km/h
268 11-11-2010 05:36:05 4.6 C 5.23 g/m*3 4.6 C 0 km/h
269 11-11-2010 05:48:05 4.5 C 5.19 g/m*3 4.5 C 0 km/h
270 11-11-2010 06:00:05 4.2 C 5.03 g/m*3 4.2 C 0 km/h
271 11-11-2010 06:12:05 3.5 C 4.92 g/m*3 3.5 C 0 km/h
272 11-11-2010 06:24:05 3.6 C 5.08 g/m*3 3.6 C 0 km/h
273 11-11-2010 06:36:05 3.7 C 5.05 g/m*3 3.7 C 0 km/h
274 11-11-2010 06:48:05 3.5 C 4.98 g/m*3 3.5 C 0 km/h
275 11-11-2010 07:00:05 3.1 C 4.85 g/m*3 3.1 C 0 km/h
Sensor: Nr:Datum:Temp:Abs-Feuchte:Windchill:Wind:
Aussen-T/F 276 11-11-2010 07:12:05 3.1 C 4.91 g/m*3 3.1 C 0 km/h
277 11-11-2010 07:24:03 3.6 C 5.08 g/m*3 3.6 C 0 km/h
278 11-11-2010 07:36:03 4 C 5.09 g/m*3 4 C 0 km/h
279 11-11-2010 07:48:01 4 C 4.96 g/m*3 4 C 0 km/h
280 11-11-2010 08:00:01 3.3 C 4.73 g/m*3 3.3 C 0 km/h
281 11-11-2010 08:12:02 2.5 C 4.71 g/m*3 2.5 C 0 km/h
282 11-11-2010 08:24:01 2 C 4.61 g/m*3 2 C 0 km/h
283 11-11-2010 08:36:02 2.1 C 4.76 g/m*3 2.1 C 0 km/h
284 11-11-2010 08:48:02 1.7 C 4.74 g/m*3 1.7 C 0 km/h
285 11-11-2010 09:00:02 2.2 C 4.9 g/m*3 2.2 C 0 km/h
286 11-11-2010 09:12:02 3.1 C 5.27 g/m*3 3.1 C 0 km/h
287 11-11-2010 09:24:02 4 C 5.53 g/m*3 4 C 0 km/h
288 11-11-2010 09:36:02 4.5 C 5.52 g/m*3 4.5 C 0 km/h
289 11-11-2010 09:48:02 4.5 C 5.19 g/m*3 4.5 C 0 km/h
290 11-11-2010 10:00:02 4.7 C 4.93 g/m*3 4.7 C 0 km/h
291 11-11-2010 10:12:02 5 C 4.76 g/m*3 5 C 0 km/h
292 11-11-2010 10:24:02 5.5 C 4.64 g/m*3 5.5 C 0 km/h
293 11-11-2010 10:36:02 6.2 C 4.41 g/m*3 6.2 C 0 km/h
294 11-11-2010 10:48:02 6.5 C 4.12 g/m*3 6.5 C 0 km/h
295 11-11-2010 11:00:02 6.7 C 3.88 g/m*3 6.7 C 0 km/h
296 11-11-2010 11:12:02 6.9 C 3.85 g/m*3 6.9 C 0 km/h
297 11-11-2010 11:24:02 7 C 3.72 g/m*3 7 C 0 km/h
298 11-11-2010 11:36:02 7.1 C 3.74 g/m*3 7.1 C 0 km/h
299 11-11-2010 11:48:03 7 C 3.72 g/m*3 7 C 0 km/h
300 11-11-2010 12:00:03 7.2 C 3.92 g/m*3 7.2 C 0 km/h
Sensor: Nr:Datum:Temp:Abs-Feuchte:Windchill:Wind:
Aussen-T/F 301 11-11-2010 12:12:03 7.2 C 3.85 g/m*3 7.2 C 0 km/h
302 11-11-2010 12:24:03 7.4 C 3.98 g/m*3 7.4 C 0 km/h
303 11-11-2010 12:36:04 7.6 C 4.03 g/m*3 7.6 C 0 km/h
304 11-11-2010 12:48:04 7.9 C 4.11 g/m*3 7.9 C 0 km/h
305 11-11-2010 13:00:04 7.9 C 4.11 g/m*3 7.9 C 0 km/h
306 11-11-2010 13:12:04 7.7 C 4.14 g/m*3 7.7 C 0 km/h
307 11-11-2010 13:24:04 7.7 C 4.22 g/m*3 7.7 C 0 km/h
308 11-11-2010 13:36:04 7.6 C 4.11 g/m*3 7.6 C 0 km/h
309 11-11-2010 13:48:04 7.6 C 4.19 g/m*3 7.6 C 0 km/h
310 11-11-2010 14:00:04 7.4 C 4.21 g/m*3 7.4 C 0 km/h
311 11-11-2010 14:12:04 7.4 C 4.29 g/m*3 7.4 C 0 km/h
312 11-11-2010 14:24:04 7.3 C 4.27 g/m*3 7.3 C 0 km/h
313 11-11-2010 14:36:04 7.3 C 4.19 g/m*3 7.3 C 0 km/h
314 11-11-2010 14:48:04 7.4 C 4.21 g/m*3 7.4 C 0 km/h
315 11-11-2010 15:00:04 7.3 C 4.27 g/m*3 7.3 C 0 km/h
316 11-11-2010 15:12:04 7.3 C 4.35 g/m*3 7.3 C 0 km/h
317 11-11-2010 15:24:04 7 C 4.34 g/m*3 7 C 0 km/h
318 11-11-2010 15:36:04 6.4 C 4.47 g/m*3 6.4 C 0 km/h
319 11-11-2010 15:48:04 6 C 4.79 g/m*3 6 C 0 km/h
320 11-11-2010 16:00:04 5.7 C 4.91 g/m*3 5.7 C 0 km/h
321 11-11-2010 16:12:04 5.7 C 5.05 g/m*3 5.7 C 0 km/h
322 11-11-2010 16:24:04 5.6 C 5.09 g/m*3 5.6 C 0 km/h
323 11-11-2010 16:36:04 5.3 C 5.06 g/m*3 5.3 C 0 km/h
324 11-11-2010 16:48:04 5.4 C 5.3 g/m*3 5.4 C 0 km/h
325 11-11-2010 17:00:05 5 C 5.3 g/m*3 5 C 0 km/h
Sensor: Nr:Datum:Temp:Abs-Feuchte:Windchill:Wind:
Aussen-T/F 326 11-11-2010 17:12:05 5 C 5.44 g/m*3 5 C 0 km/h
327 11-11-2010 17:24:05 5.4 C 5.51 g/m*3 5.4 C 0 km/h
328 11-11-2010 17:36:05 5.6 C 5.59 g/m*3 5.6 C 0 km/h
329 11-11-2010 17:48:05 5.4 C 5.58 g/m*3 5.4 C 0 km/h
330 11-11-2010 18:00:05 5.5 C 5.69 g/m*3 5.5 C 0 km/h
331 11-11-2010 18:12:05 5.5 C 5.76 g/m*3 5.5 C 0 km/h
332 11-11-2010 18:24:05 5.6 C 5.87 g/m*3 5.6 C 0 km/h
333 11-11-2010 18:36:05 5.7 C 5.98 g/m*3 5.7 C 0 km/h
334 11-11-2010 18:48:01 5.9 C 6.06 g/m*3 5.9 C 0 km/h
335 11-11-2010 19:00:01 5.9 C 6.13 g/m*3 5.9 C 0 km/h
336 11-11-2010 19:12:02 5.9 C 6.2 g/m*3 5.9 C 0 km/h
337 11-11-2010 19:24:02 6.2 C 6.32 g/m*3 6.2 C 0 km/h
338 11-11-2010 19:36:01 6.5 C 6.37 g/m*3 6.5 C 0 km/h
339 11-11-2010 19:48:02 6.6 C 6.34 g/m*3 6.6 C 0 km/h
340 11-11-2010 20:00:02 7 C 6.35 g/m*3 7 C 0 km/h
341 11-11-2010 20:12:01 7.2 C 6.28 g/m*3 7.2 C 0 km/h
342 11-11-2010 20:24:02 7.6 C 6.36 g/m*3 7.6 C 0 km/h
343 11-11-2010 20:36:01 7.7 C 6.41 g/m*3 7.7 C 0 km/h
344 11-11-2010 20:48:03 8 C 6.28 g/m*3 8 C 0 km/h
345 11-11-2010 21:00:03 7.9 C 6.41 g/m*3 7.9 C 0 km/h
346 11-11-2010 21:12:02 8.4 C 6.45 g/m*3 8.4 C 0 km/h
347 11-11-2010 21:24:02 8.5 C 6.57 g/m*3 8.5 C 0 km/h
348 11-11-2010 21:36:02 8.7 C 6.66 g/m*3 8.7 C 0 km/h
349 11-11-2010 21:48:02 8.7 C 6.75 g/m*3 8.7 C 0 km/h
350 11-11-2010 22:00:02 8.5 C 6.83 g/m*3 8.5 C 0 km/h
Sensor: Nr:Datum:Temp:Abs-Feuchte:Windchill:Wind:
Aussen-T/F 351 11-11-2010 22:12:02 8.7 C 7.09 g/m*3 8.7 C 0 km/h
352 11-11-2010 22:24:02 9 C 7.32 g/m*3 9 C 0 km/h
353 11-11-2010 22:36:01 10.2 C 7.52 g/m*3 10.2 C 0 km/h
354 11-11-2010 22:48:02 10.3 C 7.37 g/m*3 10.3 C 0 km/h
355 11-11-2010 23:00:02 10 C 7.42 g/m*3 10 C 0 km/h
356 11-11-2010 23:12:01 9.9 C 7.75 g/m*3 9.9 C 0 km/h
357 11-11-2010 23:24:02 9.7 C 7.74 g/m*3 9.7 C 0 km/h
358 11-11-2010 23:36:01 9.6 C 7.79 g/m*3 9.6 C 0 km/h
359 11-11-2010 23:48:02 9.7 C 7.74 g/m*3 9.7 C 0 km/h
360 12-11-2010 00:00:02 10 C 7.52 g/m*3 10 C 0 km/h
361 12-11-2010 00:12:02 9.7 C 7.01 g/m*3 9.7 C 0 km/h
362 12-11-2010 00:24:02 9.6 C 6.78 g/m*3 9.6 C 0 km/h
363 12-11-2010 00:36:02 10 C 6.39 g/m*3 10 C 0 km/h
364 12-11-2010 00:48:01 9.4 C 6.42 g/m*3 9.4 C 0 km/h
365 12-11-2010 01:00:01 9.5 C 6.37 g/m*3 9.5 C 0 km/h
366 12-11-2010 01:12:02 9.3 C 6.11 g/m*3 9.3 C 0 km/h
367 12-11-2010 01:24:01 10 C 6.01 g/m*3 10 C 0 km/h
368 12-11-2010 01:36:02 10.2 C 5.71 g/m*3 10.2 C 0 km/h
369 12-11-2010 01:48:01 10.2 C 5.42 g/m*3 10.2 C 0 km/h
370 12-11-2010 02:00:01 9.7 C 5.44 g/m*3 9.7 C 0 km/h
371 12-11-2010 02:12:02 9.4 C 5.61 g/m*3 9.4 C 0 km/h
372 12-11-2010 02:24:01 10.2 C 5.71 g/m*3 10.2 C 0 km/h
373 12-11-2010 02:36:02 10.2 C 5.8 g/m*3 10.2 C 0 km/h
374 12-11-2010 02:49:03 9.9 C 5.6 g/m*3 9.9 C 0 km/h
375 12-11-2010 03:01:03 9.6 C 5.77 g/m*3 9.6 C 0 km/h
Sensor: Nr:Datum:Temp:Abs-Feuchte:Windchill:Wind:
Aussen-T/F 376 12-11-2010 03:13:04 9.6 C 5.86 g/m*3 9.6 C 0 km/h
377 12-11-2010 03:25:04 9.3 C 5.75 g/m*3 9.3 C 0 km/h
378 12-11-2010 03:37:02 9.6 C 5.86 g/m*3 9.6 C 0 km/h
379 12-11-2010 03:49:02 9.9 C 5.79 g/m*3 9.9 C 0 km/h
380 12-11-2010 04:01:02 9.9 C 5.7 g/m*3 9.9 C 0 km/h
381 12-11-2010 04:13:02 10.1 C 5.48 g/m*3 10.1 C 0 km/h
382 12-11-2010 04:25:01 9.8 C 5.57 g/m*3 9.8 C 0 km/h
383 12-11-2010 04:37:02 9.5 C 5.55 g/m*3 9.5 C 0 km/h
384 12-11-2010 04:49:02 9.7 C 5.72 g/m*3 9.7 C 0 km/h
385 12-11-2010 05:01:02 9.9 C 5.79 g/m*3 9.9 C 0 km/h
386 12-11-2010 05:13:02 9.5 C 5.73 g/m*3 9.5 C 0 km/h
387 12-11-2010 05:25:02 9.8 C 5.85 g/m*3 9.8 C 0 km/h
388 12-11-2010 05:37:02 10.2 C 5.71 g/m*3 10.2 C 0 km/h
389 12-11-2010 05:49:01 10.3 C 5.75 g/m*3 10.3 C 0 km/h
390 12-11-2010 06:01:02 10.6 C 5.66 g/m*3 10.6 C 0 km/h
391 12-11-2010 06:13:02 10.7 C 5.7 g/m*3 10.7 C 0 km/h
392 12-11-2010 06:25:02 10.6 C 5.76 g/m*3 10.6 C 0 km/h
393 12-11-2010 06:37:01 10.6 C 5.86 g/m*3 10.6 C 0 km/h
394 12-11-2010 06:49:02 10.6 C 5.86 g/m*3 10.6 C 0 km/h
395 12-11-2010 07:01:01 10.7 C 5.89 g/m*3 10.7 C 0 km/h
396 12-11-2010 07:13:01 10.5 C 5.82 g/m*3 10.5 C 0 km/h
397 12-11-2010 07:25:02 10.7 C 5.8 g/m*3 10.7 C 0 km/h
398 12-11-2010 07:37:01 10.5 C 5.72 g/m*3 10.5 C 0 km/h
399 12-11-2010 07:49:02 10.7 C 5.8 g/m*3 10.7 C 0 km/h
400 12-11-2010 08:01:01 10.7 C 5.8 g/m*3 10.7 C 0 km/h
Sensor: Nr:Datum:Temp:Abs-Feuchte:Windchill:Wind:
Aussen-T/F 401 12-11-2010 08:13:01 10.6 C 5.86 g/m*3 10.6 C 0 km/h
402 12-11-2010 08:25:02 10.8 C 5.83 g/m*3 10.8 C 0 km/h
403 12-11-2010 08:37:02 10.7 C 5.8 g/m*3 10.7 C 0 km/h
404 12-11-2010 08:49:01 10.7 C 5.8 g/m*3 10.7 C 0 km/h
405 12-11-2010 09:01:02 10.7 C 5.8 g/m*3 10.7 C 0 km/h
406 12-11-2010 09:13:02 11 C 5.81 g/m*3 11 C 0 km/h
407 12-11-2010 09:25:01 10.8 C 5.83 g/m*3 10.8 C 0 km/h
408 12-11-2010 09:37:01 10.8 C 5.93 g/m*3 10.8 C 0 km/h
409 12-11-2010 09:49:01 10.9 C 5.87 g/m*3 10.9 C 0 km/h
410 12-11-2010 10:01:02 10.1 C 6.05 g/m*3 10.1 C 0 km/h
411 12-11-2010 10:13:02 10.5 C 6.11 g/m*3 10.5 C 0 km/h
412 12-11-2010 10:25:01 10.8 C 6.23 g/m*3 10.8 C 0 km/h
413 12-11-2010 10:37:01 11 C 6.11 g/m*3 11 C 0 km/h
414 12-11-2010 10:49:01 11.1 C 6.04 g/m*3 11.1 C 0 km/h
415 12-11-2010 11:01:02 11.2 C 6.08 g/m*3 11.2 C 0 km/h
416 12-11-2010 11:13:02 11.1 C 6.14 g/m*3 11.1 C 0 km/h
417 12-11-2010 11:25:01 11.4 C 6.16 g/m*3 11.4 C 0 km/h
418 12-11-2010 11:37:01 11.6 C 6.03 g/m*3 11.6 C 0 km/h
419 12-11-2010 11:49:01 11.8 C 6 g/m*3 11.8 C 0 km/h
420 12-11-2010 12:01:01 11.9 C 5.93 g/m*3 11.9 C 0 km/h
421 12-11-2010 12:13:01 12.1 C 5.79 g/m*3 12.1 C 0 km/h
422 12-11-2010 12:25:02 12.1 C 5.79 g/m*3 12.1 C 0 km/h
423 12-11-2010 12:37:01 11.7 C 5.86 g/m*3 11.7 C 0 km/h
424 12-11-2010 12:49:02 11.6 C 6.55 g/m*3 11.6 C 0 km/h
425 12-11-2010 13:01:02 11.7 C 6.28 g/m*3 11.7 C 0 km/h
Sensor: Nr:Datum:Temp:Abs-Feuchte:Windchill:Wind:
Aussen-T/F 426 12-11-2010 13:13:02 12 C 6.18 g/m*3 12 C 0 km/h
427 12-11-2010 13:25:02 11.8 C 6.1 g/m*3 11.8 C 0 km/h
428 12-11-2010 13:37:01 11.4 C 6.36 g/m*3 11.4 C 0 km/h
429 12-11-2010 13:49:02 11.3 C 6.53 g/m*3 11.3 C 0 km/h
430 12-11-2010 14:01:01 11.7 C 6.48 g/m*3 11.7 C 0 km/h
431 12-11-2010 14:13:01 11.6 C 6.55 g/m*3 11.6 C 0 km/h
432 12-11-2010 14:25:02 11.6 C 6.55 g/m*3 11.6 C 0 km/h
433 12-11-2010 14:37:02 11.6 C 6.55 g/m*3 11.6 C 0 km/h
434 12-11-2010 14:49:02 11.5 C 6.61 g/m*3 11.5 C 0 km/h
435 12-11-2010 15:01:02 11.5 C 6.61 g/m*3 11.5 C 0 km/h
436 12-11-2010 15:13:02 11.5 C 6.61 g/m*3 11.5 C 0 km/h
437 12-11-2010 15:25:02 11.5 C 6.51 g/m*3 11.5 C 0 km/h
438 12-11-2010 15:37:02 11.8 C 6.53 g/m*3 11.8 C 0 km/h
439 12-11-2010 15:49:01 11.7 C 6.59 g/m*3 11.7 C 0 km/h
440 12-11-2010 16:01:02 11.7 C 6.59 g/m*3 11.7 C 0 km/h
441 12-11-2010 16:13:02 11.5 C 6.51 g/m*3 11.5 C 0 km/h
442 12-11-2010 16:25:01 11.5 C 6.82 g/m*3 11.5 C 0 km/h
443 12-11-2010 16:37:02 11.7 C 6.9 g/m*3 11.7 C 0 km/h
444 12-11-2010 16:49:02 11.3 C 6.83 g/m*3 11.3 C 0 km/h
445 12-11-2010 17:01:02 11.1 C 6.95 g/m*3 11.1 C 0 km/h
446 12-11-2010 17:13:03 11 C 7.11 g/m*3 11 C 0 km/h
447 12-11-2010 17:25:01 11.3 C 7.34 g/m*3 11.3 C 0 km/h
448 12-11-2010 17:37:02 11.2 C 7.3 g/m*3 11.2 C 0 km/h
449 12-11-2010 17:49:01 11.2 C 7.3 g/m*3 11.2 C 0 km/h
450 12-11-2010 18:01:02 10.8 C 7.41 g/m*3 10.8 C 0 km/h
Sensor: Nr:Datum:Temp:Abs-Feuchte:Windchill:Wind:
Aussen-T/F 451 12-11-2010 18:13:02 10.6 C 7.61 g/m*3 10.6 C 0 km/h
452 12-11-2010 18:25:02 10.5 C 7.86 g/m*3 10.5 C 0 km/h
453 12-11-2010 18:37:02 10.3 C 7.85 g/m*3 10.3 C 0 km/h
454 12-11-2010 18:49:02 10.2 C 7.9 g/m*3 10.2 C 0 km/h
455 12-11-2010 19:01:02 10.5 C 8.15 g/m*3 10.5 C 0 km/h
456 12-11-2010 19:13:02 10.2 C 8.09 g/m*3 10.2 C 0 km/h
457 12-11-2010 19:25:02 10.3 C 8.24 g/m*3 10.3 C 0 km/h
458 12-11-2010 19:37:01 10.6 C 8.39 g/m*3 10.6 C 0 km/h
459 12-11-2010 19:49:02 11 C 8.61 g/m*3 11 C 0 km/h
460 12-11-2010 20:01:02 11.3 C 8.67 g/m*3 11.3 C 0 km/h
461 12-11-2010 20:13:02 11.6 C 8.83 g/m*3 11.6 C 0 km/h
462 12-11-2010 20:25:02 11.5 C 8.68 g/m*3 11.5 C 0 km/h
463 12-11-2010 20:37:02 11.5 C 8.78 g/m*3 11.5 C 0 km/h
464 12-11-2010 20:49:01 11.7 C 8.89 g/m*3 11.7 C 0 km/h
465 12-11-2010 21:01:02 11.9 C 9.11 g/m*3 11.9 C 0 km/h
466 12-11-2010 21:13:02 11.8 C 9.05 g/m*3 11.8 C 0 km/h
467 12-11-2010 21:25:02 11.8 C 9.16 g/m*3 11.8 C 0 km/h
468 12-11-2010 21:37:02 12.5 C 9.46 g/m*3 12.5 C 0 km/h
469 12-11-2010 21:49:02 12.8 C 9.63 g/m*3 12.8 C 0 km/h
470 12-11-2010 22:01:02 12.8 C 9.41 g/m*3 12.8 C 0 km/h
471 12-11-2010 22:13:02 13.2 C 9.42 g/m*3 13.2 C 0 km/h
472 12-11-2010 22:25:02 13.4 C 9.3 g/m*3 13.4 C 0 km/h
473 12-11-2010 22:37:02 13.4 C 8.95 g/m*3 13.4 C 0 km/h
474 12-11-2010 22:49:02 13.7 C 9 g/m*3 13.7 C 0 km/h
475 12-11-2010 23:01:02 13.7 C 8.76 g/m*3 13.7 C 0 km/h
Sensor: Nr:Datum:Temp:Abs-Feuchte:Windchill:Wind:
Aussen-T/F 476 12-11-2010 23:13:02 13.8 C 8.82 g/m*3 13.8 C 0 km/h
477 12-11-2010 23:25:02 13.8 C 8.7 g/m*3 13.8 C 0 km/h
478 12-11-2010 23:37:02 14 C 8.56 g/m*3 14 C 0 km/h
479 12-11-2010 23:49:02 14.1 C 8.62 g/m*3 14.1 C 0 km/h
480 13-11-2010 00:01:02 14 C 8.68 g/m*3 14 C 0 km/h
481 13-11-2010 00:13:02 13.9 C 8.75 g/m*3 13.9 C 0 km/h
482 13-11-2010 00:25:02 13.8 C 8.94 g/m*3 13.8 C 0 km/h
483 13-11-2010 00:37:03 13.6 C 8.94 g/m*3 13.6 C 0 km/h
484 13-11-2010 00:49:02 13.8 C 8.94 g/m*3 13.8 C 0 km/h
485 13-11-2010 01:01:02 13.8 C 9.06 g/m*3 13.8 C 0 km/h
486 13-11-2010 01:13:02 13.8 C 9.17 g/m*3 13.8 C 0 km/h
487 13-11-2010 01:25:02 14 C 9.05 g/m*3 14 C 0 km/h
488 13-11-2010 01:37:02 14 C 8.93 g/m*3 14 C 0 km/h
489 13-11-2010 01:49:02 13.7 C 9.12 g/m*3 13.7 C 0 km/h
490 13-11-2010 02:01:02 13.8 C 9.29 g/m*3 13.8 C 0 km/h
491 13-11-2010 02:13:02 13.6 C 9.18 g/m*3 13.6 C 0 km/h
492 13-11-2010 02:25:02 14 C 9.29 g/m*3 14 C 0 km/h
493 13-11-2010 02:37:02 13.9 C 9.35 g/m*3 13.9 C 0 km/h
494 13-11-2010 02:49:01 13.6 C 9.3 g/m*3 13.6 C 0 km/h
495 13-11-2010 03:01:01 13.9 C 9.47 g/m*3 13.9 C 0 km/h
496 13-11-2010 03:13:01 14 C 9.41 g/m*3 14 C 0 km/h
497 13-11-2010 03:25:02 14.2 C 9.28 g/m*3 14.2 C 0 km/h
498 13-11-2010 03:37:01 14.5 C 9.2 g/m*3 14.5 C 0 km/h
499 13-11-2010 03:49:01 14.4 C 9.27 g/m*3 14.4 C 0 km/h
500 13-11-2010 04:01:02 14.3 C 9.21 g/m*3 14.3 C 0 km/h
Sensor: Nr:Datum:Temp:Abs-Feuchte:Windchill:Wind:
Aussen-T/F 501 13-11-2010 04:13:02 14.3 C 9.21 g/m*3 14.3 C 0 km/h
502 13-11-2010 04:25:01 13.9 C 9.23 g/m*3 13.9 C 0 km/h
503 13-11-2010 04:37:01 13.9 C 9.35 g/m*3 13.9 C 0 km/h
504 13-11-2010 04:49:01 14.3 C 9.21 g/m*3 14.3 C 0 km/h
505 13-11-2010 05:01:01 14.5 C 9.2 g/m*3 14.5 C 0 km/h
506 13-11-2010 05:13:01 14.4 C 9.15 g/m*3 14.4 C 0 km/h
507 13-11-2010 05:25:01 14.4 C 9.02 g/m*3 14.4 C 0 km/h
508 13-11-2010 05:37:01 14.6 C 9.13 g/m*3 14.6 C 0 km/h
509 13-11-2010 05:49:01 14.6 C 9.01 g/m*3 14.6 C 0 km/h
510 13-11-2010 06:01:01 14.5 C 8.95 g/m*3 14.5 C 0 km/h
511 13-11-2010 06:13:01 14.7 C 9.07 g/m*3 14.7 C 0 km/h
512 13-11-2010 06:25:02 14.6 C 9.13 g/m*3 14.6 C 0 km/h
513 13-11-2010 06:37:01 14.7 C 9.07 g/m*3 14.7 C 0 km/h
514 13-11-2010 06:49:02 14.6 C 9.01 g/m*3 14.6 C 0 km/h
515 13-11-2010 07:01:01 14.7 C 9.07 g/m*3 14.7 C 0 km/h
516 13-11-2010 07:13:01 14.8 C 8.99 g/m*3 14.8 C 0 km/h
517 13-11-2010 07:25:01 14.7 C 8.94 g/m*3 14.7 C 0 km/h
518 13-11-2010 07:37:01 14.7 C 8.94 g/m*3 14.7 C 0 km/h
519 13-11-2010 07:49:01 14.7 C 9.07 g/m*3 14.7 C 0 km/h
520 13-11-2010 08:01:01 14.6 C 9.01 g/m*3 14.6 C 0 km/h
521 13-11-2010 08:13:01 14.7 C 9.07 g/m*3 14.7 C 0 km/h
522 13-11-2010 08:25:01 14.9 C 8.92 g/m*3 14.9 C 0 km/h
523 13-11-2010 08:37:02 14.7 C 8.94 g/m*3 14.7 C 0 km/h
524 13-11-2010 08:49:01 14.7 C 9.07 g/m*3 14.7 C 0 km/h
525 13-11-2010 09:01:02 14.2 C 9.04 g/m*3 14.2 C 0 km/h
Sensor: Nr:Datum:Temp:Abs-Feuchte:Windchill:Wind:
Aussen-T/F 526 13-11-2010 09:13:02 14.1 C 9.22 g/m*3 14.1 C 0 km/h
527 13-11-2010 09:25:01 14.2 C 9.16 g/m*3 14.2 C 0 km/h
528 13-11-2010 09:37:01 14.2 C 9.16 g/m*3 14.2 C 0 km/h
529 13-11-2010 09:49:01 14.2 C 9.16 g/m*3 14.2 C 0 km/h
530 13-11-2010 10:01:02 14 C 9.05 g/m*3 14 C 0 km/h
531 13-11-2010 10:13:02 14 C 9.29 g/m*3 14 C 0 km/h
532 13-11-2010 10:25:01 14.2 C 9.28 g/m*3 14.2 C 0 km/h
533 13-11-2010 10:37:01 14.6 C 9.26 g/m*3 14.6 C 0 km/h
534 13-11-2010 10:49:01 14.8 C 9.25 g/m*3 14.8 C 0 km/h
535 13-11-2010 11:01:01 14.7 C 9.07 g/m*3 14.7 C 0 km/h
536 13-11-2010 11:13:01 14.8 C 9.12 g/m*3 14.8 C 0 km/h
537 13-11-2010 11:25:02 14.6 C 9.01 g/m*3 14.6 C 0 km/h
538 13-11-2010 11:37:01 14.7 C 9.07 g/m*3 14.7 C 0 km/h
539 13-11-2010 11:49:02 15 C 8.72 g/m*3 15 C 0 km/h
540 13-11-2010 12:01:01 15.2 C 8.7 g/m*3 15.2 C 0 km/h
541 13-11-2010 12:13:01 14.8 C 8.74 g/m*3 14.8 C 0 km/h
542 13-11-2010 12:25:02 14.6 C 8.88 g/m*3 14.6 C 0 km/h
543 13-11-2010 12:37:01 14.7 C 8.94 g/m*3 14.7 C 0 km/h
544 13-11-2010 12:49:02 14.7 C 8.94 g/m*3 14.7 C 0 km/h
545 13-11-2010 13:01:01 14.5 C 8.95 g/m*3 14.5 C 0 km/h
546 13-11-2010 13:13:01 14.8 C 8.87 g/m*3 14.8 C 0 km/h
547 13-11-2010 13:25:01 15.1 C 8.77 g/m*3 15.1 C 0 km/h
548 13-11-2010 13:37:02 14.9 C 8.79 g/m*3 14.9 C 0 km/h
549 13-11-2010 13:49:01 14.5 C 8.83 g/m*3 14.5 C 0 km/h
550 13-11-2010 14:01:02 14.7 C 8.81 g/m*3 14.7 C 0 km/h
Sensor: Nr:Datum:Temp:Abs-Feuchte:Windchill:Wind:
Aussen-T/F 551 13-11-2010 14:13:02 14.8 C 8.61 g/m*3 14.8 C 0 km/h
552 13-11-2010 14:25:01 14.9 C 8.67 g/m*3 14.9 C 0 km/h
553 13-11-2010 14:37:02 14.8 C 8.61 g/m*3 14.8 C 0 km/h
554 13-11-2010 14:49:01 14.7 C 8.69 g/m*3 14.7 C 0 km/h
555 13-11-2010 15:01:02 14.8 C 8.61 g/m*3 14.8 C 0 km/h
556 13-11-2010 15:13:02 14.7 C 8.56 g/m*3 14.7 C 0 km/h
557 13-11-2010 15:25:01 14.7 C 8.56 g/m*3 14.7 C 0 km/h
558 13-11-2010 15:37:02 15 C 8.46 g/m*3 15 C 0 km/h
559 13-11-2010 15:49:01 14.9 C 8.54 g/m*3 14.9 C 0 km/h
560 13-11-2010 16:01:01 14.7 C 8.56 g/m*3 14.7 C 0 km/h
561 13-11-2010 16:13:01 14.6 C 8.76 g/m*3 14.6 C 0 km/h
562 13-11-2010 16:25:02 14.7 C 8.69 g/m*3 14.7 C 0 km/h
563 13-11-2010 16:37:01 14.7 C 8.69 g/m*3 14.7 C 0 km/h
564 13-11-2010 16:49:02 14.7 C 8.69 g/m*3 14.7 C 0 km/h
565 13-11-2010 17:01:01 14.6 C 8.63 g/m*3 14.6 C 0 km/h
566 13-11-2010 17:13:01 14.3 C 8.72 g/m*3 14.3 C 0 km/h
567 13-11-2010 17:25:01 14 C 8.81 g/m*3 14 C 0 km/h
568 13-11-2010 17:37:01 14 C 8.81 g/m*3 14 C 0 km/h
569 13-11-2010 17:49:01 14.4 C 8.78 g/m*3 14.4 C 0 km/h
570 13-11-2010 18:01:01 14.7 C 8.81 g/m*3 14.7 C 0 km/h
571 13-11-2010 18:13:01 14.5 C 8.71 g/m*3 14.5 C 0 km/h
572 13-11-2010 18:25:01 14.5 C 8.71 g/m*3 14.5 C 0 km/h
573 13-11-2010 18:37:02 14.7 C 8.69 g/m*3 14.7 C 0 km/h
574 13-11-2010 18:49:01 15 C 8.59 g/m*3 15 C 0 km/h
575 13-11-2010 19:01:02 14.7 C 8.56 g/m*3 14.7 C 0 km/h
Sensor: Nr:Datum:Temp:Abs-Feuchte:Windchill:Wind:
Aussen-T/F 576 13-11-2010 19:13:02 14.8 C 8.61 g/m*3 14.8 C 0 km/h
577 13-11-2010 19:25:01 14.9 C 8.54 g/m*3 14.9 C 0 km/h
578 13-11-2010 19:37:02 15.1 C 8.51 g/m*3 15.1 C 0 km/h
579 13-11-2010 19:49:01 15.2 C 8.31 g/m*3 15.2 C 0 km/h
580 13-11-2010 20:01:02 15.3 C 8.23 g/m*3 15.3 C 0 km/h
581 13-11-2010 20:13:02 15.2 C 8.18 g/m*3 15.2 C 0 km/h
582 13-11-2010 20:25:01 15.1 C 8.26 g/m*3 15.1 C 0 km/h
583 13-11-2010 20:37:02 14.8 C 8.36 g/m*3 14.8 C 0 km/h
584 13-11-2010 20:49:01 14.6 C 8.38 g/m*3 14.6 C 0 km/h
585 13-11-2010 21:01:02 14.4 C 8.53 g/m*3 14.4 C 0 km/h
586 13-11-2010 21:13:02 14.3 C 8.35 g/m*3 14.3 C 0 km/h
587 13-11-2010 21:25:01 14.5 C 8.46 g/m*3 14.5 C 0 km/h
588 13-11-2010 21:37:01 14.5 C 8.33 g/m*3 14.5 C 0 km/h
589 13-11-2010 21:49:01 14.9 C 8.28 g/m*3 14.9 C 0 km/h
590 13-11-2010 22:01:02 14.8 C 8.23 g/m*3 14.8 C 0 km/h
591 13-11-2010 22:13:02 14.8 C 8.23 g/m*3 14.8 C 0 km/h
592 13-11-2010 22:25:01 15.1 C 8 g/m*3 15.1 C 0 km/h
593 13-11-2010 22:37:02 14.8 C 8.11 g/m*3 14.8 C 0 km/h
594 13-11-2010 22:49:01 14.8 C 7.98 g/m*3 14.8 C 0 km/h
595 13-11-2010 23:02:07 14.7 C 8.06 g/m*3 14.7 C 0 km/h
596 13-11-2010 23:14:07 15.2 C 7.92 g/m*3 15.2 C 0 km/h
597 13-11-2010 23:26:07 14.8 C 8.11 g/m*3 14.8 C 0 km/h
598 13-11-2010 23:38:07 14.6 C 8.01 g/m*3 14.6 C 0 km/h
599 13-11-2010 23:50:07 14.4 C 8.16 g/m*3 14.4 C 0 km/h
600 14-11-2010 00:02:07 14.9 C 8.03 g/m*3 14.9 C 0 km/h
Sensor: Nr:Datum:Temp:Abs-Feuchte:Windchill:Wind:
Aussen-T/F 601 14-11-2010 00:14:07 15.6 C 8.11 g/m*3 15.6 C 0 km/h
602 14-11-2010 00:26:07 15.2 C 7.92 g/m*3 15.2 C 0 km/h
603 14-11-2010 00:38:07 14.9 C 8.16 g/m*3 14.9 C 0 km/h
604 14-11-2010 00:50:07 14.8 C 8.11 g/m*3 14.8 C 0 km/h
605 14-11-2010 01:02:07 15.2 C 7.92 g/m*3 15.2 C 0 km/h
606 14-11-2010 01:14:07 15.2 C 8.05 g/m*3 15.2 C 0 km/h
607 14-11-2010 01:26:07 14.2 C 8.18 g/m*3 14.2 C 0 km/h
608 14-11-2010 01:38:08 13.4 C 8.49 g/m*3 13.4 C 0 km/h
609 14-11-2010 01:50:08 13.2 C 8.61 g/m*3 13.2 C 0 km/h
610 14-11-2010 02:02:08 13.2 C 8.84 g/m*3 13.2 C 0 km/h
611 14-11-2010 02:14:08 13.2 C 8.73 g/m*3 13.2 C 0 km/h
612 14-11-2010 02:26:08 13.7 C 8.76 g/m*3 13.7 C 0 km/h
613 14-11-2010 02:38:08 13.9 C 8.63 g/m*3 13.9 C 0 km/h
614 14-11-2010 02:50:08 13.9 C 8.51 g/m*3 13.9 C 0 km/h
615 14-11-2010 03:02:08 14.7 C 8.44 g/m*3 14.7 C 0 km/h
616 14-11-2010 03:14:08 14.5 C 8.33 g/m*3 14.5 C 0 km/h
617 14-11-2010 03:26:08 14.4 C 8.41 g/m*3 14.4 C 0 km/h
618 14-11-2010 03:38:08 14.2 C 8.3 g/m*3 14.2 C 0 km/h
619 14-11-2010 03:50:08 14 C 8.44 g/m*3 14 C 0 km/h
620 14-11-2010 04:02:08 14 C 8.44 g/m*3 14 C 0 km/h
621 14-11-2010 04:14:08 14 C 8.44 g/m*3 14 C 0 km/h
622 14-11-2010 04:26:08 14.1 C 8.37 g/m*3 14.1 C 0 km/h
623 14-11-2010 04:38:08 14.1 C 8.25 g/m*3 14.1 C 0 km/h
624 14-11-2010 04:50:08 13.9 C 8.39 g/m*3 13.9 C 0 km/h
625 14-11-2010 05:02:08 14 C 8.56 g/m*3 14 C 0 km/h
Sensor: Nr:Datum:Temp:Abs-Feuchte:Windchill:Wind:
Aussen-T/F 626 14-11-2010 05:14:08 13.8 C 8.46 g/m*3 13.8 C 0 km/h
627 14-11-2010 05:26:08 14.1 C 8.5 g/m*3 14.1 C 0 km/h
628 14-11-2010 05:38:08 14 C 8.32 g/m*3 14 C 0 km/h
629 14-11-2010 05:50:08 13.6 C 8.47 g/m*3 13.6 C 0 km/h
630 14-11-2010 06:02:09 13.7 C 8.53 g/m*3 13.7 C 0 km/h
631 14-11-2010 06:14:09 13.8 C 8.34 g/m*3 13.8 C 0 km/h
632 14-11-2010 06:26:09 13.6 C 8.24 g/m*3 13.6 C 0 km/h
633 14-11-2010 06:38:09 13.2 C 8.27 g/m*3 13.2 C 0 km/h
634 14-11-2010 06:50:09 12.8 C 8.4 g/m*3 12.8 C 0 km/h
635 14-11-2010 07:02:09 12.4 C 8.09 g/m*3 12.4 C 0 km/h
636 14-11-2010 07:14:09 11.9 C 8.15 g/m*3 11.9 C 0 km/h
637 14-11-2010 07:26:09 11.5 C 8.06 g/m*3 11.5 C 0 km/h
638 14-11-2010 07:38:09 11.6 C 7.9 g/m*3 11.6 C 0 km/h
639 14-11-2010 07:50:09 12.2 C 7.77 g/m*3 12.2 C 0 km/h
640 14-11-2010 08:02:09 11.9 C 7.63 g/m*3 11.9 C 0 km/h
641 14-11-2010 08:14:09 11.9 C 7.52 g/m*3 11.9 C 0 km/h
642 14-11-2010 08:26:09 12.7 C 7.57 g/m*3 12.7 C 0 km/h
643 14-11-2010 08:38:06 13 C 7.48 g/m*3 13 C 0 km/h
644 14-11-2010 08:50:02 13.8 C 7.39 g/m*3 13.8 C 0 km/h
645 14-11-2010 09:02:02 14.1 C 7.28 g/m*3 14.1 C 0 km/h
646 14-11-2010 09:14:02 14.3 C 7.25 g/m*3 14.3 C 0 km/h
647 14-11-2010 09:26:02 14.7 C 7.18 g/m*3 14.7 C 0 km/h
648 14-11-2010 09:38:02 14.3 C 7.25 g/m*3 14.3 C 0 km/h
649 14-11-2010 09:50:02 14 C 7.24 g/m*3 14 C 0 km/h
650 14-11-2010 10:02:02 13.8 C 7.51 g/m*3 13.8 C 0 km/h
Sensor: Nr:Datum:Temp:Abs-Feuchte:Windchill:Wind:
Aussen-T/F 651 14-11-2010 10:14:02 14.5 C 7.34 g/m*3 14.5 C 0 km/h
652 14-11-2010 10:26:02 15 C 7.05 g/m*3 15 C 0 km/h
653 14-11-2010 10:38:02 15.9 C 7.04 g/m*3 15.9 C 0 km/h
654 14-11-2010 10:50:02 15.9 C 7.04 g/m*3 15.9 C 0 km/h
655 14-11-2010 11:02:02 15.9 C 7.18 g/m*3 15.9 C 0 km/h
656 14-11-2010 11:14:03 15.5 C 7.01 g/m*3 15.5 C 0 km/h
657 14-11-2010 11:26:02 15.2 C 7.27 g/m*3 15.2 C 0 km/h
658 14-11-2010 11:38:02 15 C 7.31 g/m*3 15 C 0 km/h
659 14-11-2010 11:50:02 15.6 C 7.31 g/m*3 15.6 C 0 km/h
660 14-11-2010 12:02:02 15.9 C 7.45 g/m*3 15.9 C 0 km/h
661 14-11-2010 12:14:02 15.8 C 7.4 g/m*3 15.8 C 0 km/h
662 14-11-2010 12:26:03 16 C 7.22 g/m*3 16 C 0 km/h
663 14-11-2010 12:38:02 16.4 C 7.4 g/m*3 16.4 C 0 km/h
664 14-11-2010 12:50:03 16.7 C 7.53 g/m*3 16.7 C 0 km/h
665 14-11-2010 13:02:02 16.7 C 7.53 g/m*3 16.7 C 0 km/h
666 14-11-2010 13:14:02 17.5 C 7.31 g/m*3 17.5 C 0 km/h
667 14-11-2010 13:26:02 17.8 C 7.44 g/m*3 17.8 C 0 km/h
668 14-11-2010 13:38:02 17.6 C 7.5 g/m*3 17.6 C 0 km/h
669 14-11-2010 13:50:02 17.7 C 7.39 g/m*3 17.7 C 0 km/h
670 14-11-2010 14:02:01 17.5 C 7.16 g/m*3 17.5 C 0 km/h
671 14-11-2010 14:14:01 17.5 C 7.45 g/m*3 17.5 C 0 km/h
672 14-11-2010 14:26:02 17.6 C 7.2 g/m*3 17.6 C 0 km/h
673 14-11-2010 14:38:03 17.8 C 7.13 g/m*3 17.8 C 0 km/h
674 14-11-2010 14:50:03 17.8 C 7.29 g/m*3 17.8 C 0 km/h
675 14-11-2010 15:02:03 18 C 6.91 g/m*3 18 C 0 km/h
Sensor: Nr:Datum:Temp:Abs-Feuchte:Windchill:Wind:
Aussen-T/F 676 14-11-2010 15:14:03 18 C 7.07 g/m*3 18 C 0 km/h
677 14-11-2010 15:26:02 17.6 C 7.2 g/m*3 17.6 C 0 km/h
678 14-11-2010 15:38:03 17.6 C 7.2 g/m*3 17.6 C 0 km/h
679 14-11-2010 15:50:02 17.3 C 7.22 g/m*3 17.3 C 0 km/h
680 14-11-2010 16:02:02 17.2 C 7.03 g/m*3 17.2 C 0 km/h
681 14-11-2010 16:14:02 16.6 C 7.2 g/m*3 16.6 C 0 km/h
682 14-11-2010 16:26:02 15.7 C 7.36 g/m*3 15.7 C 0 km/h
683 14-11-2010 16:38:02 15.1 C 7.61 g/m*3 15.1 C 0 km/h
684 14-11-2010 16:50:02 14 C 8.68 g/m*3 14 C 0 km/h
685 14-11-2010 17:02:02 13.8 C 8.82 g/m*3 13.8 C 0 km/h
686 14-11-2010 17:14:02 15.3 C 8.49 g/m*3 15.3 C 0 km/h
687 14-11-2010 17:26:02 15.5 C 7.8 g/m*3 15.5 C 0 km/h
688 14-11-2010 17:38:02 14.7 C 7.68 g/m*3 14.7 C 0 km/h
689 14-11-2010 17:50:02 14.4 C 7.79 g/m*3 14.4 C 0 km/h
690 14-11-2010 18:02:02 14.1 C 7.77 g/m*3 14.1 C 0 km/h
691 14-11-2010 18:14:03 14.1 C 7.89 g/m*3 14.1 C 0 km/h
692 14-11-2010 18:26:02 13.9 C 8.15 g/m*3 13.9 C 0 km/h
693 14-11-2010 18:38:02 14.3 C 8.23 g/m*3 14.3 C 0 km/h
694 14-11-2010 18:50:02 14.4 C 8.03 g/m*3 14.4 C 0 km/h
695 14-11-2010 19:02:03 14 C 7.96 g/m*3 14 C 0 km/h
696 14-11-2010 19:14:03 13.7 C 8.05 g/m*3 13.7 C 0 km/h
697 14-11-2010 19:26:02 14 C 7.96 g/m*3 14 C 0 km/h
698 14-11-2010 19:38:02 14.3 C 7.74 g/m*3 14.3 C 0 km/h
699 14-11-2010 19:50:01 13.8 C 7.74 g/m*3 13.8 C 0 km/h
700 14-11-2010 20:02:02 13.8 C 7.86 g/m*3 13.8 C 0 km/h
Sensor: Nr:Datum:Temp:Abs-Feuchte:Windchill:Wind:
Aussen-T/F 701 14-11-2010 20:14:02 13.5 C 7.95 g/m*3 13.5 C 0 km/h
702 14-11-2010 20:26:01 14.5 C 7.71 g/m*3 14.5 C 0 km/h
703 14-11-2010 20:38:02 14.2 C 7.45 g/m*3 14.2 C 0 km/h
704 14-11-2010 20:50:02 14.1 C 7.4 g/m*3 14.1 C 0 km/h
705 14-11-2010 21:02:02 14.2 C 7.45 g/m*3 14.2 C 0 km/h
706 14-11-2010 21:14:03 14 C 7.36 g/m*3 14 C 0 km/h
707 14-11-2010 21:26:01 13.7 C 7.34 g/m*3 13.7 C 0 km/h
708 14-11-2010 21:38:02 13.8 C 7.15 g/m*3 13.8 C 0 km/h
709 14-11-2010 21:50:01 13.9 C 7.07 g/m*3 13.9 C 0 km/h
710 14-11-2010 22:02:02 14 C 7 g/m*3 14 C 0 km/h
711 14-11-2010 22:14:02 13.7 C 7.1 g/m*3 13.7 C 0 km/h
712 14-11-2010 22:26:02 13.8 C 7.15 g/m*3 13.8 C 0 km/h
713 14-11-2010 22:39:05 13.7 C 7.1 g/m*3 13.7 C 0 km/h
714 14-11-2010 22:51:05 13.7 C 7.1 g/m*3 13.7 C 0 km/h
715 14-11-2010 23:03:05 13.7 C 7.1 g/m*3 13.7 C 0 km/h
716 14-11-2010 23:15:05 13.5 C 6.9 g/m*3 13.5 C 0 km/h
717 14-11-2010 23:27:05 13.5 C 6.9 g/m*3 13.5 C 0 km/h
718 14-11-2010 23:39:05 13.1 C 6.85 g/m*3 13.1 C 0 km/h
719 14-11-2010 23:51:05 13.3 C 6.93 g/m*3 13.3 C 0 km/h
720 15-11-2010 00:03:05 13.1 C 6.96 g/m*3 13.1 C 0 km/h
721 15-11-2010 00:15:05 13 C 6.92 g/m*3 13 C 0 km/h
722 15-11-2010 00:27:06 12.6 C 6.97 g/m*3 12.6 C 0 km/h
723 15-11-2010 00:39:06 13 C 7.03 g/m*3 13 C 0 km/h
724 15-11-2010 00:51:06 12.7 C 7.01 g/m*3 12.7 C 0 km/h
725 15-11-2010 01:03:06 12.7 C 6.9 g/m*3 12.7 C 0 km/h
Sensor: Nr:Datum:Temp:Abs-Feuchte:Windchill:Wind:
Aussen-T/F 726 15-11-2010 01:15:06 12.5 C 6.82 g/m*3 12.5 C 0 km/h
727 15-11-2010 01:27:06 12.1 C 6.76 g/m*3 12.1 C 0 km/h
728 15-11-2010 01:39:06 11.9 C 6.99 g/m*3 11.9 C 0 km/h
729 15-11-2010 01:51:06 11.9 C 7.1 g/m*3 11.9 C 0 km/h
730 15-11-2010 02:03:06 11.8 C 7.05 g/m*3 11.8 C 0 km/h
731 15-11-2010 02:15:06 12 C 6.82 g/m*3 12 C 0 km/h
732 15-11-2010 02:27:06 11.9 C 6.78 g/m*3 11.9 C 0 km/h
733 15-11-2010 02:39:06 11.7 C 6.9 g/m*3 11.7 C 0 km/h
734 15-11-2010 02:51:06 11.5 C 7.02 g/m*3 11.5 C 0 km/h
735 15-11-2010 03:03:06 11.3 C 6.94 g/m*3 11.3 C 0 km/h
736 15-11-2010 03:15:06 11.1 C 6.95 g/m*3 11.1 C 0 km/h
737 15-11-2010 03:27:06 10.8 C 7.02 g/m*3 10.8 C 0 km/h
738 15-11-2010 03:39:06 10.7 C 7.07 g/m*3 10.7 C 0 km/h
739 15-11-2010 03:51:06 10.6 C 7.12 g/m*3 10.6 C 0 km/h
740 15-11-2010 04:03:06 10.5 C 6.98 g/m*3 10.5 C 0 km/h
741 15-11-2010 04:15:06 10.3 C 6.99 g/m*3 10.3 C 0 km/h
742 15-11-2010 04:27:06 10.2 C 6.95 g/m*3 10.2 C 0 km/h
743 15-11-2010 04:39:07 10.2 C 6.95 g/m*3 10.2 C 0 km/h
744 15-11-2010 04:51:07 10 C 6.86 g/m*3 10 C 0 km/h
745 15-11-2010 05:03:07 10.2 C 6.47 g/m*3 10.2 C 0 km/h
746 15-11-2010 05:15:07 10.2 C 6.57 g/m*3 10.2 C 0 km/h
747 15-11-2010 05:27:07 9.8 C 6.59 g/m*3 9.8 C 0 km/h
748 15-11-2010 05:39:07 9.6 C 6.6 g/m*3 9.6 C 0 km/h
749 15-11-2010 05:51:07 9.8 C 6.4 g/m*3 9.8 C 0 km/h
750 15-11-2010 06:03:07 9.6 C 6.41 g/m*3 9.6 C 0 km/h
Sensor: Nr:Datum:Temp:Abs-Feuchte:Windchill:Wind:
Aussen-T/F 751 15-11-2010 06:15:07 9.5 C 6.19 g/m*3 9.5 C 0 km/h
752 15-11-2010 06:27:07 9.4 C 6.15 g/m*3 9.4 C 0 km/h
753 15-11-2010 06:39:07 9.1 C 6.21 g/m*3 9.1 C 0 km/h
754 15-11-2010 06:51:07 9.1 C 6.39 g/m*3 9.1 C 0 km/h
755 15-11-2010 07:03:07 9.1 C 6.39 g/m*3 9.1 C 0 km/h
756 15-11-2010 07:15:03 8.9 C 6.48 g/m*3 8.9 C 0 km/h
757 15-11-2010 07:27:03 8.6 C 6.36 g/m*3 8.6 C 0 km/h
758 15-11-2010 07:39:03 8.9 C 6.66 g/m*3 8.9 C 0 km/h
759 15-11-2010 07:51:01 9.3 C 6.2 g/m*3 9.3 C 0 km/h
760 15-11-2010 08:03:02 9.5 C 6.19 g/m*3 9.5 C 0 km/h
761 15-11-2010 08:15:02 9.2 C 6.16 g/m*3 9.2 C 0 km/h
762 15-11-2010 08:27:02 9 C 6.26 g/m*3 9 C 0 km/h
763 15-11-2010 08:39:01 8.8 C 6.44 g/m*3 8.8 C 0 km/h
764 15-11-2010 08:51:03 9 C 6.35 g/m*3 9 C 0 km/h
765 15-11-2010 09:03:02 9.1 C 6.3 g/m*3 9.1 C 0 km/h
766 15-11-2010 09:15:02 9.1 C 6.12 g/m*3 9.1 C 0 km/h
767 15-11-2010 09:27:03 9.1 C 6.03 g/m*3 9.1 C 0 km/h
768 15-11-2010 09:39:02 9.2 C 5.98 g/m*3 9.2 C 0 km/h
769 15-11-2010 09:51:02 9.3 C 5.93 g/m*3 9.3 C 0 km/h
770 15-11-2010 10:03:02 9.3 C 5.84 g/m*3 9.3 C 0 km/h
771 15-11-2010 10:15:02 9.4 C 5.79 g/m*3 9.4 C 0 km/h
772 15-11-2010 10:27:03 9.8 C 6.03 g/m*3 9.8 C 0 km/h
773 15-11-2010 10:39:01 10.2 C 5.8 g/m*3 10.2 C 0 km/h
774 15-11-2010 10:51:02 10.4 C 5.88 g/m*3 10.4 C 0 km/h
775 15-11-2010 11:03:01 10.4 C 5.88 g/m*3 10.4 C 0 km/h
Sensor: Nr:Datum:Temp:Abs-Feuchte:Windchill:Wind:
Aussen-T/F 776 15-11-2010 11:15:01 10.4 C 5.78 g/m*3 10.4 C 0 km/h
777 15-11-2010 11:27:01 10.3 C 5.75 g/m*3 10.3 C 0 km/h
778 15-11-2010 11:39:02 10 C 5.54 g/m*3 10 C 0 km/h
779 15-11-2010 11:51:02 10.4 C 5.78 g/m*3 10.4 C 0 km/h
780 15-11-2010 12:03:01 10.4 C 5.69 g/m*3 10.4 C 0 km/h
781 15-11-2010 12:15:02 10.8 C 5.63 g/m*3 10.8 C 0 km/h
782 15-11-2010 12:27:02 10.9 C 5.47 g/m*3 10.9 C 0 km/h
783 15-11-2010 12:39:02 11.2 C 5.57 g/m*3 11.2 C 0 km/h
784 15-11-2010 12:51:01 10.9 C 5.47 g/m*3 10.9 C 0 km/h
785 15-11-2010 13:03:02 10.8 C 5.54 g/m*3 10.8 C 0 km/h
786 15-11-2010 13:15:01 10.5 C 5.63 g/m*3 10.5 C 0 km/h
787 15-11-2010 13:27:01 10.4 C 5.69 g/m*3 10.4 C 0 km/h
788 15-11-2010 13:39:01 10.3 C 5.65 g/m*3 10.3 C 0 km/h
789 15-11-2010 13:51:02 10.4 C 5.59 g/m*3 10.4 C 0 km/h
790 15-11-2010 14:03:02 10.3 C 5.46 g/m*3 10.3 C 0 km/h
791 15-11-2010 14:15:01 10.4 C 5.49 g/m*3 10.4 C 0 km/h
792 15-11-2010 14:27:01 10.2 C 5.52 g/m*3 10.2 C 0 km/h
793 15-11-2010 14:39:02 10.2 C 5.52 g/m*3 10.2 C 0 km/h
794 15-11-2010 14:51:02 10.1 C 5.48 g/m*3 10.1 C 0 km/h
795 15-11-2010 15:03:02 10 C 5.45 g/m*3 10 C 0 km/h
796 15-11-2010 15:15:01 9.9 C 5.6 g/m*3 9.9 C 0 km/h
797 15-11-2010 15:27:01 9.7 C 5.53 g/m*3 9.7 C 0 km/h
798 15-11-2010 15:39:02 9.5 C 5.55 g/m*3 9.5 C 0 km/h
799 15-11-2010 15:51:01 9.3 C 5.57 g/m*3 9.3 C 0 km/h
800 15-11-2010 16:03:02 9.3 C 5.57 g/m*3 9.3 C 0 km/h
Sensor: Nr:Datum:Temp:Abs-Feuchte:Windchill:Wind:
Aussen-T/F 801 15-11-2010 16:15:02 9.2 C 5.71 g/m*3 9.2 C 0 km/h
802 15-11-2010 16:27:02 8.9 C 5.69 g/m*3 8.9 C 0 km/h
803 15-11-2010 16:39:02 8.8 C 5.74 g/m*3 8.8 C 0 km/h
804 15-11-2010 16:51:02 8.6 C 5.76 g/m*3 8.6 C 0 km/h
805 15-11-2010 17:03:02 8.4 C 5.77 g/m*3 8.4 C 0 km/h
806 15-11-2010 17:15:43 8.2 C 5.78 g/m*3 8.2 C 0 km/h
807 15-11-2010 17:27:43 8.2 C 5.78 g/m*3 8.2 C 0 km/h
808 15-11-2010 17:39:01 8.1 C 5.82 g/m*3 8.1 C 0 km/h
809 15-11-2010 17:51:02 7.9 C 5.91 g/m*3 7.9 C 0 km/h
810 15-11-2010 18:03:02 7.8 C 5.96 g/m*3 7.8 C 0 km/h
811 15-11-2010 18:15:01 8.2 C 5.86 g/m*3 8.2 C 0 km/h
812 15-11-2010 18:27:01 8.3 C 5.9 g/m*3 8.3 C 0 km/h
813 15-11-2010 18:39:02 8.2 C 5.86 g/m*3 8.2 C 0 km/h
814 15-11-2010 18:51:02 8.2 C 5.86 g/m*3 8.2 C 0 km/h
815 15-11-2010 19:03:02 8.2 C 5.78 g/m*3 8.2 C 0 km/h
816 15-11-2010 19:15:01 8.1 C 5.91 g/m*3 8.1 C 0 km/h
817 15-11-2010 19:27:01 8 C 5.87 g/m*3 8 C 0 km/h
818 15-11-2010 19:39:02 7.9 C 5.91 g/m*3 7.9 C 0 km/h
819 15-11-2010 19:51:02 7.7 C 5.92 g/m*3 7.7 C 0 km/h
820 15-11-2010 20:03:02 7.7 C 5.92 g/m*3 7.7 C 0 km/h
821 15-11-2010 20:15:02 7.8 C 6.04 g/m*3 7.8 C 0 km/h
822 15-11-2010 20:27:02 7.6 C 5.96 g/m*3 7.6 C 0 km/h
823 15-11-2010 20:39:02 7.4 C 5.88 g/m*3 7.4 C 0 km/h
824 15-11-2010 20:51:01 7.5 C 5.92 g/m*3 7.5 C 0 km/h
825 15-11-2010 21:03:02 7.3 C 5.93 g/m*3 7.3 C 0 km/h
Sensor: Nr:Datum:Temp:Abs-Feuchte:Windchill:Wind:
Aussen-T/F 826 15-11-2010 21:15:02 7.1 C 5.93 g/m*3 7.1 C 0 km/h
827 15-11-2010 21:27:02 7.1 C 6.01 g/m*3 7.1 C 0 km/h
828 15-11-2010 21:39:02 7.1 C 5.93 g/m*3 7.1 C 0 km/h
829 15-11-2010 21:51:02 7.2 C 5.89 g/m*3 7.2 C 0 km/h
830 15-11-2010 22:03:02 7.1 C 5.93 g/m*3 7.1 C 0 km/h
831 15-11-2010 22:15:02 7 C 5.89 g/m*3 7 C 0 km/h
832 15-11-2010 22:27:02 6.8 C 5.97 g/m*3 6.8 C 0 km/h
833 15-11-2010 22:39:02 6.8 C 6.04 g/m*3 6.8 C 0 km/h
834 15-11-2010 22:51:02 7 C 6.04 g/m*3 7 C 0 km/h
835 15-11-2010 23:03:02 6.8 C 5.97 g/m*3 6.8 C 0 km/h
836 15-11-2010 23:15:02 6.8 C 6.04 g/m*3 6.8 C 0 km/h
837 15-11-2010 23:27:02 6.7 C 6 g/m*3 6.7 C 0 km/h
838 15-11-2010 23:39:01 6.8 C 6.04 g/m*3 6.8 C 0 km/h
839 15-11-2010 23:51:02 6.3 C 5.92 g/m*3 6.3 C 0 km/h
840 16-11-2010 00:03:01 6.1 C 5.92 g/m*3 6.1 C 0 km/h
841 16-11-2010 00:15:02 6 C 5.95 g/m*3 6 C 0 km/h
842 16-11-2010 00:27:02 6 C 6.02 g/m*3 6 C 0 km/h
843 16-11-2010 00:39:01 5.7 C 5.91 g/m*3 5.7 C 0 km/h
844 16-11-2010 00:51:01 5.6 C 5.94 g/m*3 5.6 C 0 km/h
845 16-11-2010 01:03:01 5.5 C 5.9 g/m*3 5.5 C 0 km/h
846 16-11-2010 01:15:02 5.4 C 5.93 g/m*3 5.4 C 0 km/h
847 16-11-2010 01:27:02 5.2 C 5.85 g/m*3 5.2 C 0 km/h
848 16-11-2010 01:39:01 5 C 5.78 g/m*3 5 C 0 km/h
849 16-11-2010 01:51:02 4.9 C 5.87 g/m*3 4.9 C 0 km/h
850 16-11-2010 02:03:01 5.2 C 5.99 g/m*3 5.2 C 0 km/h
Sensor: Nr:Datum:Temp:Abs-Feuchte:Windchill:Wind:
Aussen-T/F 851 16-11-2010 02:15:01 5.3 C 6.03 g/m*3 5.3 C 0 km/h
852 16-11-2010 02:27:01 5.4 C 6.07 g/m*3 5.4 C 0 km/h
853 16-11-2010 02:39:01 5.7 C 6.19 g/m*3 5.7 C 0 km/h
854 16-11-2010 02:52:04 5.8 C 6.23 g/m*3 5.8 C 0 km/h
855 16-11-2010 03:04:04 5.9 C 6.27 g/m*3 5.9 C 0 km/h
856 16-11-2010 03:16:04 6.1 C 6.28 g/m*3 6.1 C 0 km/h
857 16-11-2010 03:28:04 5.9 C 6.27 g/m*3 5.9 C 0 km/h
858 16-11-2010 03:40:02 5.8 C 6.16 g/m*3 5.8 C 0 km/h
859 16-11-2010 03:52:02 5.6 C 6.08 g/m*3 5.6 C 0 km/h
860 16-11-2010 04:04:02 5.3 C 5.89 g/m*3 5.3 C 0 km/h
861 16-11-2010 04:16:02 5 C 5.84 g/m*3 5 C 0 km/h
862 16-11-2010 04:28:02 5.1 C 5.95 g/m*3 5.1 C 0 km/h
863 16-11-2010 04:40:02 5.2 C 5.99 g/m*3 5.2 C 0 km/h
864 16-11-2010 04:52:02 5.5 C 6.18 g/m*3 5.5 C 0 km/h
865 16-11-2010 05:04:01 5.3 C 6.03 g/m*3 5.3 C 0 km/h
866 16-11-2010 05:16:02 5.2 C 5.99 g/m*3 5.2 C 0 km/h
867 16-11-2010 05:28:02 5.7 C 6.19 g/m*3 5.7 C 0 km/h
868 16-11-2010 05:40:02 5.7 C 6.12 g/m*3 5.7 C 0 km/h
869 16-11-2010 05:52:02 5.6 C 6.01 g/m*3 5.6 C 0 km/h
870 16-11-2010 06:04:02 5.2 C 5.78 g/m*3 5.2 C 0 km/h
871 16-11-2010 06:16:02 5.1 C 5.81 g/m*3 5.1 C 0 km/h
872 16-11-2010 06:28:02 5.2 C 5.85 g/m*3 5.2 C 0 km/h
873 16-11-2010 06:40:03 5.3 C 5.89 g/m*3 5.3 C 0 km/h
874 16-11-2010 06:52:02 5.3 C 5.82 g/m*3 5.3 C 0 km/h
875 16-11-2010 07:04:01 5.2 C 5.78 g/m*3 5.2 C 0 km/h
Sensor: Nr:Datum:Temp:Abs-Feuchte:Windchill:Wind:
Aussen-T/F 876 16-11-2010 07:16:02 5.2 C 5.78 g/m*3 5.2 C 0 km/h
877 16-11-2010 07:28:03 5.2 C 5.78 g/m*3 5.2 C 0 km/h
878 16-11-2010 07:40:01 5.1 C 5.75 g/m*3 5.1 C 0 km/h
879 16-11-2010 07:52:01 5.2 C 5.85 g/m*3 5.2 C 0 km/h
880 16-11-2010 08:04:01 5.3 C 5.82 g/m*3 5.3 C 0 km/h
881 16-11-2010 08:16:02 5.4 C 5.86 g/m*3 5.4 C 0 km/h
882 16-11-2010 08:28:02 5.4 C 5.79 g/m*3 5.4 C 0 km/h
883 16-11-2010 08:40:01 5.4 C 5.79 g/m*3 5.4 C 0 km/h
884 16-11-2010 08:52:03 5.6 C 5.87 g/m*3 5.6 C 0 km/h
885 16-11-2010 09:04:02 5.7 C 5.84 g/m*3 5.7 C 0 km/h
886 16-11-2010 09:16:02 5.8 C 5.87 g/m*3 5.8 C 0 km/h
887 16-11-2010 09:28:02 5.9 C 5.84 g/m*3 5.9 C 0 km/h
888 16-11-2010 09:40:02 6 C 5.81 g/m*3 6 C 0 km/h
889 16-11-2010 09:52:02 6 C 5.73 g/m*3 6 C 0 km/h
890 16-11-2010 10:04:01 5.9 C 5.7 g/m*3 5.9 C 0 km/h
891 16-11-2010 10:16:02 6.2 C 5.81 g/m*3 6.2 C 0 km/h
892 16-11-2010 10:28:02 6.2 C 5.74 g/m*3 6.2 C 0 km/h
893 16-11-2010 10:40:01 6.7 C 5.85 g/m*3 6.7 C 0 km/h
894 16-11-2010 10:52:02 6.3 C 5.63 g/m*3 6.3 C 0 km/h
895 16-11-2010 11:04:02 6.4 C 5.66 g/m*3 6.4 C 0 km/h
896 16-11-2010 11:16:02 6.3 C 5.63 g/m*3 6.3 C 0 km/h
897 16-11-2010 11:28:02 6.8 C 5.74 g/m*3 6.8 C 0 km/h
898 16-11-2010 11:40:02 6.4 C 5.51 g/m*3 6.4 C 0 km/h
899 16-11-2010 11:52:02 6.9 C 5.7 g/m*3 6.9 C 0 km/h
900 16-11-2010 12:04:02 7.4 C 5.65 g/m*3 7.4 C 0 km/h
Sensor: Nr:Datum:Temp:Abs-Feuchte:Windchill:Wind:
Aussen-T/F 901 16-11-2010 12:16:01 7.5 C 5.52 g/m*3 7.5 C 0 km/h
902 16-11-2010 12:28:01 7.4 C 5.49 g/m*3 7.4 C 0 km/h
903 16-11-2010 12:40:02 7.1 C 5.46 g/m*3 7.1 C 0 km/h
904 16-11-2010 12:52:02 7.3 C 5.53 g/m*3 7.3 C 0 km/h
905 16-11-2010 13:04:02 7.4 C 5.57 g/m*3 7.4 C 0 km/h
906 16-11-2010 13:16:01 7.5 C 5.6 g/m*3 7.5 C 0 km/h
907 16-11-2010 13:28:01 7.7 C 5.59 g/m*3 7.7 C 0 km/h
908 16-11-2010 13:40:01 7.3 C 5.45 g/m*3 7.3 C 0 km/h
909 16-11-2010 13:52:02 7.8 C 5.71 g/m*3 7.8 C 0 km/h
910 16-11-2010 14:04:01 7.8 C 5.63 g/m*3 7.8 C 0 km/h
911 16-11-2010 14:16:02 7.6 C 5.56 g/m*3 7.6 C 0 km/h
912 16-11-2010 14:28:02 7.8 C 5.55 g/m*3 7.8 C 0 km/h
913 16-11-2010 14:40:02 7.6 C 5.4 g/m*3 7.6 C 0 km/h
914 16-11-2010 14:52:01 7.6 C 5.48 g/m*3 7.6 C 0 km/h
915 16-11-2010 15:04:02 7.5 C 5.52 g/m*3 7.5 C 0 km/h
916 16-11-2010 15:16:03 7.3 C 5.45 g/m*3 7.3 C 0 km/h
917 16-11-2010 15:28:03 7.2 C 5.49 g/m*3 7.2 C 0 km/h
918 16-11-2010 15:40:01 7.1 C 5.54 g/m*3 7.1 C 0 km/h
919 16-11-2010 15:52:01 7.1 C 5.54 g/m*3 7.1 C 0 km/h
920 16-11-2010 16:04:02 7.1 C 5.54 g/m*3 7.1 C 0 km/h
921 16-11-2010 16:16:01 7.1 C 5.54 g/m*3 7.1 C 0 km/h
922 16-11-2010 16:28:01 7.1 C 5.54 g/m*3 7.1 C 0 km/h
923 16-11-2010 16:40:01 7.1 C 5.54 g/m*3 7.1 C 0 km/h
924 16-11-2010 16:52:02 7 C 5.5 g/m*3 7 C 0 km/h
925 16-11-2010 17:04:02 6.9 C 5.62 g/m*3 6.9 C 0 km/h
Sensor: Nr:Datum:Temp:Abs-Feuchte:Windchill:Wind:
Aussen-T/F 926 16-11-2010 17:16:02 6.9 C 5.7 g/m*3 6.9 C 0 km/h
927 16-11-2010 17:28:02 6.8 C 5.66 g/m*3 6.8 C 0 km/h
928 16-11-2010 17:40:02 6.8 C 5.66 g/m*3 6.8 C 0 km/h
929 16-11-2010 17:52:02 6.6 C 5.59 g/m*3 6.6 C 0 km/h
930 16-11-2010 18:04:02 6.5 C 5.62 g/m*3 6.5 C 0 km/h
931 16-11-2010 18:16:02 6 C 5.52 g/m*3 6 C 0 km/h
932 16-11-2010 18:28:02 6.2 C 5.74 g/m*3 6.2 C 0 km/h
933 16-11-2010 18:40:02 6.2 C 5.74 g/m*3 6.2 C 0 km/h
934 16-11-2010 18:52:02 6.2 C 5.74 g/m*3 6.2 C 0 km/h
935 16-11-2010 19:04:02 6.2 C 5.74 g/m*3 6.2 C 0 km/h
936 16-11-2010 19:16:02 5.9 C 5.7 g/m*3 5.9 C 0 km/h
937 16-11-2010 19:28:03 5.9 C 5.77 g/m*3 5.9 C 0 km/h
938 16-11-2010 19:40:01 5.8 C 5.73 g/m*3 5.8 C 0 km/h
939 16-11-2010 19:52:02 5.8 C 5.8 g/m*3 5.8 C 0 km/h
940 16-11-2010 20:04:01 5.7 C 5.76 g/m*3 5.7 C 0 km/h
941 16-11-2010 20:16:02 5.6 C 5.73 g/m*3 5.6 C 0 km/h
942 16-11-2010 20:28:03 5.5 C 5.69 g/m*3 5.5 C 0 km/h
943 16-11-2010 20:40:01 5.5 C 5.69 g/m*3 5.5 C 0 km/h
944 16-11-2010 20:52:02 5.5 C 5.69 g/m*3 5.5 C 0 km/h
945 16-11-2010 21:04:01 5.4 C 5.65 g/m*3 5.4 C 0 km/h
946 16-11-2010 21:16:01 5.5 C 5.69 g/m*3 5.5 C 0 km/h
947 16-11-2010 21:28:01 5.5 C 5.69 g/m*3 5.5 C 0 km/h
948 16-11-2010 21:40:02 5.4 C 5.65 g/m*3 5.4 C 0 km/h
949 16-11-2010 21:52:02 5.3 C 5.61 g/m*3 5.3 C 0 km/h
950 16-11-2010 22:04:02 5.2 C 5.58 g/m*3 5.2 C 0 km/h
Sensor: Nr:Datum:Temp:Abs-Feuchte:Windchill:Wind:
Aussen-T/F 951 16-11-2010 22:16:01 5.2 C 5.58 g/m*3 5.2 C 0 km/h
952 16-11-2010 22:28:01 5.3 C 5.68 g/m*3 5.3 C 0 km/h
953 16-11-2010 22:41:04 5.3 C 5.61 g/m*3 5.3 C 0 km/h
954 16-11-2010 22:53:04 5.2 C 5.58 g/m*3 5.2 C 0 km/h
955 16-11-2010 23:05:04 5.1 C 5.61 g/m*3 5.1 C 0 km/h
956 16-11-2010 23:17:04 4.4 C 5.42 g/m*3 4.4 C 0 km/h
957 16-11-2010 23:29:04 4.4 C 5.55 g/m*3 4.4 C 0 km/h
958 16-11-2010 23:41:04 4.5 C 5.65 g/m*3 4.5 C 0 km/h
959 16-11-2010 23:53:04 4.6 C 5.69 g/m*3 4.6 C 0 km/h
960 17-11-2010 00:05:04 4.7 C 5.73 g/m*3 4.7 C 0 km/h
961 17-11-2010 00:17:04 4.7 C 5.73 g/m*3 4.7 C 0 km/h
962 17-11-2010 00:29:04 4.7 C 5.73 g/m*3 4.7 C 0 km/h
963 17-11-2010 00:41:04 4.8 C 5.7 g/m*3 4.8 C 0 km/h
964 17-11-2010 00:53:04 5 C 5.71 g/m*3 5 C 0 km/h
965 17-11-2010 01:05:05 5.1 C 5.68 g/m*3 5.1 C 0 km/h
966 17-11-2010 01:17:05 5 C 5.57 g/m*3 5 C 0 km/h
967 17-11-2010 01:29:05 5 C 5.57 g/m*3 5 C 0 km/h
968 17-11-2010 01:41:05 5.1 C 5.61 g/m*3 5.1 C 0 km/h
969 17-11-2010 01:53:05 5.2 C 5.65 g/m*3 5.2 C 0 km/h
970 17-11-2010 02:05:05 5.1 C 5.61 g/m*3 5.1 C 0 km/h
971 17-11-2010 02:17:05 5 C 5.57 g/m*3 5 C 0 km/h
972 17-11-2010 02:29:05 5 C 5.57 g/m*3 5 C 0 km/h
973 17-11-2010 02:41:05 5 C 5.57 g/m*3 5 C 0 km/h
974 17-11-2010 02:53:05 4.9 C 5.6 g/m*3 4.9 C 0 km/h
975 17-11-2010 03:05:05 5 C 5.64 g/m*3 5 C 0 km/h
Sensor: Nr:Datum:Temp:Abs-Feuchte:Windchill:Wind:
Aussen-T/F 976 17-11-2010 03:17:05 4.9 C 5.67 g/m*3 4.9 C 0 km/h
977 17-11-2010 03:29:05 4.9 C 5.67 g/m*3 4.9 C 0 km/h
978 17-11-2010 03:41:05 4.9 C 5.67 g/m*3 4.9 C 0 km/h
979 17-11-2010 03:53:05 4.9 C 5.67 g/m*3 4.9 C 0 km/h
980 17-11-2010 04:05:05 4.9 C 5.67 g/m*3 4.9 C 0 km/h
981 17-11-2010 04:17:05 4.8 C 5.63 g/m*3 4.8 C 0 km/h
982 17-11-2010 04:29:05 4.8 C 5.63 g/m*3 4.8 C 0 km/h
983 17-11-2010 04:41:05 4.7 C 5.6 g/m*3 4.7 C 0 km/h
984 17-11-2010 04:53:05 4.8 C 5.7 g/m*3 4.8 C 0 km/h
985 17-11-2010 05:05:06 4.7 C 5.66 g/m*3 4.7 C 0 km/h
986 17-11-2010 05:17:06 4.7 C 5.66 g/m*3 4.7 C 0 km/h
987 17-11-2010 05:29:06 4.8 C 5.77 g/m*3 4.8 C 0 km/h
988 17-11-2010 05:41:06 4.8 C 5.77 g/m*3 4.8 C 0 km/h
989 17-11-2010 05:53:06 4.7 C 5.73 g/m*3 4.7 C 0 km/h
990 17-11-2010 06:05:06 4.7 C 5.73 g/m*3 4.7 C 0 km/h
991 17-11-2010 06:17:06 4.7 C 5.73 g/m*3 4.7 C 0 km/h
992 17-11-2010 06:29:06 4.7 C 5.73 g/m*3 4.7 C 0 km/h
993 17-11-2010 06:41:06 4.7 C 5.73 g/m*3 4.7 C 0 km/h
994 17-11-2010 06:53:02 4.7 C 5.73 g/m*3 4.7 C 0 km/h
995 17-11-2010 07:05:02 4.7 C 5.73 g/m*3 4.7 C 0 km/h
996 17-11-2010 07:17:02 4.7 C 5.73 g/m*3 4.7 C 0 km/h
997 17-11-2010 07:29:02 4.7 C 5.73 g/m*3 4.7 C 0 km/h
998 17-11-2010 07:41:01 4.7 C 5.66 g/m*3 4.7 C 0 km/h
999 17-11-2010 07:53:02 4.8 C 5.5 g/m*3 4.8 C 0 km/h
1000 17-11-2010 08:05:01 4.9 C 5.27 g/m*3 4.9 C 0 km/h
Sensor: Nr:Datum:Temp:Abs-Feuchte:Windchill:Wind:
Aussen-T/F 1001 17-11-2010 08:17:01 4.9 C 5.13 g/m*3 4.9 C 0 km/h
1002 17-11-2010 08:29:01 5.1 C 4.92 g/m*3 5.1 C 0 km/h
1003 17-11-2010 08:41:02 5.2 C 4.89 g/m*3 5.2 C 0 km/h
1004 17-11-2010 08:53:02 5.4 C 4.67 g/m*3 5.4 C 0 km/h
1005 17-11-2010 09:05:02 5.5 C 4.64 g/m*3 5.5 C 0 km/h
1006 17-11-2010 09:17:02 5.4 C 4.67 g/m*3 5.4 C 0 km/h
1007 17-11-2010 09:29:02 5.6 C 4.67 g/m*3 5.6 C 0 km/h
1008 17-11-2010 09:41:02 5.6 C 4.6 g/m*3 5.6 C 0 km/h
1009 17-11-2010 09:53:02 5.7 C 4.63 g/m*3 5.7 C 0 km/h
1010 17-11-2010 10:05:02 5.7 C 4.7 g/m*3 5.7 C 0 km/h
1011 17-11-2010 10:17:02 5.7 C 4.63 g/m*3 5.7 C 0 km/h
1012 17-11-2010 10:29:02 5.8 C 4.66 g/m*3 5.8 C 0 km/h
1013 17-11-2010 10:41:02 5.8 C 4.66 g/m*3 5.8 C 0 km/h
1014 17-11-2010 10:53:02 5.9 C 4.69 g/m*3 5.9 C 0 km/h
1015 17-11-2010 11:05:02 6 C 4.57 g/m*3 6 C 0 km/h
1016 17-11-2010 11:17:03 6 C 4.57 g/m*3 6 C 0 km/h
1017 17-11-2010 11:29:03 5.9 C 4.61 g/m*3 5.9 C 0 km/h
1018 17-11-2010 11:41:02 6.1 C 4.6 g/m*3 6.1 C 0 km/h
1019 17-11-2010 11:53:02 6.2 C 4.63 g/m*3 6.2 C 0 km/h
1020 17-11-2010 12:05:02 6.4 C 4.62 g/m*3 6.4 C 0 km/h
1021 17-11-2010 12:17:02 6.3 C 4.52 g/m*3 6.3 C 0 km/h
1022 17-11-2010 12:29:02 6.1 C 4.6 g/m*3 6.1 C 0 km/h
1023 17-11-2010 12:41:02 6.3 C 4.66 g/m*3 6.3 C 0 km/h
1024 17-11-2010 12:53:02 6.3 C 4.59 g/m*3 6.3 C 0 km/h
1025 17-11-2010 13:05:02 6.3 C 4.66 g/m*3 6.3 C 0 km/h
Sensor: Nr:Datum:Temp:Abs-Feuchte:Windchill:Wind:
Aussen-T/F 1026 17-11-2010 13:17:02 6.7 C 4.71 g/m*3 6.7 C 0 km/h
1027 17-11-2010 13:29:02 6.7 C 4.64 g/m*3 6.7 C 0 km/h
1028 17-11-2010 13:41:01 6.5 C 4.57 g/m*3 6.5 C 0 km/h
1029 17-11-2010 13:53:02 6.5 C 4.57 g/m*3 6.5 C 0 km/h
1030 17-11-2010 14:05:01 6.4 C 4.62 g/m*3 6.4 C 0 km/h
1031 17-11-2010 14:17:01 6.3 C 4.59 g/m*3 6.3 C 0 km/h
1032 17-11-2010 14:29:01 6.1 C 4.46 g/m*3 6.1 C 0 km/h
1033 17-11-2010 14:41:02 6.1 C 4.53 g/m*3 6.1 C 0 km/h
1034 17-11-2010 14:53:02 6 C 4.57 g/m*3 6 C 0 km/h
1035 17-11-2010 15:05:02 5.9 C 4.54 g/m*3 5.9 C 0 km/h
1036 17-11-2010 15:17:02 5.9 C 4.61 g/m*3 5.9 C 0 km/h
1037 17-11-2010 15:29:02 5.9 C 4.69 g/m*3 5.9 C 0 km/h
1038 17-11-2010 15:41:02 5.8 C 4.73 g/m*3 5.8 C 0 km/h
1039 17-11-2010 15:53:02 5.8 C 4.8 g/m*3 5.8 C 0 km/h
1040 17-11-2010 16:05:02 5.7 C 4.77 g/m*3 5.7 C 0 km/h
1041 17-11-2010 16:17:02 5.6 C 4.81 g/m*3 5.6 C 0 km/h
1042 17-11-2010 16:29:02 5.5 C 4.78 g/m*3 5.5 C 0 km/h
1043 17-11-2010 16:41:02 5.5 C 4.85 g/m*3 5.5 C 0 km/h
1044 17-11-2010 16:53:01 5.4 C 4.81 g/m*3 5.4 C 0 km/h
1045 17-11-2010 17:05:01 5.4 C 4.88 g/m*3 5.4 C 0 km/h
1046 17-11-2010 17:17:02 5.3 C 4.85 g/m*3 5.3 C 0 km/h
1047 17-11-2010 17:29:02 5.2 C 4.89 g/m*3 5.2 C 0 km/h
1048 17-11-2010 17:41:01 5.2 C 4.96 g/m*3 5.2 C 0 km/h
1049 17-11-2010 17:53:02 5.2 C 4.96 g/m*3 5.2 C 0 km/h
1050 17-11-2010 18:05:02 5.2 C 4.96 g/m*3 5.2 C 0 km/h
Sensor: Nr:Datum:Temp:Abs-Feuchte:Windchill:Wind:
Aussen-T/F 1051 17-11-2010 18:17:03 5.2 C 4.96 g/m*3 5.2 C 0 km/h
1052 17-11-2010 18:29:03 5.2 C 5.03 g/m*3 5.2 C 0 km/h
1053 17-11-2010 18:41:02 5.2 C 4.96 g/m*3 5.2 C 0 km/h
1054 17-11-2010 18:53:01 5.2 C 4.96 g/m*3 5.2 C 0 km/h
1055 17-11-2010 19:05:01 5.3 C 4.99 g/m*3 5.3 C 0 km/h
1056 17-11-2010 19:17:02 5.3 C 4.99 g/m*3 5.3 C 0 km/h
1057 17-11-2010 19:29:02 5.3 C 4.99 g/m*3 5.3 C 0 km/h
1058 17-11-2010 19:41:01 5.3 C 4.99 g/m*3 5.3 C 0 km/h
1059 17-11-2010 19:53:01 5.3 C 4.99 g/m*3 5.3 C 0 km/h
1060 17-11-2010 20:05:01 5.3 C 5.06 g/m*3 5.3 C 0 km/h
1061 17-11-2010 20:17:02 5.3 C 5.13 g/m*3 5.3 C 0 km/h
1062 17-11-2010 20:29:02 5.3 C 5.13 g/m*3 5.3 C 0 km/h
1063 17-11-2010 20:41:56 5.3 C 5.13 g/m*3 5.3 C 0 km/h
1064 17-11-2010 20:53:56 5.3 C 5.13 g/m*3 5.3 C 0 km/h
1065 17-11-2010 21:05:56 5.3 C 5.2 g/m*3 5.3 C 0 km/h
1066 17-11-2010 21:17:02 5.3 C 5.13 g/m*3 5.3 C 0 km/h
1067 17-11-2010 21:29:02 5.3 C 5.2 g/m*3 5.3 C 0 km/h
1068 17-11-2010 21:41:02 5.2 C 5.23 g/m*3 5.2 C 0 km/h
1069 17-11-2010 21:53:01 5.2 C 5.3 g/m*3 5.2 C 0 km/h
1070 17-11-2010 22:05:01 5.2 C 5.3 g/m*3 5.2 C 0 km/h
1071 17-11-2010 22:17:02 5.1 C 5.27 g/m*3 5.1 C 0 km/h
1072 17-11-2010 22:29:02 5.1 C 5.34 g/m*3 5.1 C 0 km/h
1073 17-11-2010 22:42:03 5 C 5.37 g/m*3 5 C 0 km/h
1074 17-11-2010 22:54:03 4.8 C 5.43 g/m*3 4.8 C 0 km/h
1075 17-11-2010 23:06:03 4.6 C 5.49 g/m*3 4.6 C 0 km/h
Sensor: Nr:Datum:Temp:Abs-Feuchte:Windchill:Wind:
Aussen-T/F 1076 17-11-2010 23:18:03 4.5 C 5.52 g/m*3 4.5 C 0 km/h
1077 17-11-2010 23:30:03 4.5 C 5.59 g/m*3 4.5 C 0 km/h
1078 17-11-2010 23:42:03 4.5 C 5.65 g/m*3 4.5 C 0 km/h
1079 17-11-2010 23:54:03 4.5 C 5.65 g/m*3 4.5 C 0 km/h
1080 18-11-2010 00:06:03 4.6 C 5.76 g/m*3 4.6 C 0 km/h
1081 18-11-2010 00:18:03 4.7 C 5.8 g/m*3 4.7 C 0 km/h
1082 18-11-2010 00:30:03 4.6 C 5.76 g/m*3 4.6 C 0 km/h
1083 18-11-2010 00:42:03 4.5 C 5.72 g/m*3 4.5 C 0 km/h
1084 18-11-2010 00:54:03 4.4 C 5.68 g/m*3 4.4 C 0 km/h
1085 18-11-2010 01:06:03 4.3 C 5.71 g/m*3 4.3 C 0 km/h
1086 18-11-2010 01:18:04 4.3 C 5.71 g/m*3 4.3 C 0 km/h
1087 18-11-2010 01:30:04 4.3 C 5.71 g/m*3 4.3 C 0 km/h
1088 18-11-2010 01:42:04 4.3 C 5.71 g/m*3 4.3 C 0 km/h
1089 18-11-2010 01:54:04 4.2 C 5.73 g/m*3 4.2 C 0 km/h
1090 18-11-2010 02:06:04 4.2 C 5.73 g/m*3 4.2 C 0 km/h
1091 18-11-2010 02:18:04 4.3 C 5.77 g/m*3 4.3 C 0 km/h
1092 18-11-2010 02:30:04 4.5 C 5.85 g/m*3 4.5 C 0 km/h
1093 18-11-2010 02:42:04 4.4 C 5.81 g/m*3 4.4 C 0 km/h
1094 18-11-2010 02:54:04 4 C 5.66 g/m*3 4 C 0 km/h
1095 18-11-2010 03:06:04 3.9 C 5.68 g/m*3 3.9 C 0 km/h
1096 18-11-2010 03:18:04 4 C 5.72 g/m*3 4 C 0 km/h
1097 18-11-2010 03:30:04 4 C 5.72 g/m*3 4 C 0 km/h
1098 18-11-2010 03:42:04 4.2 C 5.8 g/m*3 4.2 C 0 km/h
1099 18-11-2010 03:54:04 4.2 C 5.8 g/m*3 4.2 C 0 km/h
1100 18-11-2010 04:06:04 4.2 C 5.8 g/m*3 4.2 C 0 km/h
Sensor: Nr:Datum:Temp:Abs-Feuchte:Windchill:Wind:
Aussen-T/F 1101 18-11-2010 04:18:04 4.3 C 5.9 g/m*3 4.3 C 0 km/h
1102 18-11-2010 04:30:04 4.3 C 5.9 g/m*3 4.3 C 0 km/h
1103 18-11-2010 04:42:04 4.3 C 5.9 g/m*3 4.3 C 0 km/h
1104 18-11-2010 04:54:04 4.3 C 5.9 g/m*3 4.3 C 0 km/h
1105 18-11-2010 05:06:04 4.3 C 5.9 g/m*3 4.3 C 0 km/h
1106 18-11-2010 05:18:05 4.4 C 5.94 g/m*3 4.4 C 0 km/h
1107 18-11-2010 05:30:05 4.3 C 5.9 g/m*3 4.3 C 0 km/h
1108 18-11-2010 05:42:05 4.2 C 5.86 g/m*3 4.2 C 0 km/h
1109 18-11-2010 05:54:05 4.2 C 5.86 g/m*3 4.2 C 0 km/h
1110 18-11-2010 06:06:05 4.2 C 5.86 g/m*3 4.2 C 0 km/h
1111 18-11-2010 06:18:05 3.9 C 5.81 g/m*3 3.9 C 0 km/h
1112 18-11-2010 06:30:05 3.9 C 5.81 g/m*3 3.9 C 0 km/h
1113 18-11-2010 06:42:05 3.8 C 5.77 g/m*3 3.8 C 0 km/h
1114 18-11-2010 06:54:05 3.8 C 5.77 g/m*3 3.8 C 0 km/h
1115 18-11-2010 07:06:05 3.8 C 5.77 g/m*3 3.8 C 0 km/h
1116 18-11-2010 07:18:03 3.9 C 5.81 g/m*3 3.9 C 0 km/h
1117 18-11-2010 07:30:03 4 C 5.85 g/m*3 4 C 0 km/h
1118 18-11-2010 07:42:03 4 C 5.85 g/m*3 4 C 0 km/h
1119 18-11-2010 07:54:02 4.2 C 5.93 g/m*3 4.2 C 0 km/h
1120 18-11-2010 08:06:02 4.1 C 5.89 g/m*3 4.1 C 0 km/h
1121 18-11-2010 08:18:01 4.2 C 5.93 g/m*3 4.2 C 0 km/h
1122 18-11-2010 08:30:01 4.2 C 5.93 g/m*3 4.2 C 0 km/h
1123 18-11-2010 08:42:02 4.2 C 5.93 g/m*3 4.2 C 0 km/h
1124 18-11-2010 08:54:01 4.4 C 6.01 g/m*3 4.4 C 0 km/h
1125 18-11-2010 09:06:02 4.5 C 6.05 g/m*3 4.5 C 0 km/h
Sensor: Nr:Datum:Temp:Abs-Feuchte:Windchill:Wind:
Aussen-T/F 1126 18-11-2010 09:18:01 4.8 C 6.17 g/m*3 4.8 C 0 km/h
1127 18-11-2010 09:30:01 4.8 C 6.17 g/m*3 4.8 C 0 km/h
1128 18-11-2010 09:42:02 5.2 C 6.27 g/m*3 5.2 C 0 km/h
1129 18-11-2010 09:54:01 5.4 C 6.35 g/m*3 5.4 C 0 km/h
1130 18-11-2010 10:06:02 5.4 C 6.28 g/m*3 5.4 C 0 km/h
1131 18-11-2010 10:18:02 5.8 C 6.38 g/m*3 5.8 C 0 km/h
1132 18-11-2010 10:30:02 6 C 6.24 g/m*3 6 C 0 km/h
1133 18-11-2010 10:42:01 6.1 C 6.14 g/m*3 6.1 C 0 km/h
1134 18-11-2010 10:54:02 6.5 C 6.15 g/m*3 6.5 C 0 km/h
1135 18-11-2010 11:06:01 6.5 C 6.07 g/m*3 6.5 C 0 km/h
1136 18-11-2010 11:18:01 6.6 C 5.96 g/m*3 6.6 C 0 km/h
1137 18-11-2010 11:30:02 6.8 C 5.97 g/m*3 6.8 C 0 km/h
1138 18-11-2010 11:42:01 7.2 C 6.04 g/m*3 7.2 C 0 km/h
1139 18-11-2010 11:54:02 7.4 C 6.04 g/m*3 7.4 C 0 km/h
1140 18-11-2010 12:06:01 7.4 C 6.04 g/m*3 7.4 C 0 km/h
1141 18-11-2010 12:18:02 7.6 C 6.04 g/m*3 7.6 C 0 km/h
1142 18-11-2010 12:30:02 7.6 C 5.96 g/m*3 7.6 C 0 km/h
1143 18-11-2010 12:42:02 7.4 C 5.73 g/m*3 7.4 C 0 km/h
1144 18-11-2010 12:54:01 7.7 C 5.84 g/m*3 7.7 C 0 km/h
1145 18-11-2010 13:06:01 8 C 5.7 g/m*3 8 C 0 km/h
1146 18-11-2010 13:18:01 8.5 C 5.81 g/m*3 8.5 C 0 km/h
1147 18-11-2010 13:30:01 8.4 C 5.6 g/m*3 8.4 C 0 km/h
1148 18-11-2010 13:42:02 8.3 C 5.65 g/m*3 8.3 C 0 km/h
1149 18-11-2010 13:54:02 8.6 C 5.76 g/m*3 8.6 C 0 km/h
1150 18-11-2010 14:06:02 8.5 C 5.46 g/m*3 8.5 C 0 km/h
Sensor: Nr:Datum:Temp:Abs-Feuchte:Windchill:Wind:
Aussen-T/F 1151 18-11-2010 14:18:01 8.2 C 5.28 g/m*3 8.2 C 0 km/h
1152 18-11-2010 14:30:01 8 C 5.37 g/m*3 8 C 0 km/h
1153 18-11-2010 14:42:02 8 C 5.29 g/m*3 8 C 0 km/h
1154 18-11-2010 14:54:02 8 C 5.21 g/m*3 8 C 0 km/h
1155 18-11-2010 15:06:02 7.8 C 5.3 g/m*3 7.8 C 0 km/h
1156 18-11-2010 15:18:01 7.9 C 5.34 g/m*3 7.9 C 0 km/h
1157 18-11-2010 15:30:01 7.8 C 5.39 g/m*3 7.8 C 0 km/h
1158 18-11-2010 15:42:02 7.7 C 5.43 g/m*3 7.7 C 0 km/h
1159 18-11-2010 15:54:01 7.6 C 5.48 g/m*3 7.6 C 0 km/h
1160 18-11-2010 16:06:02 7.3 C 5.61 g/m*3 7.3 C 0 km/h
1161 18-11-2010 16:18:02 7.1 C 5.77 g/m*3 7.1 C 0 km/h
1162 18-11-2010 16:30:02 6.9 C 5.93 g/m*3 6.9 C 0 km/h
1163 18-11-2010 16:42:01 6.8 C 5.89 g/m*3 6.8 C 0 km/h
1164 18-11-2010 16:54:02 6.4 C 5.66 g/m*3 6.4 C 0 km/h
1165 18-11-2010 17:06:01 6 C 5.66 g/m*3 6 C 0 km/h
1166 18-11-2010 17:18:02 6.1 C 5.84 g/m*3 6.1 C 0 km/h
1167 18-11-2010 17:30:02 6.1 C 5.92 g/m*3 6.1 C 0 km/h
1168 18-11-2010 17:42:01 6.2 C 5.96 g/m*3 6.2 C 0 km/h
1169 18-11-2010 17:54:02 6.2 C 5.96 g/m*3 6.2 C 0 km/h
1170 18-11-2010 18:06:02 6.2 C 5.96 g/m*3 6.2 C 0 km/h
1171 18-11-2010 18:18:02 6.2 C 6.03 g/m*3 6.2 C 0 km/h
1172 18-11-2010 18:30:02 6.2 C 6.03 g/m*3 6.2 C 0 km/h
1173 18-11-2010 18:42:02 6.2 C 6.03 g/m*3 6.2 C 0 km/h
1174 18-11-2010 18:54:02 6.2 C 6.03 g/m*3 6.2 C 0 km/h
1175 18-11-2010 19:06:01 6.3 C 6.07 g/m*3 6.3 C 0 km/h
Sensor: Nr:Datum:Temp:Abs-Feuchte:Windchill:Wind:
Aussen-T/F 1176 18-11-2010 19:18:02 6.2 C 5.88 g/m*3 6.2 C 0 km/h
1177 18-11-2010 19:30:02 5.8 C 5.95 g/m*3 5.8 C 0 km/h
1178 18-11-2010 19:42:02 5.7 C 6.05 g/m*3 5.7 C 0 km/h
1179 18-11-2010 19:54:02 5.7 C 6.12 g/m*3 5.7 C 0 km/h
1180 18-11-2010 20:06:02 5.6 C 6.15 g/m*3 5.6 C 0 km/h
1181 18-11-2010 20:18:02 5.6 C 6.22 g/m*3 5.6 C 0 km/h
1182 18-11-2010 20:30:02 5.6 C 6.22 g/m*3 5.6 C 0 km/h
1183 18-11-2010 20:42:02 5.6 C 6.29 g/m*3 5.6 C 0 km/h
1184 18-11-2010 20:54:01 5.5 C 6.25 g/m*3 5.5 C 0 km/h
1185 18-11-2010 21:06:02 5.5 C 6.25 g/m*3 5.5 C 0 km/h
1186 18-11-2010 21:18:01 5.5 C 6.25 g/m*3 5.5 C 0 km/h
1187 18-11-2010 21:30:01 5.5 C 6.25 g/m*3 5.5 C 0 km/h
1188 18-11-2010 21:42:01 5.5 C 6.25 g/m*3 5.5 C 0 km/h
1189 18-11-2010 21:54:01 5.6 C 6.36 g/m*3 5.6 C 0 km/h
1190 18-11-2010 22:06:01 5.5 C 6.32 g/m*3 5.5 C 0 km/h
1191 18-11-2010 22:18:02 5.5 C 6.32 g/m*3 5.5 C 0 km/h
1192 18-11-2010 22:30:02 5.5 C 6.32 g/m*3 5.5 C 0 km/h
1193 18-11-2010 22:42:01 5.5 C 6.32 g/m*3 5.5 C 0 km/h
1194 18-11-2010 22:55:03 5.5 C 6.32 g/m*3 5.5 C 0 km/h
1195 18-11-2010 23:07:03 5.6 C 6.43 g/m*3 5.6 C 0 km/h
1196 18-11-2010 23:19:03 5.6 C 6.43 g/m*3 5.6 C 0 km/h
1197 18-11-2010 23:31:03 5.7 C 6.48 g/m*3 5.7 C 0 km/h
1198 18-11-2010 23:43:03 5.7 C 6.4 g/m*3 5.7 C 0 km/h
1199 18-11-2010 23:55:04 5.6 C 6.36 g/m*3 5.6 C 0 km/h
1200 19-11-2010 00:07:04 5.5 C 6.32 g/m*3 5.5 C 0 km/h
Sensor: Nr:Datum:Temp:Abs-Feuchte:Windchill:Wind:
Aussen-T/F 1201 19-11-2010 00:19:04 5.6 C 6.29 g/m*3 5.6 C 0 km/h
1202 19-11-2010 00:31:04 5.7 C 6.26 g/m*3 5.7 C 0 km/h
1203 19-11-2010 00:43:04 5.7 C 6.26 g/m*3 5.7 C 0 km/h
1204 19-11-2010 00:55:04 5.8 C 6.16 g/m*3 5.8 C 0 km/h
1205 19-11-2010 01:07:04 5.8 C 6.09 g/m*3 5.8 C 0 km/h
1206 19-11-2010 01:19:04 5.6 C 6.01 g/m*3 5.6 C 0 km/h
1207 19-11-2010 01:31:04 5.5 C 6.11 g/m*3 5.5 C 0 km/h
1208 19-11-2010 01:43:04 5.5 C 6.18 g/m*3 5.5 C 0 km/h
1209 19-11-2010 01:55:04 5.5 C 6.18 g/m*3 5.5 C 0 km/h
1210 19-11-2010 02:07:04 5.4 C 6.14 g/m*3 5.4 C 0 km/h
1211 19-11-2010 02:19:04 5.4 C 6.21 g/m*3 5.4 C 0 km/h
1212 19-11-2010 02:31:04 5.3 C 6.17 g/m*3 5.3 C 0 km/h
1213 19-11-2010 02:43:04 5.3 C 6.17 g/m*3 5.3 C 0 km/h
1214 19-11-2010 02:55:04 5.3 C 6.17 g/m*3 5.3 C 0 km/h
1215 19-11-2010 03:07:04 5.2 C 6.06 g/m*3 5.2 C 0 km/h
1216 19-11-2010 03:19:04 5.2 C 6.13 g/m*3 5.2 C 0 km/h
1217 19-11-2010 03:31:04 5.1 C 6.09 g/m*3 5.1 C 0 km/h
1218 19-11-2010 03:43:04 5.1 C 6.09 g/m*3 5.1 C 0 km/h
1219 19-11-2010 03:55:04 5 C 6.05 g/m*3 5 C 0 km/h
1220 19-11-2010 04:07:05 5 C 6.05 g/m*3 5 C 0 km/h
1221 19-11-2010 04:19:05 5 C 6.05 g/m*3 5 C 0 km/h
1222 19-11-2010 04:31:05 5.1 C 6.09 g/m*3 5.1 C 0 km/h
1223 19-11-2010 04:43:05 5.1 C 6.09 g/m*3 5.1 C 0 km/h
1224 19-11-2010 04:55:05 5 C 5.98 g/m*3 5 C 0 km/h
1225 19-11-2010 05:07:05 4.9 C 6.01 g/m*3 4.9 C 0 km/h
Sensor: Nr:Datum:Temp:Abs-Feuchte:Windchill:Wind:
Aussen-T/F 1226 19-11-2010 05:19:05 4.9 C 6.01 g/m*3 4.9 C 0 km/h
1227 19-11-2010 05:31:05 4.9 C 6.08 g/m*3 4.9 C 0 km/h
1228 19-11-2010 05:43:05 5 C 6.05 g/m*3 5 C 0 km/h
1229 19-11-2010 05:55:05 5 C 6.05 g/m*3 5 C 0 km/h
1230 19-11-2010 06:07:05 4.9 C 6.01 g/m*3 4.9 C 0 km/h
1231 19-11-2010 06:19:05 4.8 C 5.97 g/m*3 4.8 C 0 km/h
1232 19-11-2010 06:31:05 4.8 C 6.04 g/m*3 4.8 C 0 km/h
1233 19-11-2010 06:43:05 5 C 6.05 g/m*3 5 C 0 km/h
1234 19-11-2010 06:55:02 5 C 6.05 g/m*3 5 C 0 km/h
1235 19-11-2010 07:07:02 5.1 C 6.09 g/m*3 5.1 C 0 km/h
1236 19-11-2010 07:19:02 5.2 C 6.13 g/m*3 5.2 C 0 km/h
1237 19-11-2010 07:31:02 5.2 C 6.13 g/m*3 5.2 C 0 km/h
1238 19-11-2010 07:43:02 5.1 C 6.09 g/m*3 5.1 C 0 km/h
1239 19-11-2010 07:55:02 5.1 C 6.09 g/m*3 5.1 C 0 km/h
1240 19-11-2010 08:07:01 5.2 C 6.13 g/m*3 5.2 C 0 km/h
1241 19-11-2010 08:19:02 5.3 C 6.17 g/m*3 5.3 C 0 km/h
1242 19-11-2010 08:31:02 5.4 C 6.21 g/m*3 5.4 C 0 km/h
1243 19-11-2010 08:43:02 5.5 C 6.25 g/m*3 5.5 C 0 km/h
1244 19-11-2010 08:55:02 5.8 C 6.38 g/m*3 5.8 C 0 km/h
1245 19-11-2010 09:07:02 6 C 6.31 g/m*3 6 C 0 km/h
1246 19-11-2010 09:19:02 6.2 C 6.32 g/m*3 6.2 C 0 km/h
1247 19-11-2010 09:31:03 6.4 C 6.33 g/m*3 6.4 C 0 km/h
1248 19-11-2010 09:43:03 6.4 C 6.18 g/m*3 6.4 C 0 km/h
1249 19-11-2010 09:55:02 6.6 C 6.11 g/m*3 6.6 C 0 km/h
1250 19-11-2010 10:07:02 6.9 C 6.24 g/m*3 6.9 C 0 km/h
Sensor: Nr:Datum:Temp:Abs-Feuchte:Windchill:Wind:
Aussen-T/F 1251 19-11-2010 10:19:01 7.1 C 6.16 g/m*3 7.1 C 0 km/h
1252 19-11-2010 10:31:02 7.6 C 6.28 g/m*3 7.6 C 0 km/h
1253 19-11-2010 10:43:03 7.9 C 6.32 g/m*3 7.9 C 0 km/h
1254 19-11-2010 10:55:02 8.6 C 6.36 g/m*3 8.6 C 0 km/h
1255 19-11-2010 11:07:02 8.7 C 6.23 g/m*3 8.7 C 0 km/h
1256 19-11-2010 11:19:02 8.9 C 6.13 g/m*3 8.9 C 0 km/h
1257 19-11-2010 11:31:02 8.8 C 6.01 g/m*3 8.8 C 0 km/h
1258 19-11-2010 11:43:02 8.8 C 6.01 g/m*3 8.8 C 0 km/h
1259 19-11-2010 11:55:02 9 C 5.91 g/m*3 9 C 0 km/h
1260 19-11-2010 12:07:02 9.2 C 5.98 g/m*3 9.2 C 0 km/h
1261 19-11-2010 12:19:03 9.5 C 5.92 g/m*3 9.5 C 0 km/h
1262 19-11-2010 12:31:02 9.5 C 5.83 g/m*3 9.5 C 0 km/h
1263 19-11-2010 12:43:02 9.4 C 5.79 g/m*3 9.4 C 0 km/h
1264 19-11-2010 12:55:02 10 C 5.73 g/m*3 10 C 0 km/h
1265 19-11-2010 13:07:02 10.2 C 5.8 g/m*3 10.2 C 0 km/h
1266 19-11-2010 13:19:02 9.7 C 5.81 g/m*3 9.7 C 0 km/h
1267 19-11-2010 13:31:02 9.5 C 5.83 g/m*3 9.5 C 0 km/h
1268 19-11-2010 13:43:02 9.5 C 5.92 g/m*3 9.5 C 0 km/h
1269 19-11-2010 13:55:02 9.8 C 5.75 g/m*3 9.8 C 0 km/h
1270 19-11-2010 14:07:01 10.2 C 5.61 g/m*3 10.2 C 0 km/h
1271 19-11-2010 14:19:02 10.1 C 5.67 g/m*3 10.1 C 0 km/h
1272 19-11-2010 14:31:02 9.9 C 5.7 g/m*3 9.9 C 0 km/h
1273 19-11-2010 14:43:02 9.8 C 5.75 g/m*3 9.8 C 0 km/h
1274 19-11-2010 14:55:01 9.7 C 5.72 g/m*3 9.7 C 0 km/h
1275 19-11-2010 15:07:01 9.7 C 5.81 g/m*3 9.7 C 0 km/h
Sensor: Nr:Datum:Temp:Abs-Feuchte:Windchill:Wind:
Aussen-T/F 1276 19-11-2010 15:19:01 9.2 C 5.8 g/m*3 9.2 C 0 km/h
1277 19-11-2010 15:31:02 8.6 C 5.84 g/m*3 8.6 C 0 km/h
1278 19-11-2010 15:43:02 7.7 C 6 g/m*3 7.7 C 0 km/h
1279 19-11-2010 15:55:02 7.3 C 6.08 g/m*3 7.3 C 0 km/h
1280 19-11-2010 16:07:02 6.9 C 6.08 g/m*3 6.9 C 0 km/h
1281 19-11-2010 16:19:01 6.8 C 6.12 g/m*3 6.8 C 0 km/h
1282 19-11-2010 16:31:02 6.8 C 6.19 g/m*3 6.8 C 0 km/h
1283 19-11-2010 16:43:02 7.2 C 6.36 g/m*3 7.2 C 0 km/h
1284 19-11-2010 16:55:02 7.5 C 6.4 g/m*3 7.5 C 0 km/h
1285 19-11-2010 17:07:02 7.6 C 6.28 g/m*3 7.6 C 0 km/h
1286 19-11-2010 17:19:01 7.6 C 6.28 g/m*3 7.6 C 0 km/h
1287 19-11-2010 17:31:02 7.7 C 6.32 g/m*3 7.7 C 0 km/h
1288 19-11-2010 17:43:02 7.5 C 6.32 g/m*3 7.5 C 0 km/h
1289 19-11-2010 17:55:02 7.5 C 6.32 g/m*3 7.5 C 0 km/h
1290 19-11-2010 18:07:02 7.5 C 6.4 g/m*3 7.5 C 0 km/h
1291 19-11-2010 18:19:02 7.6 C 6.36 g/m*3 7.6 C 0 km/h
1292 19-11-2010 18:31:02 7.7 C 6.32 g/m*3 7.7 C 0 km/h
1293 19-11-2010 18:43:02 7.8 C 6.28 g/m*3 7.8 C 0 km/h
1294 19-11-2010 18:55:02 7.5 C 6.24 g/m*3 7.5 C 0 km/h
1295 19-11-2010 19:07:02 7.5 C 6.32 g/m*3 7.5 C 0 km/h
1296 19-11-2010 19:19:02 7.3 C 6.24 g/m*3 7.3 C 0 km/h
1297 19-11-2010 19:31:01 7 C 6.2 g/m*3 7 C 0 km/h
1298 19-11-2010 19:43:01 6.7 C 6.23 g/m*3 6.7 C 0 km/h
1299 19-11-2010 19:55:02 6.3 C 6.14 g/m*3 6.3 C 0 km/h
1300 19-11-2010 20:07:01 5.9 C 6.13 g/m*3 5.9 C 0 km/h
Sensor: Nr:Datum:Temp:Abs-Feuchte:Windchill:Wind:
Aussen-T/F 1301 19-11-2010 20:19:02 5.4 C 6 g/m*3 5.4 C 0 km/h
1302 19-11-2010 20:31:01 5 C 5.84 g/m*3 5 C 0 km/h
1303 19-11-2010 20:43:01 4.6 C 5.76 g/m*3 4.6 C 0 km/h
1304 19-11-2010 20:55:01 4.6 C 5.82 g/m*3 4.6 C 0 km/h
1305 19-11-2010 21:07:02 4.1 C 5.63 g/m*3 4.1 C 0 km/h
1306 19-11-2010 21:19:02 3.9 C 5.62 g/m*3 3.9 C 0 km/h
1307 19-11-2010 21:31:01 4 C 5.66 g/m*3 4 C 0 km/h
1308 19-11-2010 21:43:01 3.8 C 5.65 g/m*3 3.8 C 0 km/h
1309 19-11-2010 21:55:01 3.5 C 5.53 g/m*3 3.5 C 0 km/h
1310 19-11-2010 22:07:01 3.4 C 5.5 g/m*3 3.4 C 0 km/h
1311 19-11-2010 22:19:01 3.4 C 5.56 g/m*3 3.4 C 0 km/h
1312 19-11-2010 22:31:01 4.4 C 5.94 g/m*3 4.4 C 0 km/h
1313 19-11-2010 22:43:01 4.3 C 5.9 g/m*3 4.3 C 0 km/h
1314 19-11-2010 22:55:01 4.1 C 5.82 g/m*3 4.1 C 0 km/h
1315 19-11-2010 23:07:01 4 C 5.79 g/m*3 4 C 0 km/h
1316 19-11-2010 23:19:02 4.3 C 5.9 g/m*3 4.3 C 0 km/h
1317 19-11-2010 23:32:02 4.6 C 6.09 g/m*3 4.6 C 0 km/h
1318 19-11-2010 23:44:02 4.8 C 6.17 g/m*3 4.8 C 0 km/h
1319 19-11-2010 23:56:02 5 C 6.18 g/m*3 5 C 0 km/h
1320 20-11-2010 00:08:02 4.7 C 6.13 g/m*3 4.7 C 0 km/h
1321 20-11-2010 00:20:02 3.9 C 5.81 g/m*3 3.9 C 0 km/h
1322 20-11-2010 00:32:02 3.2 C 5.54 g/m*3 3.2 C 0 km/h
1323 20-11-2010 00:44:02 3.8 C 5.77 g/m*3 3.8 C 0 km/h
1324 20-11-2010 00:56:02 4.6 C 6.09 g/m*3 4.6 C 0 km/h
1325 20-11-2010 01:08:02 4.6 C 6.09 g/m*3 4.6 C 0 km/h
Sensor: Nr:Datum:Temp:Abs-Feuchte:Windchill:Wind:
Aussen-T/F 1326 20-11-2010 01:20:02 4.9 C 6.21 g/m*3 4.9 C 0 km/h
1327 20-11-2010 01:32:02 4.6 C 6.09 g/m*3 4.6 C 0 km/h
1328 20-11-2010 01:44:02 3.7 C 5.73 g/m*3 3.7 C 0 km/h
1329 20-11-2010 01:56:03 3.1 C 5.51 g/m*3 3.1 C 0 km/h
1330 20-11-2010 02:08:03 2.4 C 5.25 g/m*3 2.4 C 0 km/h
1331 20-11-2010 02:20:03 2.1 C 5.15 g/m*3 2.1 C 0 km/h
1332 20-11-2010 02:32:03 1.7 C 5.06 g/m*3 1.7 C 0 km/h
1333 20-11-2010 02:44:03 2 C 5.11 g/m*3 2 C 0 km/h
1334 20-11-2010 02:56:03 1.5 C 4.99 g/m*3 1.5 C 0 km/h
1335 20-11-2010 03:08:03 1.4 C 4.96 g/m*3 1.4 C 0 km/h
1336 20-11-2010 03:20:03 1.2 C 4.84 g/m*3 1.2 C 0 km/h
1337 20-11-2010 03:32:03 1.1 C 4.81 g/m*3 1.1 C 0 km/h
1338 20-11-2010 03:44:03 1.3 C 4.87 g/m*3 1.3 C 0 km/h
1339 20-11-2010 03:56:03 1.7 C 5.06 g/m*3 1.7 C 0 km/h
1340 20-11-2010 04:08:03 2.1 C 5.15 g/m*3 2.1 C 0 km/h
1341 20-11-2010 04:20:03 2.5 C 5.35 g/m*3 2.5 C 0 km/h
1342 20-11-2010 04:32:03 2.8 C 5.46 g/m*3 2.8 C 0 km/h
1343 20-11-2010 04:44:03 2.8 C 5.46 g/m*3 2.8 C 0 km/h
1344 20-11-2010 04:56:03 3 C 5.47 g/m*3 3 C 0 km/h
1345 20-11-2010 05:08:03 3.1 C 5.51 g/m*3 3.1 C 0 km/h
1346 20-11-2010 05:20:03 3.2 C 5.6 g/m*3 3.2 C 0 km/h
1347 20-11-2010 05:32:03 3.4 C 5.68 g/m*3 3.4 C 0 km/h
1348 20-11-2010 05:44:03 3.4 C 5.68 g/m*3 3.4 C 0 km/h
1349 20-11-2010 05:56:03 3.6 C 5.76 g/m*3 3.6 C 0 km/h
1350 20-11-2010 06:08:03 3.6 C 5.76 g/m*3 3.6 C 0 km/h
Sensor: Nr:Datum:Temp:Abs-Feuchte:Windchill:Wind:
Aussen-T/F 1351 20-11-2010 06:20:03 3.7 C 5.8 g/m*3 3.7 C 0 km/h
1352 20-11-2010 06:32:04 3.8 C 5.83 g/m*3 3.8 C 0 km/h
1353 20-11-2010 06:44:04 3.8 C 5.83 g/m*3 3.8 C 0 km/h
1354 20-11-2010 06:56:04 3.9 C 5.87 g/m*3 3.9 C 0 km/h
1355 20-11-2010 07:08:04 4 C 5.91 g/m*3 4 C 0 km/h
1356 20-11-2010 07:20:04 4 C 5.91 g/m*3 4 C 0 km/h
1357 20-11-2010 07:32:04 4.1 C 5.95 g/m*3 4.1 C 0 km/h
1358 20-11-2010 07:44:04 4.1 C 5.95 g/m*3 4.1 C 0 km/h
1359 20-11-2010 07:56:04 4.1 C 5.95 g/m*3 4.1 C 0 km/h
1360 20-11-2010 08:08:02 4.2 C 5.99 g/m*3 4.2 C 0 km/h
1361 20-11-2010 08:20:01 4.3 C 6.03 g/m*3 4.3 C 0 km/h
1362 20-11-2010 08:32:02 4.4 C 6.07 g/m*3 4.4 C 0 km/h
1363 20-11-2010 08:44:02 4.5 C 6.11 g/m*3 4.5 C 0 km/h
1364 20-11-2010 08:56:02 4.6 C 6.15 g/m*3 4.6 C 0 km/h
1365 20-11-2010 09:08:02 4.7 C 6.19 g/m*3 4.7 C 0 km/h
1366 20-11-2010 09:20:01 4.9 C 6.28 g/m*3 4.9 C 0 km/h
1367 20-11-2010 09:32:02 5 C 6.25 g/m*3 5 C 0 km/h
1368 20-11-2010 09:44:02 5.2 C 6.4 g/m*3 5.2 C 0 km/h
1369 20-11-2010 09:56:02 5.4 C 6.49 g/m*3 5.4 C 0 km/h
1370 20-11-2010 10:08:02 5.5 C 6.46 g/m*3 5.5 C 0 km/h
1371 20-11-2010 10:20:02 5.6 C 6.5 g/m*3 5.6 C 0 km/h
1372 20-11-2010 10:32:02 6 C 6.6 g/m*3 6 C 0 km/h
1373 20-11-2010 10:44:02 6.5 C 6.82 g/m*3 6.5 C 0 km/h
1374 20-11-2010 10:56:02 6.5 C 6.75 g/m*3 6.5 C 0 km/h
1375 20-11-2010 11:08:01 6.8 C 6.81 g/m*3 6.8 C 0 km/h
Sensor: Nr:Datum:Temp:Abs-Feuchte:Windchill:Wind:
Aussen-T/F 1376 20-11-2010 11:20:02 6.9 C 6.7 g/m*3 6.9 C 0 km/h
1377 20-11-2010 11:32:01 7.2 C 6.67 g/m*3 7.2 C 0 km/h
1378 20-11-2010 11:44:01 8 C 6.78 g/m*3 8 C 0 km/h
1379 20-11-2010 11:56:02 8.4 C 6.79 g/m*3 8.4 C 0 km/h
1380 20-11-2010 12:08:01 8.8 C 6.88 g/m*3 8.8 C 0 km/h
1381 20-11-2010 12:20:01 8.9 C 6.83 g/m*3 8.9 C 0 km/h
1382 20-11-2010 12:32:02 9.2 C 6.61 g/m*3 9.2 C 0 km/h
1383 20-11-2010 12:44:02 9.3 C 6.56 g/m*3 9.3 C 0 km/h
1384 20-11-2010 12:56:02 9.3 C 6.47 g/m*3 9.3 C 0 km/h
1385 20-11-2010 13:08:02 8.9 C 6.31 g/m*3 8.9 C 0 km/h
1386 20-11-2010 13:20:01 8.7 C 6.4 g/m*3 8.7 C 0 km/h
1387 20-11-2010 13:32:02 8.5 C 6.32 g/m*3 8.5 C 0 km/h
1388 20-11-2010 13:44:03 9.1 C 6.48 g/m*3 9.1 C 0 km/h
1389 20-11-2010 13:56:02 9.2 C 6.34 g/m*3 9.2 C 0 km/h
1390 20-11-2010 14:08:02 9 C 6.26 g/m*3 9 C 0 km/h
1391 20-11-2010 14:20:01 8.9 C 6.31 g/m*3 8.9 C 0 km/h
1392 20-11-2010 14:32:02 8.8 C 6.35 g/m*3 8.8 C 0 km/h
1393 20-11-2010 14:44:02 8.7 C 6.31 g/m*3 8.7 C 0 km/h
1394 20-11-2010 14:56:02 8.5 C 6.23 g/m*3 8.5 C 0 km/h
1395 20-11-2010 15:08:02 8.3 C 6.15 g/m*3 8.3 C 0 km/h
1396 20-11-2010 15:20:02 8.1 C 6.24 g/m*3 8.1 C 0 km/h
1397 20-11-2010 15:32:02 7.9 C 6.24 g/m*3 7.9 C 0 km/h
1398 20-11-2010 15:44:02 7.6 C 6.2 g/m*3 7.6 C 0 km/h
1399 20-11-2010 15:56:02 6.9 C 6.08 g/m*3 6.9 C 0 km/h
1400 20-11-2010 16:08:02 6.2 C 5.96 g/m*3 6.2 C 0 km/h
Sensor: Nr:Datum:Temp:Abs-Feuchte:Windchill:Wind:
Aussen-T/F 1401 20-11-2010 16:20:02 5.7 C 5.91 g/m*3 5.7 C 0 km/h
1402 20-11-2010 16:32:01 5.2 C 5.78 g/m*3 5.2 C 0 km/h
1403 20-11-2010 16:44:01 4.8 C 5.77 g/m*3 4.8 C 0 km/h
1404 20-11-2010 16:56:02 4.8 C 5.9 g/m*3 4.8 C 0 km/h
1405 20-11-2010 17:08:01 4.6 C 5.82 g/m*3 4.6 C 0 km/h
1406 20-11-2010 17:20:02 4.6 C 5.89 g/m*3 4.6 C 0 km/h
1407 20-11-2010 17:32:02 4.6 C 5.89 g/m*3 4.6 C 0 km/h
1408 20-11-2010 17:44:02 4.7 C 6 g/m*3 4.7 C 0 km/h
1409 20-11-2010 17:56:02 4.5 C 5.92 g/m*3 4.5 C 0 km/h
1410 20-11-2010 18:08:02 4.5 C 5.92 g/m*3 4.5 C 0 km/h
1411 20-11-2010 18:20:02 4.5 C 5.92 g/m*3 4.5 C 0 km/h
1412 20-11-2010 18:32:02 4.4 C 5.88 g/m*3 4.4 C 0 km/h
1413 20-11-2010 18:44:02 4.4 C 5.94 g/m*3 4.4 C 0 km/h
1414 20-11-2010 18:56:01 4.2 C 5.86 g/m*3 4.2 C 0 km/h
1415 20-11-2010 19:08:02 4.4 C 5.94 g/m*3 4.4 C 0 km/h
1416 20-11-2010 19:20:01 3.9 C 5.75 g/m*3 3.9 C 0 km/h
1417 20-11-2010 19:32:02 3.9 C 5.75 g/m*3 3.9 C 0 km/h
1418 20-11-2010 19:44:02 3.8 C 5.71 g/m*3 3.8 C 0 km/h
1419 20-11-2010 19:56:02 3.6 C 5.63 g/m*3 3.6 C 0 km/h
1420 20-11-2010 20:08:02 3.6 C 5.63 g/m*3 3.6 C 0 km/h
1421 20-11-2010 20:20:02 3.5 C 5.66 g/m*3 3.5 C 0 km/h
1422 20-11-2010 20:32:02 3.4 C 5.62 g/m*3 3.4 C 0 km/h
1423 20-11-2010 20:44:03 3.1 C 5.45 g/m*3 3.1 C 0 km/h
1424 20-11-2010 20:56:02 2.8 C 5.4 g/m*3 2.8 C 0 km/h
1425 20-11-2010 21:08:02 2.8 C 5.4 g/m*3 2.8 C 0 km/h
Sensor: Nr:Datum:Temp:Abs-Feuchte:Windchill:Wind:
Aussen-T/F 1426 20-11-2010 21:20:02 2.8 C 5.4 g/m*3 2.8 C 0 km/h
1427 20-11-2010 21:32:02 3.2 C 5.54 g/m*3 3.2 C 0 km/h
1428 20-11-2010 21:44:02 3.6 C 5.69 g/m*3 3.6 C 0 km/h
1429 20-11-2010 21:56:02 3.9 C 5.81 g/m*3 3.9 C 0 km/h
1430 20-11-2010 22:08:03 4.1 C 5.89 g/m*3 4.1 C 0 km/h
1431 20-11-2010 22:20:02 4.3 C 5.97 g/m*3 4.3 C 0 km/h
1432 20-11-2010 22:32:02 4.4 C 6.01 g/m*3 4.4 C 0 km/h
1433 20-11-2010 22:44:02 4.4 C 6.01 g/m*3 4.4 C 0 km/h
1434 20-11-2010 22:56:01 4.4 C 6.01 g/m*3 4.4 C 0 km/h
1435 20-11-2010 23:09:02 4 C 5.85 g/m*3 4 C 0 km/h
1436 20-11-2010 23:21:02 4 C 5.85 g/m*3 4 C 0 km/h
1437 20-11-2010 23:33:02 4.1 C 5.89 g/m*3 4.1 C 0 km/h
1438 20-11-2010 23:45:02 4.3 C 6.03 g/m*3 4.3 C 0 km/h
1439 20-11-2010 23:57:02 4.2 C 5.99 g/m*3 4.2 C 0 km/h
1440 21-11-2010 00:09:02 4.3 C 5.97 g/m*3 4.3 C 0 km/h
1441 21-11-2010 00:21:03 4.3 C 5.97 g/m*3 4.3 C 0 km/h
1442 21-11-2010 00:33:03 4.3 C 5.97 g/m*3 4.3 C 0 km/h
1443 21-11-2010 00:45:03 4.3 C 5.97 g/m*3 4.3 C 0 km/h
1444 21-11-2010 00:57:03 4.4 C 5.94 g/m*3 4.4 C 0 km/h
1445 21-11-2010 01:09:03 4.4 C 5.88 g/m*3 4.4 C 0 km/h
1446 21-11-2010 01:21:03 4.5 C 5.78 g/m*3 4.5 C 0 km/h
1447 21-11-2010 01:33:03 4.5 C 5.72 g/m*3 4.5 C 0 km/h
1448 21-11-2010 01:45:03 4.5 C 5.72 g/m*3 4.5 C 0 km/h
1449 21-11-2010 01:57:03 4.5 C 5.65 g/m*3 4.5 C 0 km/h
1450 21-11-2010 02:09:03 4.5 C 5.59 g/m*3 4.5 C 0 km/h
Sensor: Nr:Datum:Temp:Abs-Feuchte:Windchill:Wind:
Aussen-T/F 1451 21-11-2010 02:21:03 4.4 C 5.48 g/m*3 4.4 C 0 km/h
1452 21-11-2010 02:33:03 4.4 C 5.35 g/m*3 4.4 C 0 km/h
1453 21-11-2010 02:45:03 4.4 C 5.35 g/m*3 4.4 C 0 km/h
1454 21-11-2010 02:57:03 4.5 C 5.39 g/m*3 4.5 C 0 km/h
1455 21-11-2010 03:09:03 4.5 C 5.39 g/m*3 4.5 C 0 km/h
1456 21-11-2010 03:21:03 4.5 C 5.32 g/m*3 4.5 C 0 km/h
1457 21-11-2010 03:33:03 4.4 C 5.29 g/m*3 4.4 C 0 km/h
1458 21-11-2010 03:45:03 4.5 C 5.26 g/m*3 4.5 C 0 km/h
1459 21-11-2010 03:57:03 4.6 C 5.16 g/m*3 4.6 C 0 km/h
1460 21-11-2010 04:09:03 4.6 C 5.16 g/m*3 4.6 C 0 km/h
1461 21-11-2010 04:21:03 4.6 C 5.1 g/m*3 4.6 C 0 km/h
1462 21-11-2010 04:33:03 4.6 C 5.03 g/m*3 4.6 C 0 km/h
1463 21-11-2010 04:45:04 4.5 C 5 g/m*3 4.5 C 0 km/h
1464 21-11-2010 04:57:04 4.5 C 5 g/m*3 4.5 C 0 km/h
1465 21-11-2010 05:09:04 4.5 C 5 g/m*3 4.5 C 0 km/h
1466 21-11-2010 05:21:04 4.6 C 4.96 g/m*3 4.6 C 0 km/h
1467 21-11-2010 05:33:04 4.5 C 4.93 g/m*3 4.5 C 0 km/h
1468 21-11-2010 05:45:04 4.5 C 4.93 g/m*3 4.5 C 0 km/h
1469 21-11-2010 05:57:04 4.4 C 4.9 g/m*3 4.4 C 0 km/h
1470 21-11-2010 06:09:04 4.4 C 4.9 g/m*3 4.4 C 0 km/h
1471 21-11-2010 06:21:04 4.5 C 4.86 g/m*3 4.5 C 0 km/h
1472 21-11-2010 06:33:04 4.4 C 4.9 g/m*3 4.4 C 0 km/h
1473 21-11-2010 06:45:04 4.4 C 4.96 g/m*3 4.4 C 0 km/h
1474 21-11-2010 06:57:04 4.3 C 4.99 g/m*3 4.3 C 0 km/h
1475 21-11-2010 07:09:04 4.3 C 4.99 g/m*3 4.3 C 0 km/h
Sensor: Nr:Datum:Temp:Abs-Feuchte:Windchill:Wind:
Aussen-T/F 1476 21-11-2010 07:21:04 4.4 C 5.03 g/m*3 4.4 C 0 km/h
1477 21-11-2010 07:33:04 4.4 C 5.03 g/m*3 4.4 C 0 km/h
1478 21-11-2010 07:45:04 4.4 C 5.09 g/m*3 4.4 C 0 km/h
1479 21-11-2010 07:57:04 4.4 C 5.09 g/m*3 4.4 C 0 km/h
1480 21-11-2010 08:09:04 4.5 C 5.19 g/m*3 4.5 C 0 km/h
1481 21-11-2010 08:21:04 4.6 C 5.23 g/m*3 4.6 C 0 km/h
1482 21-11-2010 08:33:04 4.7 C 5.13 g/m*3 4.7 C 0 km/h
1483 21-11-2010 08:45:04 4.8 C 5.1 g/m*3 4.8 C 0 km/h
1484 21-11-2010 08:57:04 4.9 C 5.06 g/m*3 4.9 C 0 km/h
1485 21-11-2010 09:09:05 5.1 C 4.99 g/m*3 5.1 C 0 km/h
1486 21-11-2010 09:21:05 5.1 C 4.92 g/m*3 5.1 C 0 km/h
1487 21-11-2010 09:33:02 5 C 4.89 g/m*3 5 C 0 km/h
1488 21-11-2010 09:45:02 4.9 C 4.86 g/m*3 4.9 C 0 km/h
1489 21-11-2010 09:57:02 4.9 C 4.93 g/m*3 4.9 C 0 km/h
1490 21-11-2010 10:09:02 5 C 4.89 g/m*3 5 C 0 km/h
1491 21-11-2010 10:21:02 5.2 C 4.82 g/m*3 5.2 C 0 km/h
1492 21-11-2010 10:33:02 5.4 C 4.81 g/m*3 5.4 C 0 km/h
1493 21-11-2010 10:45:01 5.6 C 4.81 g/m*3 5.6 C 0 km/h
1494 21-11-2010 10:57:01 5.6 C 4.74 g/m*3 5.6 C 0 km/h
1495 21-11-2010 11:09:01 5.6 C 4.67 g/m*3 5.6 C 0 km/h
1496 21-11-2010 11:21:02 5.3 C 4.64 g/m*3 5.3 C 0 km/h
1497 21-11-2010 11:33:01 5.1 C 4.58 g/m*3 5.1 C 0 km/h
1498 21-11-2010 11:45:03 5.2 C 4.61 g/m*3 5.2 C 0 km/h
1499 21-11-2010 11:57:03 5.3 C 4.64 g/m*3 5.3 C 0 km/h
1500 21-11-2010 12:09:02 5.1 C 4.58 g/m*3 5.1 C 0 km/h
Sensor: Nr:Datum:Temp:Abs-Feuchte:Windchill:Wind:
Aussen-T/F 1501 21-11-2010 12:21:02 5 C 4.55 g/m*3 5 C 0 km/h
1502 21-11-2010 12:33:02 5 C 4.48 g/m*3 5 C 0 km/h
1503 21-11-2010 12:45:02 5.1 C 4.51 g/m*3 5.1 C 0 km/h
1504 21-11-2010 12:57:02 5.3 C 4.51 g/m*3 5.3 C 0 km/h
1505 21-11-2010 13:09:02 5.3 C 4.51 g/m*3 5.3 C 0 km/h
1506 21-11-2010 13:21:02 5.1 C 4.45 g/m*3 5.1 C 0 km/h
1507 21-11-2010 13:33:02 5.1 C 4.45 g/m*3 5.1 C 0 km/h
1508 21-11-2010 13:45:02 5.1 C 4.45 g/m*3 5.1 C 0 km/h
1509 21-11-2010 13:57:02 5 C 4.42 g/m*3 5 C 0 km/h
1510 21-11-2010 14:09:02 5 C 4.42 g/m*3 5 C 0 km/h
1511 21-11-2010 14:21:01 4.9 C 4.46 g/m*3 4.9 C 0 km/h
1512 21-11-2010 14:33:02 4.9 C 4.46 g/m*3 4.9 C 0 km/h
1513 21-11-2010 14:45:02 4.8 C 4.43 g/m*3 4.8 C 0 km/h
1514 21-11-2010 14:57:02 4.8 C 4.36 g/m*3 4.8 C 0 km/h
1515 21-11-2010 15:09:02 4.6 C 4.3 g/m*3 4.6 C 0 km/h
1516 21-11-2010 15:21:01 4.5 C 4.27 g/m*3 4.5 C 0 km/h
1517 21-11-2010 15:33:02 4.4 C 4.24 g/m*3 4.4 C 0 km/h
1518 21-11-2010 15:45:02 4.4 C 4.31 g/m*3 4.4 C 0 km/h
1519 21-11-2010 15:57:02 4.3 C 4.28 g/m*3 4.3 C 0 km/h
1520 21-11-2010 16:09:02 4.3 C 4.28 g/m*3 4.3 C 0 km/h
1521 21-11-2010 16:21:02 4.2 C 4.32 g/m*3 4.2 C 0 km/h
1522 21-11-2010 16:33:02 4.2 C 4.45 g/m*3 4.2 C 0 km/h
1523 21-11-2010 16:45:02 4.1 C 4.42 g/m*3 4.1 C 0 km/h
1524 21-11-2010 16:57:02 4 C 4.45 g/m*3 4 C 0 km/h
1525 21-11-2010 17:09:02 3.9 C 4.48 g/m*3 3.9 C 0 km/h
Sensor: Nr:Datum:Temp:Abs-Feuchte:Windchill:Wind:
Aussen-T/F 1526 21-11-2010 17:21:02 3.9 C 4.55 g/m*3 3.9 C 0 km/h
1527 21-11-2010 17:33:02 4 C 4.51 g/m*3 4 C 0 km/h
1528 21-11-2010 17:45:02 4 C 4.45 g/m*3 4 C 0 km/h
1529 21-11-2010 17:57:02 4 C 4.51 g/m*3 4 C 0 km/h
1530 21-11-2010 18:09:01 4 C 4.51 g/m*3 4 C 0 km/h
1531 21-11-2010 18:21:02 4 C 4.51 g/m*3 4 C 0 km/h
1532 21-11-2010 18:33:02 4 C 4.51 g/m*3 4 C 0 km/h
1533 21-11-2010 18:45:02 3.9 C 4.61 g/m*3 3.9 C 0 km/h
1534 21-11-2010 18:57:02 3.9 C 4.67 g/m*3 3.9 C 0 km/h
1535 21-11-2010 19:09:03 3.9 C 4.67 g/m*3 3.9 C 0 km/h
1536 21-11-2010 19:21:02 4 C 4.64 g/m*3 4 C 0 km/h
1537 21-11-2010 19:33:02 4.1 C 4.61 g/m*3 4.1 C 0 km/h
1538 21-11-2010 19:45:02 4.1 C 4.54 g/m*3 4.1 C 0 km/h
1539 21-11-2010 19:57:02 4.2 C 4.57 g/m*3 4.2 C 0 km/h
1540 21-11-2010 20:09:02 4.3 C 4.61 g/m*3 4.3 C 0 km/h
1541 21-11-2010 20:21:02 4.3 C 4.61 g/m*3 4.3 C 0 km/h
1542 21-11-2010 20:33:02 4.3 C 4.54 g/m*3 4.3 C 0 km/h
1543 21-11-2010 20:45:02 4.3 C 4.54 g/m*3 4.3 C 0 km/h
1544 21-11-2010 20:57:02 4.3 C 4.48 g/m*3 4.3 C 0 km/h
1545 21-11-2010 21:09:03 4.3 C 4.48 g/m*3 4.3 C 0 km/h
1546 21-11-2010 21:21:02 4.3 C 4.48 g/m*3 4.3 C 0 km/h
1547 21-11-2010 21:33:03 4.1 C 4.48 g/m*3 4.1 C 0 km/h
1548 21-11-2010 21:45:02 4 C 4.51 g/m*3 4 C 0 km/h
1549 21-11-2010 21:57:03 4.1 C 4.54 g/m*3 4.1 C 0 km/h
1550 21-11-2010 22:09:02 3.9 C 4.55 g/m*3 3.9 C 0 km/h
Sensor: Nr:Datum:Temp:Abs-Feuchte:Windchill:Wind:
Aussen-T/F 1551 21-11-2010 22:21:02 3.7 C 4.61 g/m*3 3.7 C 0 km/h
1552 21-11-2010 22:33:01 3.8 C 4.71 g/m*3 3.8 C 0 km/h
1553 21-11-2010 22:45:02 3.7 C 4.74 g/m*3 3.7 C 0 km/h
1554 21-11-2010 22:57:02 3.7 C 4.67 g/m*3 3.7 C 0 km/h
1555 21-11-2010 23:10:04 3.7 C 4.74 g/m*3 3.7 C 0 km/h
1556 21-11-2010 23:22:04 3.7 C 4.8 g/m*3 3.7 C 0 km/h
1557 21-11-2010 23:34:04 3.8 C 4.83 g/m*3 3.8 C 0 km/h
1558 21-11-2010 23:46:04 3.8 C 4.83 g/m*3 3.8 C 0 km/h
1559 21-11-2010 23:58:04 3.8 C 4.83 g/m*3 3.8 C 0 km/h
1560 22-11-2010 00:10:04 3.9 C 4.93 g/m*3 3.9 C 0 km/h
1561 22-11-2010 00:22:04 4.1 C 4.93 g/m*3 4.1 C 0 km/h
1562 22-11-2010 00:34:04 4.1 C 4.93 g/m*3 4.1 C 0 km/h
1563 22-11-2010 00:46:04 4.1 C 4.93 g/m*3 4.1 C 0 km/h
1564 22-11-2010 00:58:04 4.1 C 4.93 g/m*3 4.1 C 0 km/h
1565 22-11-2010 01:10:04 4.1 C 4.93 g/m*3 4.1 C 0 km/h
1566 22-11-2010 01:22:04 4.1 C 4.93 g/m*3 4.1 C 0 km/h
1567 22-11-2010 01:34:04 4.1 C 4.93 g/m*3 4.1 C 0 km/h
1568 22-11-2010 01:46:04 4.1 C 4.93 g/m*3 4.1 C 0 km/h
1569 22-11-2010 01:58:04 4 C 4.9 g/m*3 4 C 0 km/h
1570 22-11-2010 02:10:04 4.1 C 4.93 g/m*3 4.1 C 0 km/h
1571 22-11-2010 02:22:04 4.1 C 4.93 g/m*3 4.1 C 0 km/h
1572 22-11-2010 02:34:04 4.2 C 5.03 g/m*3 4.2 C 0 km/h
1573 22-11-2010 02:46:04 4.2 C 4.96 g/m*3 4.2 C 0 km/h
1574 22-11-2010 02:58:04 4.2 C 5.03 g/m*3 4.2 C 0 km/h
1575 22-11-2010 03:10:04 4.2 C 5.03 g/m*3 4.2 C 0 km/h
Sensor: Nr:Datum:Temp:Abs-Feuchte:Windchill:Wind:
Aussen-T/F 1576 22-11-2010 03:22:05 4.3 C 5.06 g/m*3 4.3 C 0 km/h
1577 22-11-2010 03:34:05 4.4 C 5.09 g/m*3 4.4 C 0 km/h
1578 22-11-2010 03:46:05 4.6 C 5.1 g/m*3 4.6 C 0 km/h
1579 22-11-2010 03:58:05 4.8 C 5.03 g/m*3 4.8 C 0 km/h
1580 22-11-2010 04:10:05 4.9 C 5 g/m*3 4.9 C 0 km/h
1581 22-11-2010 04:22:05 4.9 C 5 g/m*3 4.9 C 0 km/h
1582 22-11-2010 04:34:05 4.9 C 5 g/m*3 4.9 C 0 km/h
1583 22-11-2010 04:46:05 4.8 C 5.03 g/m*3 4.8 C 0 km/h
1584 22-11-2010 04:58:05 4.8 C 5.03 g/m*3 4.8 C 0 km/h
1585 22-11-2010 05:10:05 4.9 C 5 g/m*3 4.9 C 0 km/h
1586 22-11-2010 05:22:05 4.9 C 5 g/m*3 4.9 C 0 km/h
1587 22-11-2010 05:34:05 4.9 C 4.93 g/m*3 4.9 C 0 km/h
1588 22-11-2010 05:46:05 4.9 C 4.93 g/m*3 4.9 C 0 km/h
1589 22-11-2010 05:58:05 4.8 C 4.9 g/m*3 4.8 C 0 km/h
1590 22-11-2010 06:10:05 4.7 C 4.86 g/m*3 4.7 C 0 km/h
1591 22-11-2010 06:22:05 4.7 C 4.86 g/m*3 4.7 C 0 km/h
1592 22-11-2010 06:34:05 4.7 C 4.86 g/m*3 4.7 C 0 km/h
1593 22-11-2010 06:46:05 4.7 C 4.86 g/m*3 4.7 C 0 km/h
1594 22-11-2010 06:58:05 4.7 C 4.86 g/m*3 4.7 C 0 km/h
1595 22-11-2010 07:10:05 4.7 C 4.86 g/m*3 4.7 C 0 km/h
1596 22-11-2010 07:22:03 4.7 C 4.8 g/m*3 4.7 C 0 km/h
1597 22-11-2010 07:34:04 4.6 C 4.76 g/m*3 4.6 C 0 km/h
1598 22-11-2010 07:46:02 4.6 C 4.76 g/m*3 4.6 C 0 km/h
1599 22-11-2010 07:58:02 4.6 C 4.76 g/m*3 4.6 C 0 km/h
1600 22-11-2010 08:10:02 4.6 C 4.83 g/m*3 4.6 C 0 km/h
Sensor: Nr:Datum:Temp:Abs-Feuchte:Windchill:Wind:
Aussen-T/F 1601 22-11-2010 08:22:02 4.6 C 4.83 g/m*3 4.6 C 0 km/h
1602 22-11-2010 08:34:02 4.6 C 4.76 g/m*3 4.6 C 0 km/h
1603 22-11-2010 08:46:02 4.7 C 4.8 g/m*3 4.7 C 0 km/h
1604 22-11-2010 08:58:02 4.7 C 4.8 g/m*3 4.7 C 0 km/h
1605 22-11-2010 09:10:02 4.7 C 4.8 g/m*3 4.7 C 0 km/h
1606 22-11-2010 09:22:02 4.7 C 4.8 g/m*3 4.7 C 0 km/h
1607 22-11-2010 09:34:02 4.7 C 4.8 g/m*3 4.7 C 0 km/h
1608 22-11-2010 09:46:01 4.8 C 4.83 g/m*3 4.8 C 0 km/h
1609 22-11-2010 09:58:01 4.8 C 4.83 g/m*3 4.8 C 0 km/h
1610 22-11-2010 10:10:02 4.9 C 4.86 g/m*3 4.9 C 0 km/h
1611 22-11-2010 10:22:01 4.9 C 4.86 g/m*3 4.9 C 0 km/h
1612 22-11-2010 10:34:01 4.8 C 4.83 g/m*3 4.8 C 0 km/h
1613 22-11-2010 10:46:01 4.8 C 4.9 g/m*3 4.8 C 0 km/h
1614 22-11-2010 10:58:01 4.7 C 4.86 g/m*3 4.7 C 0 km/h
1615 22-11-2010 11:10:02 4.7 C 4.86 g/m*3 4.7 C 0 km/h
1616 22-11-2010 11:22:01 4.6 C 4.9 g/m*3 4.6 C 0 km/h
1617 22-11-2010 11:34:01 4.5 C 4.93 g/m*3 4.5 C 0 km/h
1618 22-11-2010 11:46:01 4.3 C 4.99 g/m*3 4.3 C 0 km/h
1619 22-11-2010 11:58:01 4.3 C 5.06 g/m*3 4.3 C 0 km/h
1620 22-11-2010 12:10:01 4.3 C 5.19 g/m*3 4.3 C 0 km/h
1621 22-11-2010 12:22:02 4.2 C 5.15 g/m*3 4.2 C 0 km/h
1622 22-11-2010 12:34:01 4.2 C 5.22 g/m*3 4.2 C 0 km/h
1623 22-11-2010 12:46:02 4.1 C 5.18 g/m*3 4.1 C 0 km/h
1624 22-11-2010 12:58:02 4.2 C 5.28 g/m*3 4.2 C 0 km/h
1625 22-11-2010 13:10:02 4.2 C 5.35 g/m*3 4.2 C 0 km/h
Sensor: Nr:Datum:Temp:Abs-Feuchte:Windchill:Wind:
Aussen-T/F 1626 22-11-2010 13:22:02 4.2 C 5.35 g/m*3 4.2 C 0 km/h
1627 22-11-2010 13:34:01 4.2 C 5.41 g/m*3 4.2 C 0 km/h
1628 22-11-2010 13:46:02 4.2 C 5.35 g/m*3 4.2 C 0 km/h
1629 22-11-2010 13:58:02 4.4 C 5.42 g/m*3 4.4 C 0 km/h
1630 22-11-2010 14:10:01 4.5 C 5.39 g/m*3 4.5 C 0 km/h
1631 22-11-2010 14:22:02 4.6 C 5.29 g/m*3 4.6 C 0 km/h
1632 22-11-2010 14:34:02 4.8 C 5.3 g/m*3 4.8 C 0 km/h
1633 22-11-2010 14:46:02 5 C 5.23 g/m*3 5 C 0 km/h
1634 22-11-2010 14:58:02 5 C 5.03 g/m*3 5 C 0 km/h
1635 22-11-2010 15:10:02 5 C 5.03 g/m*3 5 C 0 km/h
1636 22-11-2010 15:22:02 5 C 5.03 g/m*3 5 C 0 km/h
1637 22-11-2010 15:34:02 4.9 C 5.06 g/m*3 4.9 C 0 km/h
1638 22-11-2010 15:46:02 4.8 C 5.03 g/m*3 4.8 C 0 km/h
1639 22-11-2010 15:58:02 4.8 C 4.96 g/m*3 4.8 C 0 km/h
1640 22-11-2010 16:10:02 4.6 C 4.9 g/m*3 4.6 C 0 km/h
1641 22-11-2010 16:22:02 4.5 C 4.86 g/m*3 4.5 C 0 km/h
1642 22-11-2010 16:34:02 4.3 C 4.86 g/m*3 4.3 C 0 km/h
1643 22-11-2010 16:46:02 4.2 C 4.96 g/m*3 4.2 C 0 km/h
1644 22-11-2010 16:58:02 4 C 4.96 g/m*3 4 C 0 km/h
1645 22-11-2010 17:10:02 4 C 4.96 g/m*3 4 C 0 km/h
1646 22-11-2010 17:22:02 3.9 C 4.99 g/m*3 3.9 C 0 km/h
1647 22-11-2010 17:34:02 4 C 5.02 g/m*3 4 C 0 km/h
1648 22-11-2010 17:46:02 4.1 C 4.99 g/m*3 4.1 C 0 km/h
1649 22-11-2010 17:58:02 4.2 C 4.96 g/m*3 4.2 C 0 km/h
1650 22-11-2010 18:10:02 4.2 C 4.96 g/m*3 4.2 C 0 km/h
Sensor: Nr:Datum:Temp:Abs-Feuchte:Windchill:Wind:
Aussen-T/F 1651 22-11-2010 18:22:02 4.3 C 4.99 g/m*3 4.3 C 0 km/h
1652 22-11-2010 18:34:01 4.3 C 4.93 g/m*3 4.3 C 0 km/h
1653 22-11-2010 18:46:02 4.3 C 4.93 g/m*3 4.3 C 0 km/h
1654 22-11-2010 18:58:02 4.3 C 4.93 g/m*3 4.3 C 0 km/h
1655 22-11-2010 19:10:01 4.4 C 4.96 g/m*3 4.4 C 0 km/h
1656 22-11-2010 19:22:02 4.4 C 4.9 g/m*3 4.4 C 0 km/h
1657 22-11-2010 19:34:02 4.4 C 4.9 g/m*3 4.4 C 0 km/h
1658 22-11-2010 19:46:02 4.4 C 4.83 g/m*3 4.4 C 0 km/h
1659 22-11-2010 19:58:02 4.3 C 4.8 g/m*3 4.3 C 0 km/h
1660 22-11-2010 20:10:02 4.4 C 4.83 g/m*3 4.4 C 0 km/h
1661 22-11-2010 20:22:02 4.4 C 4.83 g/m*3 4.4 C 0 km/h
1662 22-11-2010 20:34:02 4.4 C 4.77 g/m*3 4.4 C 0 km/h
1663 22-11-2010 20:46:01 4.4 C 4.77 g/m*3 4.4 C 0 km/h
1664 22-11-2010 20:58:01 4.5 C 4.8 g/m*3 4.5 C 0 km/h
1665 22-11-2010 21:10:02 4.4 C 4.77 g/m*3 4.4 C 0 km/h
1666 22-11-2010 21:22:01 4.4 C 4.83 g/m*3 4.4 C 0 km/h
1667 22-11-2010 21:34:02 4.4 C 4.83 g/m*3 4.4 C 0 km/h
1668 22-11-2010 21:46:01 4.4 C 4.83 g/m*3 4.4 C 0 km/h
1669 22-11-2010 21:58:01 4.4 C 4.83 g/m*3 4.4 C 0 km/h
1670 22-11-2010 22:10:02 4.5 C 4.86 g/m*3 4.5 C 0 km/h
1671 22-11-2010 22:22:02 4.5 C 4.86 g/m*3 4.5 C 0 km/h
1672 22-11-2010 22:34:01 4.5 C 4.93 g/m*3 4.5 C 0 km/h
1673 22-11-2010 22:47:03 4.5 C 4.86 g/m*3 4.5 C 0 km/h
1674 22-11-2010 22:59:03 4.5 C 4.93 g/m*3 4.5 C 0 km/h
1675 22-11-2010 23:11:03 4.4 C 4.9 g/m*3 4.4 C 0 km/h
Sensor: Nr:Datum:Temp:Abs-Feuchte:Windchill:Wind:
Aussen-T/F 1676 22-11-2010 23:23:03 4.5 C 4.93 g/m*3 4.5 C 0 km/h
1677 22-11-2010 23:35:03 4.4 C 4.96 g/m*3 4.4 C 0 km/h
1678 22-11-2010 23:47:04 4.3 C 4.93 g/m*3 4.3 C 0 km/h
1679 22-11-2010 23:59:04 4.4 C 4.96 g/m*3 4.4 C 0 km/h
1680 23-11-2010 00:11:04 4.4 C 4.96 g/m*3 4.4 C 0 km/h
1681 23-11-2010 00:23:04 4.4 C 4.96 g/m*3 4.4 C 0 km/h
1682 23-11-2010 00:35:04 4.5 C 4.93 g/m*3 4.5 C 0 km/h
1683 23-11-2010 00:47:04 4.5 C 4.93 g/m*3 4.5 C 0 km/h
1684 23-11-2010 00:59:04 4.4 C 4.9 g/m*3 4.4 C 0 km/h
1685 23-11-2010 01:11:04 4.5 C 4.93 g/m*3 4.5 C 0 km/h
1686 23-11-2010 01:23:04 4.5 C 4.86 g/m*3 4.5 C 0 km/h
1687 23-11-2010 01:35:04 4.5 C 4.86 g/m*3 4.5 C 0 km/h
1688 23-11-2010 01:47:04 4.4 C 4.83 g/m*3 4.4 C 0 km/h
1689 23-11-2010 01:59:04 4.4 C 4.77 g/m*3 4.4 C 0 km/h
1690 23-11-2010 02:11:04 4.3 C 4.74 g/m*3 4.3 C 0 km/h
1691 23-11-2010 02:23:04 4.3 C 4.8 g/m*3 4.3 C 0 km/h
1692 23-11-2010 02:35:04 4.3 C 4.61 g/m*3 4.3 C 0 km/h
1693 23-11-2010 02:47:04 4.2 C 4.51 g/m*3 4.2 C 0 km/h
1694 23-11-2010 02:59:04 4.2 C 4.45 g/m*3 4.2 C 0 km/h
1695 23-11-2010 03:11:04 4.2 C 4.45 g/m*3 4.2 C 0 km/h
1696 23-11-2010 03:23:04 4.1 C 4.42 g/m*3 4.1 C 0 km/h
1697 23-11-2010 03:35:04 4.2 C 4.38 g/m*3 4.2 C 0 km/h
1698 23-11-2010 03:47:04 4 C 4.39 g/m*3 4 C 0 km/h
1699 23-11-2010 03:59:04 3.9 C 4.48 g/m*3 3.9 C 0 km/h
1700 23-11-2010 04:11:04 3.8 C 4.39 g/m*3 3.8 C 0 km/h
Sensor: Nr:Datum:Temp:Abs-Feuchte:Windchill:Wind:
Aussen-T/F 1701 23-11-2010 04:23:05 3.8 C 4.45 g/m*3 3.8 C 0 km/h
1702 23-11-2010 04:35:05 3.7 C 4.55 g/m*3 3.7 C 0 km/h
1703 23-11-2010 04:47:05 3.6 C 4.58 g/m*3 3.6 C 0 km/h
1704 23-11-2010 04:59:05 3.5 C 4.61 g/m*3 3.5 C 0 km/h
1705 23-11-2010 05:11:05 3.5 C 4.55 g/m*3 3.5 C 0 km/h
1706 23-11-2010 05:23:05 3.5 C 4.61 g/m*3 3.5 C 0 km/h
1707 23-11-2010 05:35:05 3.4 C 4.58 g/m*3 3.4 C 0 km/h
1708 23-11-2010 05:47:05 2.9 C 4.67 g/m*3 2.9 C 0 km/h
1709 23-11-2010 05:59:05 2.7 C 4.84 g/m*3 2.7 C 0 km/h
1710 23-11-2010 06:11:05 2.6 C 4.92 g/m*3 2.6 C 0 km/h
1711 23-11-2010 06:23:05 2.7 C 4.95 g/m*3 2.7 C 0 km/h
1712 23-11-2010 06:35:05 2.6 C 5.03 g/m*3 2.6 C 0 km/h
1713 23-11-2010 06:47:05 2.7 C 5.07 g/m*3 2.7 C 0 km/h
1714 23-11-2010 06:59:05 2.7 C 5.07 g/m*3 2.7 C 0 km/h
1715 23-11-2010 07:11:05 2.6 C 5.09 g/m*3 2.6 C 0 km/h
1716 23-11-2010 07:23:02 2.8 C 5.16 g/m*3 2.8 C 0 km/h
1717 23-11-2010 07:35:03 3.1 C 5.09 g/m*3 3.1 C 0 km/h
1718 23-11-2010 07:47:02 3.2 C 5.06 g/m*3 3.2 C 0 km/h
1719 23-11-2010 07:59:02 3.1 C 4.97 g/m*3 3.1 C 0 km/h
1720 23-11-2010 08:11:02 3.1 C 4.91 g/m*3 3.1 C 0 km/h
1721 23-11-2010 08:23:01 3 C 4.88 g/m*3 3 C 0 km/h
1722 23-11-2010 08:35:02 3.1 C 4.97 g/m*3 3.1 C 0 km/h
1723 23-11-2010 08:47:02 3.3 C 4.85 g/m*3 3.3 C 0 km/h
1724 23-11-2010 08:59:02 3.4 C 4.83 g/m*3 3.4 C 0 km/h
1725 23-11-2010 09:11:03 3.6 C 4.77 g/m*3 3.6 C 0 km/h
Sensor: Nr:Datum:Temp:Abs-Feuchte:Windchill:Wind:
Aussen-T/F 1726 23-11-2010 09:23:02 3.7 C 4.74 g/m*3 3.7 C 0 km/h
1727 23-11-2010 09:35:02 3.6 C 4.77 g/m*3 3.6 C 0 km/h
1728 23-11-2010 09:47:01 3.7 C 4.8 g/m*3 3.7 C 0 km/h
1729 23-11-2010 09:59:01 3.8 C 4.71 g/m*3 3.8 C 0 km/h
1730 23-11-2010 10:11:02 4 C 4.64 g/m*3 4 C 0 km/h
1731 23-11-2010 10:23:01 4.1 C 4.61 g/m*3 4.1 C 0 km/h
1732 23-11-2010 10:35:01 4.3 C 4.54 g/m*3 4.3 C 0 km/h
1733 23-11-2010 10:47:01 4.4 C 4.57 g/m*3 4.4 C 0 km/h
1734 23-11-2010 10:59:01 4.5 C 4.54 g/m*3 4.5 C 0 km/h
1735 23-11-2010 11:11:02 4.4 C 4.57 g/m*3 4.4 C 0 km/h
1736 23-11-2010 11:23:02 4.7 C 4.73 g/m*3 4.7 C 0 km/h
1737 23-11-2010 11:35:01 4.8 C 4.76 g/m*3 4.8 C 0 km/h
1738 23-11-2010 11:47:01 4.9 C 4.66 g/m*3 4.9 C 0 km/h
1739 23-11-2010 11:59:01 4.8 C 4.56 g/m*3 4.8 C 0 km/h
1740 23-11-2010 12:11:01 5.2 C 4.61 g/m*3 5.2 C 0 km/h
1741 23-11-2010 12:23:01 5.2 C 4.48 g/m*3 5.2 C 0 km/h
1742 23-11-2010 12:35:01 5.1 C 4.38 g/m*3 5.1 C 0 km/h
1743 23-11-2010 12:47:01 5.4 C 4.47 g/m*3 5.4 C 0 km/h
1744 23-11-2010 12:59:01 5.5 C 4.42 g/m*3 5.5 C 0 km/h
1745 23-11-2010 13:11:02 5.8 C 4.44 g/m*3 5.8 C 0 km/h
1746 23-11-2010 13:23:01 6 C 4.43 g/m*3 6 C 0 km/h
1747 23-11-2010 13:35:02 6.2 C 4.34 g/m*3 6.2 C 0 km/h
1748 23-11-2010 13:47:01 6.1 C 4.31 g/m*3 6.1 C 0 km/h
1749 23-11-2010 13:59:01 6.1 C 4.31 g/m*3 6.1 C 0 km/h
1750 23-11-2010 14:11:02 5.9 C 4.25 g/m*3 5.9 C 0 km/h
Sensor: Nr:Datum:Temp:Abs-Feuchte:Windchill:Wind:
Aussen-T/F 1751 23-11-2010 14:23:01 5.8 C 4.23 g/m*3 5.8 C 0 km/h
1752 23-11-2010 14:35:02 5.7 C 4.27 g/m*3 5.7 C 0 km/h
1753 23-11-2010 14:47:01 5.7 C 4.27 g/m*3 5.7 C 0 km/h
1754 23-11-2010 14:59:01 5.6 C 4.24 g/m*3 5.6 C 0 km/h
1755 23-11-2010 15:11:02 5.7 C 4.2 g/m*3 5.7 C 0 km/h
1756 23-11-2010 15:23:02 5.6 C 4.17 g/m*3 5.6 C 0 km/h
1757 23-11-2010 15:35:01 5.6 C 4.24 g/m*3 5.6 C 0 km/h
1758 23-11-2010 15:47:02 5.5 C 4.28 g/m*3 5.5 C 0 km/h
1759 23-11-2010 15:59:02 5.3 C 4.37 g/m*3 5.3 C 0 km/h
1760 23-11-2010 16:11:01 5.3 C 4.44 g/m*3 5.3 C 0 km/h
1761 23-11-2010 16:23:02 5.4 C 4.47 g/m*3 5.4 C 0 km/h
1762 23-11-2010 16:35:01 5.4 C 4.47 g/m*3 5.4 C 0 km/h
1763 23-11-2010 16:47:03 5.5 C 4.49 g/m*3 5.5 C 0 km/h
1764 23-11-2010 16:59:03 5.3 C 4.51 g/m*3 5.3 C 0 km/h
1765 23-11-2010 17:11:02 5.3 C 4.51 g/m*3 5.3 C 0 km/h
1766 23-11-2010 17:23:02 5.3 C 4.51 g/m*3 5.3 C 0 km/h
1767 23-11-2010 17:35:02 5.3 C 4.44 g/m*3 5.3 C 0 km/h
1768 23-11-2010 17:47:02 5.4 C 4.4 g/m*3 5.4 C 0 km/h
1769 23-11-2010 17:59:03 5.3 C 4.44 g/m*3 5.3 C 0 km/h
1770 23-11-2010 18:11:01 5.2 C 4.48 g/m*3 5.2 C 0 km/h
1771 23-11-2010 18:23:02 5.4 C 4.47 g/m*3 5.4 C 0 km/h
1772 23-11-2010 18:35:02 5.2 C 4.41 g/m*3 5.2 C 0 km/h
1773 23-11-2010 18:47:02 5.4 C 4.33 g/m*3 5.4 C 0 km/h
1774 23-11-2010 18:59:02 5.2 C 4.41 g/m*3 5.2 C 0 km/h
1775 23-11-2010 19:11:03 5.2 C 4.48 g/m*3 5.2 C 0 km/h
Sensor: Nr:Datum:Temp:Abs-Feuchte:Windchill:Wind:
Aussen-T/F 1776 23-11-2010 19:23:02 5.3 C 4.51 g/m*3 5.3 C 0 km/h
1777 23-11-2010 19:35:02 5.2 C 4.48 g/m*3 5.2 C 0 km/h
1778 23-11-2010 19:47:01 5.1 C 4.51 g/m*3 5.1 C 0 km/h
1779 23-11-2010 19:59:01 5.2 C 4.54 g/m*3 5.2 C 0 km/h
1780 23-11-2010 20:11:02 5 C 4.48 g/m*3 5 C 0 km/h
1781 23-11-2010 20:23:01 5.2 C 4.48 g/m*3 5.2 C 0 km/h
1782 23-11-2010 20:35:02 5.2 C 4.41 g/m*3 5.2 C 0 km/h
1783 23-11-2010 20:47:01 5.2 C 4.34 g/m*3 5.2 C 0 km/h
1784 23-11-2010 20:59:01 5.1 C 4.58 g/m*3 5.1 C 0 km/h
1785 23-11-2010 21:11:02 4.8 C 4.49 g/m*3 4.8 C 0 km/h
1786 23-11-2010 21:23:01 5.1 C 4.31 g/m*3 5.1 C 0 km/h
1787 23-11-2010 21:35:02 5 C 4.28 g/m*3 5 C 0 km/h
1788 23-11-2010 21:47:01 5 C 4.28 g/m*3 5 C 0 km/h
1789 23-11-2010 21:59:01 5 C 4.28 g/m*3 5 C 0 km/h
1790 23-11-2010 22:12:03 5 C 4.28 g/m*3 5 C 0 km/h
1791 23-11-2010 22:24:03 5 C 4.28 g/m*3 5 C 0 km/h
1792 23-11-2010 22:36:03 4.9 C 4.39 g/m*3 4.9 C 0 km/h
1793 23-11-2010 22:48:03 4.9 C 4.39 g/m*3 4.9 C 0 km/h
1794 23-11-2010 23:00:03 4.8 C 4.36 g/m*3 4.8 C 0 km/h
1795 23-11-2010 23:12:03 4.8 C 4.36 g/m*3 4.8 C 0 km/h
1796 23-11-2010 23:24:03 4.6 C 4.37 g/m*3 4.6 C 0 km/h
1797 23-11-2010 23:36:03 4.6 C 4.43 g/m*3 4.6 C 0 km/h
1798 23-11-2010 23:48:03 4.4 C 4.44 g/m*3 4.4 C 0 km/h
1799 24-11-2010 00:00:03 4.2 C 4.45 g/m*3 4.2 C 0 km/h
1800 24-11-2010 00:12:03 4.4 C 4.51 g/m*3 4.4 C 0 km/h
Sensor: Nr:Datum:Temp:Abs-Feuchte:Windchill:Wind:
Aussen-T/F 1801 24-11-2010 00:24:03 4.4 C 4.44 g/m*3 4.4 C 0 km/h
1802 24-11-2010 00:36:03 4.3 C 4.41 g/m*3 4.3 C 0 km/h
1803 24-11-2010 00:48:04 4.3 C 4.41 g/m*3 4.3 C 0 km/h
1804 24-11-2010 01:00:04 4.3 C 4.41 g/m*3 4.3 C 0 km/h
1805 24-11-2010 01:12:04 4.3 C 4.41 g/m*3 4.3 C 0 km/h
1806 24-11-2010 01:24:04 3.6 C 4.39 g/m*3 3.6 C 0 km/h
1807 24-11-2010 01:36:04 3.6 C 4.52 g/m*3 3.6 C 0 km/h
1808 24-11-2010 01:48:04 4 C 4.58 g/m*3 4 C 0 km/h
1809 24-11-2010 02:00:04 3.5 C 4.49 g/m*3 3.5 C 0 km/h
1810 24-11-2010 02:12:04 3.4 C 4.52 g/m*3 3.4 C 0 km/h
1811 24-11-2010 02:24:04 3.5 C 4.55 g/m*3 3.5 C 0 km/h
1812 24-11-2010 02:36:04 3.3 C 4.43 g/m*3 3.3 C 0 km/h
1813 24-11-2010 02:48:04 3.4 C 4.52 g/m*3 3.4 C 0 km/h
1814 24-11-2010 03:00:04 3.5 C 4.49 g/m*3 3.5 C 0 km/h
1815 24-11-2010 03:12:04 3.5 C 4.61 g/m*3 3.5 C 0 km/h
1816 24-11-2010 03:24:04 3.5 C 4.61 g/m*3 3.5 C 0 km/h
1817 24-11-2010 03:36:04 3.5 C 4.67 g/m*3 3.5 C 0 km/h
1818 24-11-2010 03:48:04 3.6 C 4.7 g/m*3 3.6 C 0 km/h
1819 24-11-2010 04:00:04 3.6 C 4.7 g/m*3 3.6 C 0 km/h
1820 24-11-2010 04:12:04 3.5 C 4.67 g/m*3 3.5 C 0 km/h
1821 24-11-2010 04:24:04 3.5 C 4.73 g/m*3 3.5 C 0 km/h
1822 24-11-2010 04:36:04 3.4 C 4.7 g/m*3 3.4 C 0 km/h
1823 24-11-2010 04:48:05 3.3 C 4.79 g/m*3 3.3 C 0 km/h
1824 24-11-2010 05:00:05 3.1 C 4.85 g/m*3 3.1 C 0 km/h
1825 24-11-2010 05:12:05 2.9 C 4.96 g/m*3 2.9 C 0 km/h
Sensor: Nr:Datum:Temp:Abs-Feuchte:Windchill:Wind:
Aussen-T/F 1826 24-11-2010 05:24:05 2.9 C 5.02 g/m*3 2.9 C 0 km/h
1827 24-11-2010 05:36:05 2.8 C 5.04 g/m*3 2.8 C 0 km/h
1828 24-11-2010 05:48:05 2.9 C 5.14 g/m*3 2.9 C 0 km/h
1829 24-11-2010 06:00:05 3 C 5.11 g/m*3 3 C 0 km/h
1830 24-11-2010 06:12:05 3.2 C 5.12 g/m*3 3.2 C 0 km/h
1831 24-11-2010 06:24:05 3.2 C 5.06 g/m*3 3.2 C 0 km/h
1832 24-11-2010 06:36:05 3.3 C 5.04 g/m*3 3.3 C 0 km/h
1833 24-11-2010 06:48:05 3.3 C 5.04 g/m*3 3.3 C 0 km/h
1834 24-11-2010 07:00:05 3.4 C 5.01 g/m*3 3.4 C 0 km/h
1835 24-11-2010 07:12:02 3.4 C 5.01 g/m*3 3.4 C 0 km/h
1836 24-11-2010 07:24:03 3.3 C 5.04 g/m*3 3.3 C 0 km/h
1837 24-11-2010 07:36:03 3.2 C 5 g/m*3 3.2 C 0 km/h
1838 24-11-2010 07:48:01 3.4 C 5.01 g/m*3 3.4 C 0 km/h
1839 24-11-2010 08:00:01 3.5 C 5.04 g/m*3 3.5 C 0 km/h
1840 24-11-2010 08:12:01 3.4 C 4.95 g/m*3 3.4 C 0 km/h
1841 24-11-2010 08:24:01 3.3 C 5.04 g/m*3 3.3 C 0 km/h
1842 24-11-2010 08:36:02 3.3 C 5.1 g/m*3 3.3 C 0 km/h
1843 24-11-2010 08:48:02 3.6 C 5.26 g/m*3 3.6 C 0 km/h
1844 24-11-2010 09:00:02 3.6 C 5.14 g/m*3 3.6 C 0 km/h
1845 24-11-2010 09:12:02 4.1 C 5.06 g/m*3 4.1 C 0 km/h
1846 24-11-2010 09:24:01 4.3 C 4.93 g/m*3 4.3 C 0 km/h
1847 24-11-2010 09:36:02 4.5 C 4.93 g/m*3 4.5 C 0 km/h
1848 24-11-2010 09:48:02 4.6 C 4.9 g/m*3 4.6 C 0 km/h
1849 24-11-2010 10:00:02 4.8 C 4.83 g/m*3 4.8 C 0 km/h
1850 24-11-2010 10:12:02 5.1 C 4.72 g/m*3 5.1 C 0 km/h
Sensor: Nr:Datum:Temp:Abs-Feuchte:Windchill:Wind:
Aussen-T/F 1851 24-11-2010 10:24:02 5.2 C 4.68 g/m*3 5.2 C 0 km/h
1852 24-11-2010 10:36:01 5.4 C 4.67 g/m*3 5.4 C 0 km/h
1853 24-11-2010 10:48:02 5.6 C 4.6 g/m*3 5.6 C 0 km/h
1854 24-11-2010 11:00:02 5.7 C 4.63 g/m*3 5.7 C 0 km/h
1855 24-11-2010 11:12:01 4.9 C 4.73 g/m*3 4.9 C 0 km/h
1856 24-11-2010 11:24:01 4.9 C 4.86 g/m*3 4.9 C 0 km/h
1857 24-11-2010 11:36:02 5 C 4.89 g/m*3 5 C 0 km/h
1858 24-11-2010 11:48:02 5.6 C 4.81 g/m*3 5.6 C 0 km/h
1859 24-11-2010 12:00:02 5.6 C 4.6 g/m*3 5.6 C 0 km/h
1860 24-11-2010 12:12:01 5.8 C 4.58 g/m*3 5.8 C 0 km/h
1861 24-11-2010 12:24:02 6.1 C 4.53 g/m*3 6.1 C 0 km/h
1862 24-11-2010 12:36:02 5.9 C 4.61 g/m*3 5.9 C 0 km/h
1863 24-11-2010 12:48:01 5.6 C 4.52 g/m*3 5.6 C 0 km/h
1864 24-11-2010 13:00:01 5.6 C 4.6 g/m*3 5.6 C 0 km/h
1865 24-11-2010 13:12:02 5.6 C 4.67 g/m*3 5.6 C 0 km/h
1866 24-11-2010 13:24:01 5.4 C 4.54 g/m*3 5.4 C 0 km/h
1867 24-11-2010 13:36:01 5.1 C 4.58 g/m*3 5.1 C 0 km/h
1868 24-11-2010 13:48:01 5.1 C 4.65 g/m*3 5.1 C 0 km/h
1869 24-11-2010 14:00:01 4.9 C 4.73 g/m*3 4.9 C 0 km/h
1870 24-11-2010 14:12:02 4.7 C 5 g/m*3 4.7 C 0 km/h
1871 24-11-2010 14:24:01 4.5 C 5.19 g/m*3 4.5 C 0 km/h
1872 24-11-2010 14:36:01 4.3 C 5.25 g/m*3 4.3 C 0 km/h
1873 24-11-2010 14:48:01 4 C 5.21 g/m*3 4 C 0 km/h
1874 24-11-2010 15:00:01 3.5 C 5.04 g/m*3 3.5 C 0 km/h
1875 24-11-2010 15:12:02 3.4 C 5.13 g/m*3 3.4 C 0 km/h
Sensor: Nr:Datum:Temp:Abs-Feuchte:Windchill:Wind:
Aussen-T/F 1876 24-11-2010 15:24:02 3.5 C 5.29 g/m*3 3.5 C 0 km/h
1877 24-11-2010 15:36:01 3.5 C 5.35 g/m*3 3.5 C 0 km/h
1878 24-11-2010 15:48:02 3.5 C 5.41 g/m*3 3.5 C 0 km/h
1879 24-11-2010 16:00:02 3.5 C 5.41 g/m*3 3.5 C 0 km/h
1880 24-11-2010 16:12:01 3.5 C 5.35 g/m*3 3.5 C 0 km/h
1881 24-11-2010 16:24:02 3.3 C 5.16 g/m*3 3.3 C 0 km/h
1882 24-11-2010 16:36:01 3.1 C 5.09 g/m*3 3.1 C 0 km/h
1883 24-11-2010 16:48:02 3.1 C 5.09 g/m*3 3.1 C 0 km/h
1884 24-11-2010 17:00:02 3 C 5.05 g/m*3 3 C 0 km/h
1885 24-11-2010 17:12:02 3 C 5.05 g/m*3 3 C 0 km/h
1886 24-11-2010 17:24:02 2.4 C 4.91 g/m*3 2.4 C 0 km/h
1887 24-11-2010 17:36:02 1.6 C 4.7 g/m*3 1.6 C 0 km/h
1888 24-11-2010 17:48:02 1.4 C 4.69 g/m*3 1.4 C 0 km/h
1889 24-11-2010 18:00:02 1.4 C 4.75 g/m*3 1.4 C 0 km/h
1890 24-11-2010 18:12:01 1.5 C 4.83 g/m*3 1.5 C 0 km/h
1891 24-11-2010 18:24:01 1.6 C 4.92 g/m*3 1.6 C 0 km/h
1892 24-11-2010 18:36:02 1.7 C 4.95 g/m*3 1.7 C 0 km/h
1893 24-11-2010 18:48:02 2 C 5.06 g/m*3 2 C 0 km/h
1894 24-11-2010 19:00:02 2 C 5.06 g/m*3 2 C 0 km/h
1895 24-11-2010 19:12:02 2.2 C 5.13 g/m*3 2.2 C 0 km/h
1896 24-11-2010 19:24:02 2.1 C 5.09 g/m*3 2.1 C 0 km/h
1897 24-11-2010 19:36:02 1.9 C 5.08 g/m*3 1.9 C 0 km/h
1898 24-11-2010 19:48:02 1.9 C 5.08 g/m*3 1.9 C 0 km/h
1899 24-11-2010 20:00:02 1.5 C 4.94 g/m*3 1.5 C 0 km/h
1900 24-11-2010 20:12:02 1.3 C 4.87 g/m*3 1.3 C 0 km/h
Sensor: Nr:Datum:Temp:Abs-Feuchte:Windchill:Wind:
Aussen-T/F 1901 24-11-2010 20:24:02 1.4 C 4.91 g/m*3 1.4 C 0 km/h
1902 24-11-2010 20:36:02 1.3 C 4.87 g/m*3 1.3 C 0 km/h
1903 24-11-2010 20:48:02 1.6 C 4.97 g/m*3 1.6 C 0 km/h
1904 24-11-2010 21:00:02 1.9 C 5.08 g/m*3 1.9 C 0 km/h
1905 24-11-2010 21:12:02 1.3 C 4.87 g/m*3 1.3 C 0 km/h
1906 24-11-2010 21:24:02 1 C 4.78 g/m*3 1 C 0 km/h
1907 24-11-2010 21:36:03 1.2 C 4.84 g/m*3 1.2 C 0 km/h
1908 24-11-2010 21:49:04 1.7 C 5.01 g/m*3 1.7 C 0 km/h
1909 24-11-2010 22:01:04 2 C 5.11 g/m*3 2 C 0 km/h
1910 24-11-2010 22:13:04 2.2 C 5.18 g/m*3 2.2 C 0 km/h
1911 24-11-2010 22:25:04 2.3 C 5.22 g/m*3 2.3 C 0 km/h
1912 24-11-2010 22:37:05 2.1 C 5.09 g/m*3 2.1 C 0 km/h
1913 24-11-2010 22:49:05 2.1 C 5.04 g/m*3 2.1 C 0 km/h
1914 24-11-2010 23:01:05 2.1 C 5.04 g/m*3 2.1 C 0 km/h
1915 24-11-2010 23:13:05 2.1 C 4.98 g/m*3 2.1 C 0 km/h
1916 24-11-2010 23:25:05 2.6 C 5.15 g/m*3 2.6 C 0 km/h
1917 24-11-2010 23:37:05 2.6 C 5.09 g/m*3 2.6 C 0 km/h
1918 24-11-2010 23:49:05 2.6 C 5.03 g/m*3 2.6 C 0 km/h
1919 25-11-2010 00:01:05 2.4 C 4.91 g/m*3 2.4 C 0 km/h
1920 25-11-2010 00:13:05 2.6 C 4.98 g/m*3 2.6 C 0 km/h
1921 25-11-2010 00:25:05 2.4 C 4.91 g/m*3 2.4 C 0 km/h
1922 25-11-2010 00:37:05 2.5 C 4.94 g/m*3 2.5 C 0 km/h
1923 25-11-2010 00:49:05 2.6 C 4.92 g/m*3 2.6 C 0 km/h
1924 25-11-2010 01:01:05 2.6 C 4.92 g/m*3 2.6 C 0 km/h
1925 25-11-2010 01:13:05 3.1 C 4.97 g/m*3 3.1 C 0 km/h
Sensor: Nr:Datum:Temp:Abs-Feuchte:Windchill:Wind:
Aussen-T/F 1926 25-11-2010 01:25:05 3 C 4.76 g/m*3 3 C 0 km/h
1927 25-11-2010 01:37:05 2.9 C 4.78 g/m*3 2.9 C 0 km/h
1928 25-11-2010 01:49:05 3.1 C 4.67 g/m*3 3.1 C 0 km/h
1929 25-11-2010 02:01:05 3 C 4.52 g/m*3 3 C 0 km/h
1930 25-11-2010 02:13:05 2.9 C 4.55 g/m*3 2.9 C 0 km/h
1931 25-11-2010 02:25:05 2.7 C 4.54 g/m*3 2.7 C 0 km/h
1932 25-11-2010 02:37:05 2.6 C 4.57 g/m*3 2.6 C 0 km/h
1933 25-11-2010 02:49:06 2.6 C 4.57 g/m*3 2.6 C 0 km/h
1934 25-11-2010 03:01:06 2.5 C 4.6 g/m*3 2.5 C 0 km/h
1935 25-11-2010 03:13:06 3 C 4.52 g/m*3 3 C 0 km/h
1936 25-11-2010 03:25:06 3.1 C 4.37 g/m*3 3.1 C 0 km/h
1937 25-11-2010 03:37:06 2.9 C 4.31 g/m*3 2.9 C 0 km/h
1938 25-11-2010 03:49:06 2.6 C 4.34 g/m*3 2.6 C 0 km/h
1939 25-11-2010 04:01:06 2.5 C 4.31 g/m*3 2.5 C 0 km/h
1940 25-11-2010 04:13:06 2 C 4.17 g/m*3 2 C 0 km/h
1941 25-11-2010 04:25:06 1.9 C 4.19 g/m*3 1.9 C 0 km/h
1942 25-11-2010 04:37:06 1.7 C 4.14 g/m*3 1.7 C 0 km/h
1943 25-11-2010 04:49:06 2 C 4.17 g/m*3 2 C 0 km/h
1944 25-11-2010 05:01:06 1.5 C 4.03 g/m*3 1.5 C 0 km/h
1945 25-11-2010 05:13:06 1.4 C 4.11 g/m*3 1.4 C 0 km/h
1946 25-11-2010 05:25:06 1.7 C 4.19 g/m*3 1.7 C 0 km/h
1947 25-11-2010 05:37:06 0.9 C 4.02 g/m*3 0.9 C 0 km/h
1948 25-11-2010 05:49:06 1 C 4.05 g/m*3 1 C 0 km/h
1949 25-11-2010 06:01:06 0.9 C 4.02 g/m*3 0.9 C 0 km/h
1950 25-11-2010 06:13:06 1.4 C 4.21 g/m*3 1.4 C 0 km/h
Sensor: Nr:Datum:Temp:Abs-Feuchte:Windchill:Wind:
Aussen-T/F 1951 25-11-2010 06:25:06 0.7 C 4.12 g/m*3 0.7 C 0 km/h
1952 25-11-2010 06:37:06 0.1 C 4.05 g/m*3 0.1 C 0 km/h
1953 25-11-2010 06:49:06 0.2 C 4.18 g/m*3 0.2 C 0 km/h
1954 25-11-2010 07:01:07 0.3 C 4.25 g/m*3 0.3 C 0 km/h
1955 25-11-2010 07:13:07 0.3 C 4.3 g/m*3 0.3 C 0 km/h
1956 25-11-2010 07:25:04 0.2 C 4.27 g/m*3 0.2 C 0 km/h
1957 25-11-2010 07:37:04 -0.2 C 4.21 g/m*3 -0.2 C 0 km/h
1958 25-11-2010 07:49:02 -0.3 C 4.18 g/m*3 -0.3 C 0 km/h
1959 25-11-2010 08:01:01 -0.4 C 4.15 g/m*3 -0.4 C 0 km/h
1960 25-11-2010 08:13:01 -0.2 C 4.25 g/m*3 -0.2 C 0 km/h
1961 25-11-2010 08:25:02 -0.4 C 4.19 g/m*3 -0.4 C 0 km/h
1962 25-11-2010 08:37:02 -0.4 C 4.19 g/m*3 -0.4 C 0 km/h
1963 25-11-2010 08:49:02 0 C 4.36 g/m*3 0 C 0 km/h
1964 25-11-2010 09:01:02 0.4 C 4.48 g/m*3 0.4 C 0 km/h
1965 25-11-2010 09:13:02 0.5 C 4.46 g/m*3 0.5 C 0 km/h
1966 25-11-2010 09:25:01 0.7 C 4.47 g/m*3 0.7 C 0 km/h
1967 25-11-2010 09:37:01 0.7 C 4.42 g/m*3 0.7 C 0 km/h
1968 25-11-2010 09:49:03 0.6 C 4.39 g/m*3 0.6 C 0 km/h
1969 25-11-2010 10:01:02 0.4 C 4.28 g/m*3 0.4 C 0 km/h
1970 25-11-2010 10:13:02 0.6 C 4.39 g/m*3 0.6 C 0 km/h
1971 25-11-2010 10:25:02 0.9 C 4.48 g/m*3 0.9 C 0 km/h
1972 25-11-2010 10:37:02 1 C 4.46 g/m*3 1 C 0 km/h
1973 25-11-2010 10:49:02 1.1 C 4.49 g/m*3 1.1 C 0 km/h
1974 25-11-2010 11:01:01 1.2 C 4.47 g/m*3 1.2 C 0 km/h
1975 25-11-2010 11:13:01 1.4 C 4.53 g/m*3 1.4 C 0 km/h
Sensor: Nr:Datum:Temp:Abs-Feuchte:Windchill:Wind:
Aussen-T/F 1976 25-11-2010 11:25:02 1.9 C 4.58 g/m*3 1.9 C 0 km/h
1977 25-11-2010 11:37:02 2.2 C 4.56 g/m*3 2.2 C 0 km/h
1978 25-11-2010 11:49:02 2.1 C 4.48 g/m*3 2.1 C 0 km/h
1979 25-11-2010 12:01:02 1.7 C 4.41 g/m*3 1.7 C 0 km/h
1980 25-11-2010 12:13:02 1.5 C 4.4 g/m*3 1.5 C 0 km/h
1981 25-11-2010 12:25:02 1.4 C 4.43 g/m*3 1.4 C 0 km/h
1982 25-11-2010 12:37:02 2.4 C 4.74 g/m*3 2.4 C 0 km/h
1983 25-11-2010 12:49:01 3 C 4.58 g/m*3 3 C 0 km/h
1984 25-11-2010 13:01:02 3.3 C 4.43 g/m*3 3.3 C 0 km/h
1985 25-11-2010 13:13:03 3.4 C 4.28 g/m*3 3.4 C 0 km/h
1986 25-11-2010 13:25:01 3.6 C 4.15 g/m*3 3.6 C 0 km/h
1987 25-11-2010 13:37:01 3.5 C 4.12 g/m*3 3.5 C 0 km/h
1988 25-11-2010 13:49:01 3.6 C 4.15 g/m*3 3.6 C 0 km/h
1989 25-11-2010 14:01:01 3.6 C 4.09 g/m*3 3.6 C 0 km/h
1990 25-11-2010 14:13:01 3.7 C 4.11 g/m*3 3.7 C 0 km/h
1991 25-11-2010 14:25:02 3.7 C 4.05 g/m*3 3.7 C 0 km/h
1992 25-11-2010 14:37:01 3.6 C 4.09 g/m*3 3.6 C 0 km/h
1993 25-11-2010 14:49:02 3.7 C 3.8 g/m*3 3.7 C 0 km/h
1994 25-11-2010 15:01:01 3.8 C 3.89 g/m*3 3.8 C 0 km/h
1995 25-11-2010 15:13:01 3.8 C 3.89 g/m*3 3.8 C 0 km/h
1996 25-11-2010 15:25:01 3.5 C 3.75 g/m*3 3.5 C 0 km/h
1997 25-11-2010 15:37:01 2.9 C 4.07 g/m*3 2.9 C 0 km/h
1998 25-11-2010 15:49:02 2.4 C 4.17 g/m*3 2.4 C 0 km/h
1999 25-11-2010 16:01:02 2.2 C 4.17 g/m*3 2.2 C 0 km/h
2000 25-11-2010 16:13:02 2 C 4.17 g/m*3 2 C 0 km/h
Sensor: Nr:Datum:Temp:Abs-Feuchte:Windchill:Wind:
Aussen-T/F 2001 25-11-2010 16:25:02 1.8 C 4.22 g/m*3 1.8 C 0 km/h
2002 25-11-2010 16:37:02 2.1 C 4.25 g/m*3 2.1 C 0 km/h
2003 25-11-2010 16:49:02 2.1 C 4.25 g/m*3 2.1 C 0 km/h
2004 25-11-2010 17:01:02 2.1 C 4.25 g/m*3 2.1 C 0 km/h
2005 25-11-2010 17:13:02 2.1 C 4.36 g/m*3 2.1 C 0 km/h
2006 25-11-2010 17:25:01 2 C 4.39 g/m*3 2 C 0 km/h
2007 25-11-2010 17:37:02 2 C 4.33 g/m*3 2 C 0 km/h
2008 25-11-2010 17:49:02 2 C 4.39 g/m*3 2 C 0 km/h
2009 25-11-2010 18:01:02 2 C 4.39 g/m*3 2 C 0 km/h
2010 25-11-2010 18:13:02 1.8 C 4.39 g/m*3 1.8 C 0 km/h
2011 25-11-2010 18:25:02 1.9 C 4.53 g/m*3 1.9 C 0 km/h
2012 25-11-2010 18:37:02 1.8 C 4.49 g/m*3 1.8 C 0 km/h
2013 25-11-2010 18:49:02 1.2 C 4.31 g/m*3 1.2 C 0 km/h
2014 25-11-2010 19:01:02 0.9 C 4.28 g/m*3 0.9 C 0 km/h
2015 25-11-2010 19:13:02 0.8 C 4.3 g/m*3 0.8 C 0 km/h
2016 25-11-2010 19:25:01 0.9 C 4.38 g/m*3 0.9 C 0 km/h
2017 25-11-2010 19:37:02 1.1 C 4.49 g/m*3 1.1 C 0 km/h
2018 25-11-2010 19:49:01 1.2 C 4.47 g/m*3 1.2 C 0 km/h
2019 25-11-2010 20:01:02 0.8 C 4.4 g/m*3 0.8 C 0 km/h
2020 25-11-2010 20:13:03 0.8 C 4.4 g/m*3 0.8 C 0 km/h
2021 25-11-2010 20:25:01 0.7 C 4.42 g/m*3 0.7 C 0 km/h
2022 25-11-2010 20:37:02 0.5 C 4.36 g/m*3 0.5 C 0 km/h
2023 25-11-2010 20:50:04 0.7 C 4.42 g/m*3 0.7 C 0 km/h
2024 25-11-2010 21:02:04 0.9 C 4.48 g/m*3 0.9 C 0 km/h
2025 25-11-2010 21:14:04 1.2 C 4.53 g/m*3 1.2 C 0 km/h
Sensor: Nr:Datum:Temp:Abs-Feuchte:Windchill:Wind:
Aussen-T/F 2026 25-11-2010 21:26:04 1.4 C 4.53 g/m*3 1.4 C 0 km/h
2027 25-11-2010 21:38:04 1.4 C 4.48 g/m*3 1.4 C 0 km/h
2028 25-11-2010 21:50:04 1.3 C 4.45 g/m*3 1.3 C 0 km/h
2029 25-11-2010 22:02:04 1.4 C 4.48 g/m*3 1.4 C 0 km/h
2030 25-11-2010 22:14:04 1.3 C 4.45 g/m*3 1.3 C 0 km/h
2031 25-11-2010 22:26:04 1.3 C 4.5 g/m*3 1.3 C 0 km/h
2032 25-11-2010 22:38:05 1.3 C 4.5 g/m*3 1.3 C 0 km/h
2033 25-11-2010 22:50:05 1.4 C 4.53 g/m*3 1.4 C 0 km/h
2034 25-11-2010 23:02:05 1.2 C 4.47 g/m*3 1.2 C 0 km/h
2035 25-11-2010 23:14:05 1.3 C 4.5 g/m*3 1.3 C 0 km/h
2036 25-11-2010 23:26:05 1.4 C 4.53 g/m*3 1.4 C 0 km/h
2037 25-11-2010 23:38:05 1.5 C 4.57 g/m*3 1.5 C 0 km/h
2038 25-11-2010 23:50:05 1.4 C 4.53 g/m*3 1.4 C 0 km/h
2039 26-11-2010 00:02:05 1.4 C 4.53 g/m*3 1.4 C 0 km/h
2040 26-11-2010 00:14:05 1.6 C 4.6 g/m*3 1.6 C 0 km/h
2041 26-11-2010 00:26:05 1.6 C 4.6 g/m*3 1.6 C 0 km/h
2042 26-11-2010 00:38:05 1.4 C 4.48 g/m*3 1.4 C 0 km/h
2043 26-11-2010 00:50:05 1 C 4.36 g/m*3 1 C 0 km/h
2044 26-11-2010 01:02:05 0.9 C 4.43 g/m*3 0.9 C 0 km/h
2045 26-11-2010 01:14:05 1.1 C 4.49 g/m*3 1.1 C 0 km/h
2046 26-11-2010 01:26:05 1.1 C 4.55 g/m*3 1.1 C 0 km/h
2047 26-11-2010 01:38:05 1.2 C 4.53 g/m*3 1.2 C 0 km/h
2048 26-11-2010 01:50:05 1 C 4.46 g/m*3 1 C 0 km/h
2049 26-11-2010 02:02:05 1 C 4.46 g/m*3 1 C 0 km/h
2050 26-11-2010 02:14:05 1.1 C 4.49 g/m*3 1.1 C 0 km/h
Sensor: Nr:Datum:Temp:Abs-Feuchte:Windchill:Wind:
Aussen-T/F 2051 26-11-2010 02:26:05 1 C 4.46 g/m*3 1 C 0 km/h
2052 26-11-2010 02:38:05 1.1 C 4.49 g/m*3 1.1 C 0 km/h
2053 26-11-2010 02:50:06 1.1 C 4.44 g/m*3 1.1 C 0 km/h
2054 26-11-2010 03:02:06 1.1 C 4.49 g/m*3 1.1 C 0 km/h
2055 26-11-2010 03:14:06 1.2 C 4.47 g/m*3 1.2 C 0 km/h
2056 26-11-2010 03:26:06 0.6 C 4.29 g/m*3 0.6 C 0 km/h
2057 26-11-2010 03:38:06 0.4 C 4.28 g/m*3 0.4 C 0 km/h
2058 26-11-2010 03:50:06 0.4 C 4.33 g/m*3 0.4 C 0 km/h
2059 26-11-2010 04:02:06 0.4 C 4.38 g/m*3 0.4 C 0 km/h
2060 26-11-2010 04:14:06 0.3 C 4.35 g/m*3 0.3 C 0 km/h
2061 26-11-2010 04:26:06 0.3 C 4.4 g/m*3 0.3 C 0 km/h
2062 26-11-2010 04:38:06 0.3 C 4.4 g/m*3 0.3 C 0 km/h
2063 26-11-2010 04:50:06 0.3 C 4.45 g/m*3 0.3 C 0 km/h
2064 26-11-2010 05:02:06 0.3 C 4.45 g/m*3 0.3 C 0 km/h
2065 26-11-2010 05:14:06 0.1 C 4.39 g/m*3 0.1 C 0 km/h
2066 26-11-2010 05:26:06 0.2 C 4.47 g/m*3 0.2 C 0 km/h
2067 26-11-2010 05:38:06 0.3 C 4.5 g/m*3 0.3 C 0 km/h
2068 26-11-2010 05:50:06 0.4 C 4.53 g/m*3 0.4 C 0 km/h
2069 26-11-2010 06:02:06 0.4 C 4.53 g/m*3 0.4 C 0 km/h
2070 26-11-2010 06:14:06 0.4 C 4.53 g/m*3 0.4 C 0 km/h
2071 26-11-2010 06:26:06 0.2 C 4.47 g/m*3 0.2 C 0 km/h
2072 26-11-2010 06:38:06 0.1 C 4.44 g/m*3 0.1 C 0 km/h
2073 26-11-2010 06:50:07 0 C 4.46 g/m*3 0 C 0 km/h
2074 26-11-2010 07:02:03 0 C 4.46 g/m*3 0 C 0 km/h
2075 26-11-2010 07:14:03 0 C 4.46 g/m*3 0 C 0 km/h
Sensor: Nr:Datum:Temp:Abs-Feuchte:Windchill:Wind:
Aussen-T/F 2076 26-11-2010 07:26:03 0 C 4.46 g/m*3 0 C 0 km/h
2077 26-11-2010 07:38:03 0 C 4.46 g/m*3 0 C 0 km/h
2078 26-11-2010 07:50:01 0 C 4.46 g/m*3 0 C 0 km/h
2079 26-11-2010 08:02:02 0 C 4.46 g/m*3 0 C 0 km/h
2080 26-11-2010 08:14:02 0 C 4.46 g/m*3 0 C 0 km/h
2081 26-11-2010 08:26:01 0 C 4.46 g/m*3 0 C 0 km/h
2082 26-11-2010 08:38:01 0.1 C 4.54 g/m*3 0.1 C 0 km/h
2083 26-11-2010 08:50:01 0.1 C 4.54 g/m*3 0.1 C 0 km/h
2084 26-11-2010 09:02:01 0.1 C 4.54 g/m*3 0.1 C 0 km/h
2085 26-11-2010 09:14:01 0.1 C 4.54 g/m*3 0.1 C 0 km/h
2086 26-11-2010 09:26:01 0.1 C 4.54 g/m*3 0.1 C 0 km/h
2087 26-11-2010 09:38:02 0.2 C 4.57 g/m*3 0.2 C 0 km/h
2088 26-11-2010 09:50:02 0.2 C 4.57 g/m*3 0.2 C 0 km/h
2089 26-11-2010 10:02:01 0.4 C 4.63 g/m*3 0.4 C 0 km/h
2090 26-11-2010 10:14:01 0.4 C 4.63 g/m*3 0.4 C 0 km/h
2091 26-11-2010 10:26:02 0.5 C 4.61 g/m*3 0.5 C 0 km/h
2092 26-11-2010 10:38:02 0.7 C 4.68 g/m*3 0.7 C 0 km/h
2093 26-11-2010 10:50:01 0.9 C 4.74 g/m*3 0.9 C 0 km/h
2094 26-11-2010 11:02:02 1 C 4.67 g/m*3 1 C 0 km/h
2095 26-11-2010 11:14:02 1 C 4.62 g/m*3 1 C 0 km/h
2096 26-11-2010 11:26:01 1.2 C 4.63 g/m*3 1.2 C 0 km/h
2097 26-11-2010 11:38:01 1.2 C 4.58 g/m*3 1.2 C 0 km/h
2098 26-11-2010 11:50:01 1.2 C 4.53 g/m*3 1.2 C 0 km/h
2099 26-11-2010 12:02:02 1.1 C 4.49 g/m*3 1.1 C 0 km/h
2100 26-11-2010 12:14:02 1.1 C 4.49 g/m*3 1.1 C 0 km/h
Sensor: Nr:Datum:Temp:Abs-Feuchte:Windchill:Wind:
Aussen-T/F 2101 26-11-2010 12:26:01 0.8 C 4.4 g/m*3 0.8 C 0 km/h
2102 26-11-2010 12:38:02 0.7 C 4.37 g/m*3 0.7 C 0 km/h
2103 26-11-2010 12:50:01 0.5 C 4.31 g/m*3 0.5 C 0 km/h
2104 26-11-2010 13:02:02 0.4 C 4.28 g/m*3 0.4 C 0 km/h
2105 26-11-2010 13:14:02 0.6 C 4.34 g/m*3 0.6 C 0 km/h
2106 26-11-2010 13:26:02 1 C 4.46 g/m*3 1 C 0 km/h
2107 26-11-2010 13:38:01 1.3 C 4.5 g/m*3 1.3 C 0 km/h
2108 26-11-2010 13:50:01 1.2 C 4.26 g/m*3 1.2 C 0 km/h
2109 26-11-2010 14:02:01 1.4 C 4.21 g/m*3 1.4 C 0 km/h
2110 26-11-2010 14:14:01 1.5 C 4.19 g/m*3 1.5 C 0 km/h
2111 26-11-2010 14:26:02 1.5 C 4.14 g/m*3 1.5 C 0 km/h
2112 26-11-2010 14:38:01 1.8 C 4.17 g/m*3 1.8 C 0 km/h
2113 26-11-2010 14:50:03 1.8 C 4.17 g/m*3 1.8 C 0 km/h
2114 26-11-2010 15:02:02 1.4 C 3.79 g/m*3 1.4 C 0 km/h
2115 26-11-2010 15:14:02 1 C 3.74 g/m*3 1 C 0 km/h
2116 26-11-2010 15:26:02 0.9 C 3.81 g/m*3 0.9 C 0 km/h
2117 26-11-2010 15:38:02 0.7 C 3.86 g/m*3 0.7 C 0 km/h
2118 26-11-2010 15:50:02 0 C 3.78 g/m*3 0 C 0 km/h
2119 26-11-2010 16:02:01 -0.8 C 3.71 g/m*3 -0.8 C 0 km/h
2120 26-11-2010 16:14:01 -1.1 C 3.73 g/m*3 -1.1 C 0 km/h
2121 26-11-2010 16:26:02 -1.6 C 3.68 g/m*3 -1.6 C 0 km/h
2122 26-11-2010 16:38:02 -1.8 C 3.68 g/m*3 -1.8 C 0 km/h
2123 26-11-2010 16:50:02 -2.1 C 3.64 g/m*3 -2.1 C 0 km/h
2124 26-11-2010 17:02:03 -2.2 C 3.66 g/m*3 -2.2 C 0 km/h
2125 26-11-2010 17:14:03 -2.4 C 3.61 g/m*3 -2.4 C 0 km/h
Sensor: Nr:Datum:Temp:Abs-Feuchte:Windchill:Wind:
Aussen-T/F 2126 26-11-2010 17:26:02 -2.5 C 3.62 g/m*3 -2.5 C 0 km/h
2127 26-11-2010 17:38:02 -2.5 C 3.62 g/m*3 -2.5 C 0 km/h
2128 26-11-2010 17:50:01 -2.2 C 3.74 g/m*3 -2.2 C 0 km/h
2129 26-11-2010 18:02:02 -1.5 C 3.93 g/m*3 -1.5 C 0 km/h
2130 26-11-2010 18:14:02 -1.3 C 4.03 g/m*3 -1.3 C 0 km/h
2131 26-11-2010 18:26:01 -1.3 C 4.03 g/m*3 -1.3 C 0 km/h
2132 26-11-2010 18:38:01 -1.4 C 4 g/m*3 -1.4 C 0 km/h
2133 26-11-2010 18:50:01 -1.4 C 4 g/m*3 -1.4 C 0 km/h
2134 26-11-2010 19:02:02 -1.4 C 4 g/m*3 -1.4 C 0 km/h
2135 26-11-2010 19:14:02 -1.4 C 4 g/m*3 -1.4 C 0 km/h
2136 26-11-2010 19:26:01 -1.4 C 4 g/m*3 -1.4 C 0 km/h
2137 26-11-2010 19:38:01 -1.6 C 3.94 g/m*3 -1.6 C 0 km/h
2138 26-11-2010 19:50:02 -1.9 C 3.86 g/m*3 -1.9 C 0 km/h
2139 26-11-2010 20:02:02 -1.8 C 3.89 g/m*3 -1.8 C 0 km/h
2140 26-11-2010 20:14:02 -1.9 C 3.86 g/m*3 -1.9 C 0 km/h
2141 26-11-2010 20:26:02 -1.7 C 3.92 g/m*3 -1.7 C 0 km/h
2142 26-11-2010 20:38:02 -1.9 C 3.86 g/m*3 -1.9 C 0 km/h
2143 26-11-2010 20:50:02 -2.5 C 3.7 g/m*3 -2.5 C 0 km/h
2144 26-11-2010 21:02:01 -2.2 C 3.78 g/m*3 -2.2 C 0 km/h
2145 26-11-2010 21:14:01 -2 C 3.84 g/m*3 -2 C 0 km/h
2146 26-11-2010 21:26:02 -2.3 C 3.76 g/m*3 -2.3 C 0 km/h
2147 26-11-2010 21:38:02 -2.6 C 3.68 g/m*3 -2.6 C 0 km/h
2148 26-11-2010 21:50:02 -2.6 C 3.68 g/m*3 -2.6 C 0 km/h
2149 26-11-2010 22:02:02 -3 C 3.57 g/m*3 -3 C 0 km/h
2150 26-11-2010 22:14:02 -3.3 C 3.46 g/m*3 -3.3 C 0 km/h
Sensor: Nr:Datum:Temp:Abs-Feuchte:Windchill:Wind:
Aussen-T/F 2151 26-11-2010 22:26:02 -3.1 C 3.55 g/m*3 -3.1 C 0 km/h
2152 26-11-2010 22:38:02 -3.2 C 3.52 g/m*3 -3.2 C 0 km/h
2153 26-11-2010 22:50:02 -3.6 C 3.39 g/m*3 -3.6 C 0 km/h
2154 26-11-2010 23:03:02 -3.8 C 3.34 g/m*3 -3.8 C 0 km/h
2155 26-11-2010 23:15:02 -3.8 C 3.34 g/m*3 -3.8 C 0 km/h
2156 26-11-2010 23:27:02 -3.9 C 3.32 g/m*3 -3.9 C 0 km/h
2157 26-11-2010 23:39:02 -3.7 C 3.36 g/m*3 -3.7 C 0 km/h
2158 26-11-2010 23:51:02 -3.6 C 3.39 g/m*3 -3.6 C 0 km/h
2159 27-11-2010 00:03:02 -4 C 3.29 g/m*3 -4 C 0 km/h
2160 27-11-2010 00:15:02 -4.1 C 3.27 g/m*3 -4.1 C 0 km/h
2161 27-11-2010 00:27:02 -4.2 C 3.25 g/m*3 -4.2 C 0 km/h
2162 27-11-2010 00:39:02 -4.1 C 3.27 g/m*3 -4.1 C 0 km/h
2163 27-11-2010 00:51:02 -4 C 3.29 g/m*3 -4 C 0 km/h
2164 27-11-2010 01:03:02 -3.1 C 3.51 g/m*3 -3.1 C 0 km/h
2165 27-11-2010 01:15:02 -2.7 C 3.61 g/m*3 -2.7 C 0 km/h
2166 27-11-2010 01:27:02 -3.7 C 3.36 g/m*3 -3.7 C 0 km/h
2167 27-11-2010 01:39:02 -4.3 C 3.19 g/m*3 -4.3 C 0 km/h
2168 27-11-2010 01:51:03 -3.9 C 3.28 g/m*3 -3.9 C 0 km/h
2169 27-11-2010 02:03:03 -3.9 C 3.28 g/m*3 -3.9 C 0 km/h
2170 27-11-2010 02:15:03 -4.1 C 3.2 g/m*3 -4.1 C 0 km/h
2171 27-11-2010 02:27:03 -4.5 C 3.11 g/m*3 -4.5 C 0 km/h
2172 27-11-2010 02:39:03 -4 C 3.22 g/m*3 -4 C 0 km/h
2173 27-11-2010 02:51:03 -3.2 C 3.45 g/m*3 -3.2 C 0 km/h
2174 27-11-2010 03:03:03 -2.8 C 3.55 g/m*3 -2.8 C 0 km/h
2175 27-11-2010 03:15:03 -2.7 C 3.61 g/m*3 -2.7 C 0 km/h
Sensor: Nr:Datum:Temp:Abs-Feuchte:Windchill:Wind:
Aussen-T/F 2176 27-11-2010 03:27:03 -2.9 C 3.52 g/m*3 -2.9 C 0 km/h
2177 27-11-2010 03:39:03 -3.5 C 3.37 g/m*3 -3.5 C 0 km/h
2178 27-11-2010 03:51:03 -3.9 C 3.24 g/m*3 -3.9 C 0 km/h
2179 27-11-2010 04:03:03 -4.1 C 3.2 g/m*3 -4.1 C 0 km/h
2180 27-11-2010 04:15:03 -4 C 3.22 g/m*3 -4 C 0 km/h
2181 27-11-2010 04:27:03 -4.1 C 3.2 g/m*3 -4.1 C 0 km/h
2182 27-11-2010 04:39:03 -4 C 3.22 g/m*3 -4 C 0 km/h
2183 27-11-2010 04:51:03 -4.4 C 3.13 g/m*3 -4.4 C 0 km/h
2184 27-11-2010 05:03:03 -4.5 C 3.11 g/m*3 -4.5 C 0 km/h
2185 27-11-2010 05:15:03 -4.7 C 3.03 g/m*3 -4.7 C 0 km/h
2186 27-11-2010 05:27:03 -4.4 C 3.13 g/m*3 -4.4 C 0 km/h
2187 27-11-2010 05:39:03 -4 C 3.22 g/m*3 -4 C 0 km/h
2188 27-11-2010 05:51:03 -3.8 C 3.27 g/m*3 -3.8 C 0 km/h
2189 27-11-2010 06:03:04 -3.7 C 3.29 g/m*3 -3.7 C 0 km/h
2190 27-11-2010 06:15:04 -3.4 C 3.4 g/m*3 -3.4 C 0 km/h
2191 27-11-2010 06:27:04 -3.4 C 3.4 g/m*3 -3.4 C 0 km/h
2192 27-11-2010 06:39:04 -3.5 C 3.34 g/m*3 -3.5 C 0 km/h
2193 27-11-2010 06:51:04 -3.6 C 3.31 g/m*3 -3.6 C 0 km/h
2194 27-11-2010 07:03:04 -3.8 C 3.27 g/m*3 -3.8 C 0 km/h
2195 27-11-2010 07:15:04 -3.4 C 3.36 g/m*3 -3.4 C 0 km/h
2196 27-11-2010 07:27:04 -3.5 C 3.34 g/m*3 -3.5 C 0 km/h
2197 27-11-2010 07:39:04 -3.6 C 3.31 g/m*3 -3.6 C 0 km/h
2198 27-11-2010 07:51:04 -3.4 C 3.36 g/m*3 -3.4 C 0 km/h
2199 27-11-2010 08:03:04 -3.5 C 3.34 g/m*3 -3.5 C 0 km/h
2200 27-11-2010 08:15:04 -3.4 C 3.36 g/m*3 -3.4 C 0 km/h
Sensor: Nr:Datum:Temp:Abs-Feuchte:Windchill:Wind:
Aussen-T/F 2201 27-11-2010 08:27:04 -2.9 C 3.52 g/m*3 -2.9 C 0 km/h
2202 27-11-2010 08:39:04 -2.6 C 3.6 g/m*3 -2.6 C 0 km/h
2203 27-11-2010 08:51:04 -2.6 C 3.6 g/m*3 -2.6 C 0 km/h
2204 27-11-2010 09:03:04 -2.3 C 3.67 g/m*3 -2.3 C 0 km/h
2205 27-11-2010 09:15:04 -2 C 3.75 g/m*3 -2 C 0 km/h
2206 27-11-2010 09:27:04 -1.9 C 3.78 g/m*3 -1.9 C 0 km/h
2207 27-11-2010 09:39:04 -1.7 C 3.83 g/m*3 -1.7 C 0 km/h
2208 27-11-2010 09:51:04 -1.1 C 4 g/m*3 -1.1 C 0 km/h
2209 27-11-2010 10:03:02 -0.8 C 4.13 g/m*3 -0.8 C 0 km/h
2210 27-11-2010 10:15:02 -0.8 C 4.08 g/m*3 -0.8 C 0 km/h
2211 27-11-2010 10:27:02 -1 C 4.02 g/m*3 -1 C 0 km/h
2212 27-11-2010 10:39:01 -1 C 3.98 g/m*3 -1 C 0 km/h
2213 27-11-2010 10:51:02 -0.6 C 4.09 g/m*3 -0.6 C 0 km/h
2214 27-11-2010 11:03:01 -0.4 C 4.15 g/m*3 -0.4 C 0 km/h
2215 27-11-2010 11:15:02 -0.4 C 4.15 g/m*3 -0.4 C 0 km/h
2216 27-11-2010 11:27:02 -0.3 C 4.18 g/m*3 -0.3 C 0 km/h
2217 27-11-2010 11:39:01 0 C 4.26 g/m*3 0 C 0 km/h
2218 27-11-2010 11:51:02 0.1 C 4.2 g/m*3 0.1 C 0 km/h
2219 27-11-2010 12:03:02 0.2 C 4.13 g/m*3 0.2 C 0 km/h
2220 27-11-2010 12:15:02 0.3 C 4.06 g/m*3 0.3 C 0 km/h
2221 27-11-2010 12:27:02 0.4 C 4.03 g/m*3 0.4 C 0 km/h
2222 27-11-2010 12:39:03 0.6 C 3.99 g/m*3 0.6 C 0 km/h
2223 27-11-2010 12:51:02 0.4 C 3.79 g/m*3 0.4 C 0 km/h
2224 27-11-2010 13:03:02 0.7 C 3.86 g/m*3 0.7 C 0 km/h
2225 27-11-2010 13:15:02 0.7 C 3.86 g/m*3 0.7 C 0 km/h
Sensor: Nr:Datum:Temp:Abs-Feuchte:Windchill:Wind:
Aussen-T/F 2226 27-11-2010 13:27:02 0.7 C 3.92 g/m*3 0.7 C 0 km/h
2227 27-11-2010 13:39:02 1 C 4 g/m*3 1 C 0 km/h
2228 27-11-2010 13:51:02 1.2 C 3.89 g/m*3 1.2 C 0 km/h
2229 27-11-2010 14:03:02 1.4 C 3.95 g/m*3 1.4 C 0 km/h
2230 27-11-2010 14:15:02 1.5 C 3.87 g/m*3 1.5 C 0 km/h
2231 27-11-2010 14:27:02 1.5 C 3.71 g/m*3 1.5 C 0 km/h
2232 27-11-2010 14:39:02 1.7 C 3.7 g/m*3 1.7 C 0 km/h
2233 27-11-2010 14:51:01 1.3 C 3.71 g/m*3 1.3 C 0 km/h
2234 27-11-2010 15:03:02 1 C 3.74 g/m*3 1 C 0 km/h
2235 27-11-2010 15:15:01 1 C 3.84 g/m*3 1 C 0 km/h
2236 27-11-2010 15:27:01 0.8 C 3.79 g/m*3 0.8 C 0 km/h
2237 27-11-2010 15:39:01 0.7 C 3.81 g/m*3 0.7 C 0 km/h
2238 27-11-2010 15:51:01 0.3 C 3.81 g/m*3 0.3 C 0 km/h
2239 27-11-2010 16:03:01 -0.3 C 3.56 g/m*3 -0.3 C 0 km/h
2240 27-11-2010 16:15:02 -0.5 C 3.6 g/m*3 -0.5 C 0 km/h
2241 27-11-2010 16:27:02 -0.7 C 3.6 g/m*3 -0.7 C 0 km/h
2242 27-11-2010 16:39:01 -1 C 3.57 g/m*3 -1 C 0 km/h
2243 27-11-2010 16:51:02 -1.1 C 3.59 g/m*3 -1.1 C 0 km/h
2244 27-11-2010 17:03:01 -1 C 3.66 g/m*3 -1 C 0 km/h
2245 27-11-2010 17:15:02 -0.7 C 3.69 g/m*3 -0.7 C 0 km/h
2246 27-11-2010 17:27:02 -0.7 C 3.65 g/m*3 -0.7 C 0 km/h
2247 27-11-2010 17:39:01 -0.8 C 3.67 g/m*3 -0.8 C 0 km/h
2248 27-11-2010 17:51:02 -1.1 C 3.59 g/m*3 -1.1 C 0 km/h
2249 27-11-2010 18:03:02 -1.6 C 3.51 g/m*3 -1.6 C 0 km/h
2250 27-11-2010 18:15:02 -1.8 C 3.51 g/m*3 -1.8 C 0 km/h
Sensor: Nr:Datum:Temp:Abs-Feuchte:Windchill:Wind:
Aussen-T/F 2251 27-11-2010 18:27:02 -1.8 C 3.55 g/m*3 -1.8 C 0 km/h
2252 27-11-2010 18:39:02 -1.7 C 3.62 g/m*3 -1.7 C 0 km/h
2253 27-11-2010 18:51:02 -1 C 3.8 g/m*3 -1 C 0 km/h
2254 27-11-2010 19:03:01 -0.9 C 3.78 g/m*3 -0.9 C 0 km/h
2255 27-11-2010 19:15:02 -1 C 3.71 g/m*3 -1 C 0 km/h
2256 27-11-2010 19:27:02 -1.1 C 3.73 g/m*3 -1.1 C 0 km/h
2257 27-11-2010 19:39:02 -0.9 C 3.78 g/m*3 -0.9 C 0 km/h
2258 27-11-2010 19:51:02 -0.7 C 3.78 g/m*3 -0.7 C 0 km/h
2259 27-11-2010 20:03:03 -0.7 C 3.78 g/m*3 -0.7 C 0 km/h
2260 27-11-2010 20:15:02 -0.7 C 3.74 g/m*3 -0.7 C 0 km/h
2261 27-11-2010 20:27:02 -1.2 C 3.52 g/m*3 -1.2 C 0 km/h
2262 27-11-2010 20:39:02 -2.2 C 3.33 g/m*3 -2.2 C 0 km/h
2263 27-11-2010 20:51:01 -2.7 C 3.25 g/m*3 -2.7 C 0 km/h
2264 27-11-2010 21:03:02 -3 C 3.22 g/m*3 -3 C 0 km/h
2265 27-11-2010 21:15:01 -3 C 3.3 g/m*3 -3 C 0 km/h
2266 27-11-2010 21:27:01 -3 C 3.3 g/m*3 -3 C 0 km/h
2267 27-11-2010 21:39:01 -3.2 C 3.25 g/m*3 -3.2 C 0 km/h
2268 27-11-2010 21:51:01 -3.3 C 3.27 g/m*3 -3.3 C 0 km/h
2269 27-11-2010 22:03:02 -3.8 C 3.15 g/m*3 -3.8 C 0 km/h
2270 27-11-2010 22:15:01 -3.8 C 3.19 g/m*3 -3.8 C 0 km/h
2271 27-11-2010 22:27:01 -3.2 C 3.37 g/m*3 -3.2 C 0 km/h
2272 27-11-2010 22:40:03 -3.3 C 3.31 g/m*3 -3.3 C 0 km/h
2273 27-11-2010 22:52:03 -2.7 C 3.49 g/m*3 -2.7 C 0 km/h
2274 27-11-2010 23:04:03 -2.8 C 3.43 g/m*3 -2.8 C 0 km/h
2275 27-11-2010 23:16:03 -2.8 C 3.43 g/m*3 -2.8 C 0 km/h
Sensor: Nr:Datum:Temp:Abs-Feuchte:Windchill:Wind:
Aussen-T/F 2276 27-11-2010 23:28:03 -3 C 3.38 g/m*3 -3 C 0 km/h
2277 27-11-2010 23:40:03 -3.6 C 3.2 g/m*3 -3.6 C 0 km/h
2278 27-11-2010 23:52:03 -3.9 C 3.13 g/m*3 -3.9 C 0 km/h
2279 28-11-2010 00:04:03 -3.9 C 3.17 g/m*3 -3.9 C 0 km/h
2280 28-11-2010 00:16:03 -3.8 C 3.19 g/m*3 -3.8 C 0 km/h
2281 28-11-2010 00:28:03 -3.7 C 3.21 g/m*3 -3.7 C 0 km/h
2282 28-11-2010 00:40:03 -3.8 C 3.19 g/m*3 -3.8 C 0 km/h
2283 28-11-2010 00:52:03 -3.6 C 3.24 g/m*3 -3.6 C 0 km/h
2284 28-11-2010 01:04:03 -3.4 C 3.32 g/m*3 -3.4 C 0 km/h
2285 28-11-2010 01:16:03 -3 C 3.42 g/m*3 -3 C 0 km/h
2286 28-11-2010 01:28:03 -2.7 C 3.53 g/m*3 -2.7 C 0 km/h
2287 28-11-2010 01:40:03 -2.4 C 3.61 g/m*3 -2.4 C 0 km/h
2288 28-11-2010 01:52:03 -2.3 C 3.63 g/m*3 -2.3 C 0 km/h
2289 28-11-2010 02:04:03 -2.1 C 3.64 g/m*3 -2.1 C 0 km/h
2290 28-11-2010 02:16:03 -2.2 C 3.62 g/m*3 -2.2 C 0 km/h
2291 28-11-2010 02:28:04 -2.1 C 3.64 g/m*3 -2.1 C 0 km/h
2292 28-11-2010 02:40:04 -2.1 C 3.6 g/m*3 -2.1 C 0 km/h
2293 28-11-2010 02:52:04 -2.4 C 3.52 g/m*3 -2.4 C 0 km/h
2294 28-11-2010 03:04:04 -2.6 C 3.43 g/m*3 -2.6 C 0 km/h
2295 28-11-2010 03:16:04 -3.3 C 3.23 g/m*3 -3.3 C 0 km/h
2296 28-11-2010 03:28:04 -3.8 C 3.12 g/m*3 -3.8 C 0 km/h
2297 28-11-2010 03:40:04 -3.6 C 3.16 g/m*3 -3.6 C 0 km/h
2298 28-11-2010 03:52:04 -3.7 C 3.18 g/m*3 -3.7 C 0 km/h
2299 28-11-2010 04:04:04 -3.2 C 3.33 g/m*3 -3.2 C 0 km/h
2300 28-11-2010 04:16:04 -2.8 C 3.43 g/m*3 -2.8 C 0 km/h
Sensor: Nr:Datum:Temp:Abs-Feuchte:Windchill:Wind:
Aussen-T/F 2301 28-11-2010 04:28:04 -2.5 C 3.5 g/m*3 -2.5 C 0 km/h
2302 28-11-2010 04:40:04 -2.4 C 3.52 g/m*3 -2.4 C 0 km/h
2303 28-11-2010 04:52:04 -2.3 C 3.55 g/m*3 -2.3 C 0 km/h
2304 28-11-2010 05:04:04 -2.3 C 3.55 g/m*3 -2.3 C 0 km/h
2305 28-11-2010 05:16:04 -2.6 C 3.48 g/m*3 -2.6 C 0 km/h
2306 28-11-2010 05:28:04 -3 C 3.34 g/m*3 -3 C 0 km/h
2307 28-11-2010 05:40:04 -3 C 3.34 g/m*3 -3 C 0 km/h
2308 28-11-2010 05:52:04 -2.7 C 3.41 g/m*3 -2.7 C 0 km/h
2309 28-11-2010 06:04:04 -2.5 C 3.5 g/m*3 -2.5 C 0 km/h
2310 28-11-2010 06:16:04 -2.3 C 3.55 g/m*3 -2.3 C 0 km/h
2311 28-11-2010 06:28:04 -2.1 C 3.6 g/m*3 -2.1 C 0 km/h
2312 28-11-2010 06:40:04 -2 C 3.58 g/m*3 -2 C 0 km/h
2313 28-11-2010 06:52:05 -2 C 3.58 g/m*3 -2 C 0 km/h
2314 28-11-2010 07:04:05 -2 C 3.58 g/m*3 -2 C 0 km/h
2315 28-11-2010 07:16:05 -1.9 C 3.57 g/m*3 -1.9 C 0 km/h
2316 28-11-2010 07:28:05 -1.9 C 3.57 g/m*3 -1.9 C 0 km/h
2317 28-11-2010 07:40:05 -1.8 C 3.59 g/m*3 -1.8 C 0 km/h
2318 28-11-2010 07:52:05 -1.8 C 3.59 g/m*3 -1.8 C 0 km/h
2319 28-11-2010 08:04:05 -1.8 C 3.55 g/m*3 -1.8 C 0 km/h
2320 28-11-2010 08:16:05 -1.7 C 3.62 g/m*3 -1.7 C 0 km/h
2321 28-11-2010 08:28:05 -1.6 C 3.64 g/m*3 -1.6 C 0 km/h
2322 28-11-2010 08:40:05 -1.6 C 3.6 g/m*3 -1.6 C 0 km/h
2323 28-11-2010 08:52:05 -1.6 C 3.6 g/m*3 -1.6 C 0 km/h
2324 28-11-2010 09:04:05 -1.4 C 3.6 g/m*3 -1.4 C 0 km/h
2325 28-11-2010 09:16:05 -1.3 C 3.63 g/m*3 -1.3 C 0 km/h
Sensor: Nr:Datum:Temp:Abs-Feuchte:Windchill:Wind:
Aussen-T/F 2326 28-11-2010 09:28:05 -1.2 C 3.61 g/m*3 -1.2 C 0 km/h
2327 28-11-2010 09:40:03 -1.1 C 3.59 g/m*3 -1.1 C 0 km/h
2328 28-11-2010 09:52:01 -0.9 C 3.64 g/m*3 -0.9 C 0 km/h
2329 28-11-2010 10:04:02 -0.4 C 3.72 g/m*3 -0.4 C 0 km/h
2330 28-11-2010 10:16:02 -0.5 C 3.6 g/m*3 -0.5 C 0 km/h
2331 28-11-2010 10:28:02 -0.4 C 3.63 g/m*3 -0.4 C 0 km/h
2332 28-11-2010 10:40:02 -0.4 C 3.58 g/m*3 -0.4 C 0 km/h
2333 28-11-2010 10:52:02 -0.2 C 3.63 g/m*3 -0.2 C 0 km/h
2334 28-11-2010 11:04:01 -0.1 C 3.61 g/m*3 -0.1 C 0 km/h
2335 28-11-2010 11:16:02 -0.2 C 3.54 g/m*3 -0.2 C 0 km/h
2336 28-11-2010 11:28:02 -0.3 C 3.51 g/m*3 -0.3 C 0 km/h
2337 28-11-2010 11:40:01 -0.1 C 3.56 g/m*3 -0.1 C 0 km/h
2338 28-11-2010 11:52:02 -0.2 C 3.54 g/m*3 -0.2 C 0 km/h
2339 28-11-2010 12:04:01 0 C 3.59 g/m*3 0 C 0 km/h
2340 28-11-2010 12:16:01 0.1 C 3.61 g/m*3 0.1 C 0 km/h
2341 28-11-2010 12:28:01 0 C 3.59 g/m*3 0 C 0 km/h
2342 28-11-2010 12:40:02 0 C 3.59 g/m*3 0 C 0 km/h
2343 28-11-2010 12:52:02 0 C 3.59 g/m*3 0 C 0 km/h
2344 28-11-2010 13:04:02 0 C 3.59 g/m*3 0 C 0 km/h
2345 28-11-2010 13:16:02 0.1 C 3.61 g/m*3 0.1 C 0 km/h
2346 28-11-2010 13:28:02 0.1 C 3.66 g/m*3 0.1 C 0 km/h
2347 28-11-2010 13:40:02 0.2 C 3.64 g/m*3 0.2 C 0 km/h
2348 28-11-2010 13:52:02 0.3 C 3.66 g/m*3 0.3 C 0 km/h
2349 28-11-2010 14:04:02 0.2 C 3.64 g/m*3 0.2 C 0 km/h
2350 28-11-2010 14:16:02 0.3 C 3.66 g/m*3 0.3 C 0 km/h
Sensor: Nr:Datum:Temp:Abs-Feuchte:Windchill:Wind:
Aussen-T/F 2351 28-11-2010 14:28:02 0.5 C 3.71 g/m*3 0.5 C 0 km/h
2352 28-11-2010 14:40:02 0.7 C 3.71 g/m*3 0.7 C 0 km/h
2353 28-11-2010 14:52:01 0.8 C 3.74 g/m*3 0.8 C 0 km/h
2354 28-11-2010 15:04:02 0.7 C 3.71 g/m*3 0.7 C 0 km/h
2355 28-11-2010 15:16:01 0.7 C 3.71 g/m*3 0.7 C 0 km/h
2356 28-11-2010 15:28:01 0.6 C 3.74 g/m*3 0.6 C 0 km/h
2357 28-11-2010 15:40:01 0.5 C 3.71 g/m*3 0.5 C 0 km/h
2358 28-11-2010 15:52:01 0.2 C 3.68 g/m*3 0.2 C 0 km/h
2359 28-11-2010 16:04:01 0 C 3.68 g/m*3 0 C 0 km/h
2360 28-11-2010 16:16:02 -0.3 C 3.65 g/m*3 -0.3 C 0 km/h
2361 28-11-2010 16:28:02 -0.6 C 3.63 g/m*3 -0.6 C 0 km/h
2362 28-11-2010 16:40:01 -0.5 C 3.7 g/m*3 -0.5 C 0 km/h
2363 28-11-2010 16:52:03 -0.3 C 3.75 g/m*3 -0.3 C 0 km/h
2364 28-11-2010 17:04:02 -0.3 C 3.75 g/m*3 -0.3 C 0 km/h
2365 28-11-2010 17:16:02 -0.3 C 3.75 g/m*3 -0.3 C 0 km/h
2366 28-11-2010 17:28:02 -0.6 C 3.67 g/m*3 -0.6 C 0 km/h
2367 28-11-2010 17:40:02 -0.9 C 3.6 g/m*3 -0.9 C 0 km/h
2368 28-11-2010 17:52:02 -1.1 C 3.59 g/m*3 -1.1 C 0 km/h
2369 28-11-2010 18:04:02 -1.8 C 3.42 g/m*3 -1.8 C 0 km/h
2370 28-11-2010 18:16:02 -1.4 C 3.65 g/m*3 -1.4 C 0 km/h
2371 28-11-2010 18:28:02 -1 C 3.8 g/m*3 -1 C 0 km/h
2372 28-11-2010 18:40:02 -0.7 C 3.88 g/m*3 -0.7 C 0 km/h
2373 28-11-2010 18:52:02 -0.6 C 3.81 g/m*3 -0.6 C 0 km/h
2374 28-11-2010 19:04:02 -0.6 C 3.76 g/m*3 -0.6 C 0 km/h
2375 28-11-2010 19:16:01 -0.6 C 3.76 g/m*3 -0.6 C 0 km/h
Sensor: Nr:Datum:Temp:Abs-Feuchte:Windchill:Wind:
Aussen-T/F 2376 28-11-2010 19:28:01 -0.8 C 3.67 g/m*3 -0.8 C 0 km/h
2377 28-11-2010 19:40:02 -0.8 C 3.67 g/m*3 -0.8 C 0 km/h
2378 28-11-2010 19:52:02 -0.7 C 3.65 g/m*3 -0.7 C 0 km/h
2379 28-11-2010 20:04:02 -1.1 C 3.55 g/m*3 -1.1 C 0 km/h
2380 28-11-2010 20:16:02 -0.9 C 3.6 g/m*3 -0.9 C 0 km/h
2381 28-11-2010 20:28:02 -0.7 C 3.6 g/m*3 -0.7 C 0 km/h
2382 28-11-2010 20:40:02 -0.6 C 3.53 g/m*3 -0.6 C 0 km/h
2383 28-11-2010 20:52:02 -0.7 C 3.46 g/m*3 -0.7 C 0 km/h
2384 28-11-2010 21:04:02 -0.7 C 3.46 g/m*3 -0.7 C 0 km/h
2385 28-11-2010 21:16:02 -0.9 C 3.46 g/m*3 -0.9 C 0 km/h
2386 28-11-2010 21:28:02 -0.9 C 3.46 g/m*3 -0.9 C 0 km/h
2387 28-11-2010 21:40:02 -0.9 C 3.46 g/m*3 -0.9 C 0 km/h
2388 28-11-2010 21:52:02 -0.9 C 3.46 g/m*3 -0.9 C 0 km/h
2389 28-11-2010 22:04:02 -1 C 3.44 g/m*3 -1 C 0 km/h
2390 28-11-2010 22:16:02 -1 C 3.44 g/m*3 -1 C 0 km/h
2391 28-11-2010 22:28:02 -1.4 C 3.39 g/m*3 -1.4 C 0 km/h
2392 28-11-2010 22:40:03 -2.2 C 3.24 g/m*3 -2.2 C 0 km/h
2393 28-11-2010 22:52:02 -2.4 C 3.28 g/m*3 -2.4 C 0 km/h
2394 28-11-2010 23:04:01 -2.7 C 3.25 g/m*3 -2.7 C 0 km/h
2395 28-11-2010 23:16:02 -2.6 C 3.35 g/m*3 -2.6 C 0 km/h
2396 28-11-2010 23:28:02 -2 C 3.54 g/m*3 -2 C 0 km/h
2397 28-11-2010 23:40:02 -1.5 C 3.54 g/m*3 -1.5 C 0 km/h
2398 28-11-2010 23:52:02 -1.4 C 3.43 g/m*3 -1.4 C 0 km/h
2399 29-11-2010 00:04:02 -1.4 C 3.34 g/m*3 -1.4 C 0 km/h
2400 29-11-2010 00:16:02 -1.4 C 3.34 g/m*3 -1.4 C 0 km/h
Sensor: Nr:Datum:Temp:Abs-Feuchte:Windchill:Wind:
Aussen-T/F 2401 29-11-2010 00:28:02 -1.4 C 3.43 g/m*3 -1.4 C 0 km/h
2402 29-11-2010 00:40:02 -1.5 C 3.41 g/m*3 -1.5 C 0 km/h
2403 29-11-2010 00:52:01 -1.7 C 3.31 g/m*3 -1.7 C 0 km/h
2404 29-11-2010 01:04:02 -1.8 C 3.29 g/m*3 -1.8 C 0 km/h
2405 29-11-2010 01:16:01 -1.9 C 3.27 g/m*3 -1.9 C 0 km/h
2406 29-11-2010 01:28:01 -1.8 C 3.33 g/m*3 -1.8 C 0 km/h
2407 29-11-2010 01:40:02 -1.7 C 3.36 g/m*3 -1.7 C 0 km/h
2408 29-11-2010 01:52:01 -1.8 C 3.29 g/m*3 -1.8 C 0 km/h
2409 29-11-2010 02:04:02 -1.8 C 3.29 g/m*3 -1.8 C 0 km/h
2410 29-11-2010 02:16:02 -1.9 C 3.27 g/m*3 -1.9 C 0 km/h
2411 29-11-2010 02:28:02 -1.9 C 3.27 g/m*3 -1.9 C 0 km/h
2412 29-11-2010 02:40:02 -1.9 C 3.27 g/m*3 -1.9 C 0 km/h
2413 29-11-2010 02:52:01 -1.9 C 3.23 g/m*3 -1.9 C 0 km/h
2414 29-11-2010 03:04:01 -2 C 3.2 g/m*3 -2 C 0 km/h
2415 29-11-2010 03:16:01 -1.9 C 3.23 g/m*3 -1.9 C 0 km/h
2416 29-11-2010 03:28:01 -2 C 3.2 g/m*3 -2 C 0 km/h
2417 29-11-2010 03:40:01 -2 C 3.2 g/m*3 -2 C 0 km/h
2418 29-11-2010 03:52:01 -2.1 C 3.22 g/m*3 -2.1 C 0 km/h
2419 29-11-2010 04:04:01 -2.1 C 3.18 g/m*3 -2.1 C 0 km/h
2420 29-11-2010 04:16:02 -2 C 3.25 g/m*3 -2 C 0 km/h
2421 29-11-2010 04:28:02 -2 C 3.2 g/m*3 -2 C 0 km/h
2422 29-11-2010 04:40:01 -2 C 3.2 g/m*3 -2 C 0 km/h
2423 29-11-2010 04:52:01 -1.9 C 3.27 g/m*3 -1.9 C 0 km/h
2424 29-11-2010 05:04:01 -1.9 C 3.27 g/m*3 -1.9 C 0 km/h
2425 29-11-2010 05:16:02 -1.8 C 3.29 g/m*3 -1.8 C 0 km/h
Sensor: Nr:Datum:Temp:Abs-Feuchte:Windchill:Wind:
Aussen-T/F 2426 29-11-2010 05:28:02 -1.8 C 3.29 g/m*3 -1.8 C 0 km/h
2427 29-11-2010 05:40:01 -1.8 C 3.25 g/m*3 -1.8 C 0 km/h
2428 29-11-2010 05:52:02 -1.8 C 3.25 g/m*3 -1.8 C 0 km/h
2429 29-11-2010 06:04:01 -1.7 C 3.27 g/m*3 -1.7 C 0 km/h
2430 29-11-2010 06:16:01 -1.7 C 3.31 g/m*3 -1.7 C 0 km/h
2431 29-11-2010 06:28:01 -1.7 C 3.31 g/m*3 -1.7 C 0 km/h
2432 29-11-2010 06:40:01 -1.7 C 3.31 g/m*3 -1.7 C 0 km/h
2433 29-11-2010 06:52:01 -1.6 C 3.34 g/m*3 -1.6 C 0 km/h
2434 29-11-2010 07:04:01 -1.6 C 3.34 g/m*3 -1.6 C 0 km/h
2435 29-11-2010 07:16:01 -1.7 C 3.27 g/m*3 -1.7 C 0 km/h
2436 29-11-2010 07:28:01 -1.7 C 3.27 g/m*3 -1.7 C 0 km/h
2437 29-11-2010 07:40:02 -1.7 C 3.27 g/m*3 -1.7 C 0 km/h
2438 29-11-2010 07:52:01 -1.6 C 3.29 g/m*3 -1.6 C 0 km/h
2439 29-11-2010 08:04:02 -1.7 C 3.27 g/m*3 -1.7 C 0 km/h
2440 29-11-2010 08:16:01 -1.6 C 3.34 g/m*3 -1.6 C 0 km/h
2441 29-11-2010 08:28:01 -1.7 C 3.31 g/m*3 -1.7 C 0 km/h
2442 29-11-2010 08:40:01 -1.6 C 3.34 g/m*3 -1.6 C 0 km/h
2443 29-11-2010 08:52:01 -1.4 C 3.39 g/m*3 -1.4 C 0 km/h
2444 29-11-2010 09:04:01 -1.4 C 3.34 g/m*3 -1.4 C 0 km/h
2445 29-11-2010 09:16:01 -1.4 C 3.3 g/m*3 -1.4 C 0 km/h
2446 29-11-2010 09:28:01 -1.4 C 3.3 g/m*3 -1.4 C 0 km/h
2447 29-11-2010 09:40:01 -1.4 C 3.25 g/m*3 -1.4 C 0 km/h
2448 29-11-2010 09:52:01 -1.3 C 3.32 g/m*3 -1.3 C 0 km/h
2449 29-11-2010 10:04:01 -1.2 C 3.39 g/m*3 -1.2 C 0 km/h
2450 29-11-2010 10:16:02 -1.3 C 3.36 g/m*3 -1.3 C 0 km/h
Sensor: Nr:Datum:Temp:Abs-Feuchte:Windchill:Wind:
Aussen-T/F 2451 29-11-2010 10:28:02 -1.3 C 3.36 g/m*3 -1.3 C 0 km/h
2452 29-11-2010 10:40:01 -1.4 C 3.34 g/m*3 -1.4 C 0 km/h
2453 29-11-2010 10:52:02 -1.3 C 3.41 g/m*3 -1.3 C 0 km/h
2454 29-11-2010 11:04:01 -1.2 C 3.43 g/m*3 -1.2 C 0 km/h
2455 29-11-2010 11:16:02 -1.2 C 3.43 g/m*3 -1.2 C 0 km/h
2456 29-11-2010 11:28:02 -1.2 C 3.43 g/m*3 -1.2 C 0 km/h
2457 29-11-2010 11:40:01 -1.2 C 3.48 g/m*3 -1.2 C 0 km/h
2458 29-11-2010 11:52:02 -1.3 C 3.45 g/m*3 -1.3 C 0 km/h
2459 29-11-2010 12:04:01 -1.3 C 3.45 g/m*3 -1.3 C 0 km/h
2460 29-11-2010 12:16:02 -1.3 C 3.5 g/m*3 -1.3 C 0 km/h
2461 29-11-2010 12:28:02 -1.2 C 3.52 g/m*3 -1.2 C 0 km/h
2462 29-11-2010 12:40:01 -1.1 C 3.55 g/m*3 -1.1 C 0 km/h
2463 29-11-2010 12:52:02 -0.8 C 3.58 g/m*3 -0.8 C 0 km/h
2464 29-11-2010 13:04:01 -0.7 C 3.55 g/m*3 -0.7 C 0 km/h
2465 29-11-2010 13:16:01 -0.6 C 3.58 g/m*3 -0.6 C 0 km/h
2466 29-11-2010 13:28:01 -0.8 C 3.58 g/m*3 -0.8 C 0 km/h
2467 29-11-2010 13:40:02 -1.1 C 3.55 g/m*3 -1.1 C 0 km/h
2468 29-11-2010 13:52:01 -1 C 3.62 g/m*3 -1 C 0 km/h
2469 29-11-2010 14:04:02 -1 C 3.62 g/m*3 -1 C 0 km/h
2470 29-11-2010 14:16:01 -1 C 3.66 g/m*3 -1 C 0 km/h
2471 29-11-2010 14:28:01 -1 C 3.66 g/m*3 -1 C 0 km/h
2472 29-11-2010 14:40:02 -1 C 3.71 g/m*3 -1 C 0 km/h
2473 29-11-2010 14:52:01 -1.1 C 3.73 g/m*3 -1.1 C 0 km/h
2474 29-11-2010 15:04:02 -1.1 C 3.73 g/m*3 -1.1 C 0 km/h
2475 29-11-2010 15:16:01 -1.2 C 3.74 g/m*3 -1.2 C 0 km/h
Sensor: Nr:Datum:Temp:Abs-Feuchte:Windchill:Wind:
Aussen-T/F 2476 29-11-2010 15:28:01 -1.4 C 3.69 g/m*3 -1.4 C 0 km/h
2477 29-11-2010 15:40:01 -1.4 C 3.69 g/m*3 -1.4 C 0 km/h
2478 29-11-2010 15:52:01 -1.4 C 3.74 g/m*3 -1.4 C 0 km/h
2479 29-11-2010 16:04:01 -1.4 C 3.74 g/m*3 -1.4 C 0 km/h
2480 29-11-2010 16:16:02 -1.4 C 3.74 g/m*3 -1.4 C 0 km/h
2481 29-11-2010 16:28:02 -1.5 C 3.71 g/m*3 -1.5 C 0 km/h
2482 29-11-2010 16:40:01 -1.5 C 3.71 g/m*3 -1.5 C 0 km/h
2483 29-11-2010 16:52:01 -1.5 C 3.75 g/m*3 -1.5 C 0 km/h
2484 29-11-2010 17:04:01 -1.7 C 3.7 g/m*3 -1.7 C 0 km/h
2485 29-11-2010 17:16:02 -1.7 C 3.7 g/m*3 -1.7 C 0 km/h
2486 29-11-2010 17:28:02 -1.7 C 3.7 g/m*3 -1.7 C 0 km/h
2487 29-11-2010 17:40:01 -1.7 C 3.7 g/m*3 -1.7 C 0 km/h
2488 29-11-2010 17:52:02 -1.6 C 3.73 g/m*3 -1.6 C 0 km/h
2489 29-11-2010 18:04:01 -1.6 C 3.77 g/m*3 -1.6 C 0 km/h
2490 29-11-2010 18:16:01 -1.7 C 3.75 g/m*3 -1.7 C 0 km/h
2491 29-11-2010 18:28:01 -1.7 C 3.75 g/m*3 -1.7 C 0 km/h
2492 29-11-2010 18:40:01 -1.7 C 3.75 g/m*3 -1.7 C 0 km/h
2493 29-11-2010 18:52:01 -1.7 C 3.75 g/m*3 -1.7 C 0 km/h
2494 29-11-2010 19:04:01 -1.7 C 3.75 g/m*3 -1.7 C 0 km/h
2495 29-11-2010 19:16:01 -1.7 C 3.75 g/m*3 -1.7 C 0 km/h
2496 29-11-2010 19:28:01 -1.7 C 3.75 g/m*3 -1.7 C 0 km/h
2497 29-11-2010 19:40:02 -1.7 C 3.75 g/m*3 -1.7 C 0 km/h
2498 29-11-2010 19:52:01 -1.7 C 3.75 g/m*3 -1.7 C 0 km/h
2499 29-11-2010 20:04:02 -1.7 C 3.75 g/m*3 -1.7 C 0 km/h
2500 29-11-2010 20:16:01 -1.7 C 3.79 g/m*3 -1.7 C 0 km/h
Sensor: Nr:Datum:Temp:Abs-Feuchte:Windchill:Wind:
Aussen-T/F 2501 29-11-2010 20:28:01 -1.6 C 3.81 g/m*3 -1.6 C 0 km/h
2502 29-11-2010 20:40:01 -1.6 C 3.81 g/m*3 -1.6 C 0 km/h
2503 29-11-2010 20:52:01 -1.6 C 3.81 g/m*3 -1.6 C 0 km/h
2504 29-11-2010 21:04:01 -1.6 C 3.81 g/m*3 -1.6 C 0 km/h
2505 29-11-2010 21:16:01 -1.6 C 3.81 g/m*3 -1.6 C 0 km/h
2506 29-11-2010 21:28:01 -1.7 C 3.79 g/m*3 -1.7 C 0 km/h
2507 29-11-2010 21:40:01 -1.7 C 3.79 g/m*3 -1.7 C 0 km/h
2508 29-11-2010 21:52:01 -1.7 C 3.79 g/m*3 -1.7 C 0 km/h
2509 29-11-2010 22:04:01 -1.7 C 3.79 g/m*3 -1.7 C 0 km/h
2510 29-11-2010 22:16:01 -1.7 C 3.79 g/m*3 -1.7 C 0 km/h
2511 29-11-2010 22:28:01 -1.9 C 3.74 g/m*3 -1.9 C 0 km/h
2512 29-11-2010 22:40:02 -1.8 C 3.76 g/m*3 -1.8 C 0 km/h
2513 29-11-2010 22:52:01 -1.8 C 3.76 g/m*3 -1.8 C 0 km/h
2514 29-11-2010 23:04:02 -1.8 C 3.76 g/m*3 -1.8 C 0 km/h
2515 29-11-2010 23:16:01 -1.7 C 3.83 g/m*3 -1.7 C 0 km/h
2516 29-11-2010 23:28:01 -1.7 C 3.83 g/m*3 -1.7 C 0 km/h
2517 29-11-2010 23:40:02 -1.6 C 3.86 g/m*3 -1.6 C 0 km/h
2518 29-11-2010 23:52:01 -1.6 C 3.86 g/m*3 -1.6 C 0 km/h
2519 30-11-2010 00:04:02 -1.6 C 3.86 g/m*3 -1.6 C 0 km/h
2520 30-11-2010 00:16:01 -1.7 C 3.83 g/m*3 -1.7 C 0 km/h
2521 30-11-2010 00:28:01 -1.8 C 3.8 g/m*3 -1.8 C 0 km/h
2522 30-11-2010 00:40:01 -1.9 C 3.78 g/m*3 -1.9 C 0 km/h
2523 30-11-2010 00:52:01 -1.9 C 3.78 g/m*3 -1.9 C 0 km/h
2524 30-11-2010 01:04:01 -2 C 3.75 g/m*3 -2 C 0 km/h
2525 30-11-2010 01:16:01 -2 C 3.75 g/m*3 -2 C 0 km/h
Sensor: Nr:Datum:Temp:Abs-Feuchte:Windchill:Wind:
Aussen-T/F 2526 30-11-2010 01:28:01 -2 C 3.75 g/m*3 -2 C 0 km/h
2527 30-11-2010 01:40:01 -1.9 C 3.78 g/m*3 -1.9 C 0 km/h
2528 30-11-2010 01:52:01 -1.9 C 3.78 g/m*3 -1.9 C 0 km/h
2529 30-11-2010 02:04:01 -1.8 C 3.8 g/m*3 -1.8 C 0 km/h
2530 30-11-2010 02:16:02 -1.7 C 3.83 g/m*3 -1.7 C 0 km/h
2531 30-11-2010 02:28:02 -1.7 C 3.83 g/m*3 -1.7 C 0 km/h
2532 30-11-2010 02:40:01 -1.6 C 3.86 g/m*3 -1.6 C 0 km/h
2533 30-11-2010 02:53:05 -1.6 C 3.86 g/m*3 -1.6 C 0 km/h
2534 30-11-2010 03:05:05 -1.6 C 3.86 g/m*3 -1.6 C 0 km/h
2535 30-11-2010 03:17:05 -1.6 C 3.86 g/m*3 -1.6 C 0 km/h
2536 30-11-2010 03:29:05 -1.6 C 3.86 g/m*3 -1.6 C 0 km/h
2537 30-11-2010 03:41:01 -1.8 C 3.8 g/m*3 -1.8 C 0 km/h
2538 30-11-2010 03:53:01 -1.9 C 3.74 g/m*3 -1.9 C 0 km/h
2539 30-11-2010 04:05:02 -2.1 C 3.68 g/m*3 -2.1 C 0 km/h
2540 30-11-2010 04:17:02 -2.3 C 3.63 g/m*3 -2.3 C 0 km/h
2541 30-11-2010 04:29:02 -2.4 C 3.61 g/m*3 -2.4 C 0 km/h
2542 30-11-2010 04:41:02 -2.5 C 3.58 g/m*3 -2.5 C 0 km/h
2543 30-11-2010 04:53:02 -2.5 C 3.58 g/m*3 -2.5 C 0 km/h
2544 30-11-2010 05:05:01 -2.5 C 3.58 g/m*3 -2.5 C 0 km/h
2545 30-11-2010 05:17:02 -2.5 C 3.58 g/m*3 -2.5 C 0 km/h
2546 30-11-2010 05:29:03 -2.5 C 3.58 g/m*3 -2.5 C 0 km/h
2547 30-11-2010 05:41:01 -2.3 C 3.67 g/m*3 -2.3 C 0 km/h
2548 30-11-2010 05:53:02 -2.2 C 3.7 g/m*3 -2.2 C 0 km/h
2549 30-11-2010 06:05:02 -2.2 C 3.7 g/m*3 -2.2 C 0 km/h
2550 30-11-2010 06:17:02 -2.2 C 3.7 g/m*3 -2.2 C 0 km/h
Sensor: Nr:Datum:Temp:Abs-Feuchte:Windchill:Wind:
Aussen-T/F 2551 30-11-2010 06:29:02 -2.3 C 3.63 g/m*3 -2.3 C 0 km/h
2552 30-11-2010 06:41:03 -2.3 C 3.63 g/m*3 -2.3 C 0 km/h
2553 30-11-2010 06:53:02 -2.3 C 3.63 g/m*3 -2.3 C 0 km/h
2554 30-11-2010 07:05:02 -2.3 C 3.63 g/m*3 -2.3 C 0 km/h
2555 30-11-2010 07:17:01 -2.3 C 3.67 g/m*3 -2.3 C 0 km/h
2556 30-11-2010 07:29:01 -2.3 C 3.67 g/m*3 -2.3 C 0 km/h
2557 30-11-2010 07:41:02 -2.3 C 3.67 g/m*3 -2.3 C 0 km/h
2558 30-11-2010 07:53:02 -2.2 C 3.66 g/m*3 -2.2 C 0 km/h
2559 30-11-2010 08:05:02 -2.1 C 3.68 g/m*3 -2.1 C 0 km/h
2560 30-11-2010 08:17:01 -2.1 C 3.68 g/m*3 -2.1 C 0 km/h
2561 30-11-2010 08:29:01 -2.1 C 3.68 g/m*3 -2.1 C 0 km/h
2562 30-11-2010 08:41:02 -2.1 C 3.68 g/m*3 -2.1 C 0 km/h
2563 30-11-2010 08:53:02 -2 C 3.58 g/m*3 -2 C 0 km/h
2564 30-11-2010 09:05:02 -2 C 3.58 g/m*3 -2 C 0 km/h
2565 30-11-2010 09:17:02 -2 C 3.58 g/m*3 -2 C 0 km/h
2566 30-11-2010 09:29:02 -2 C 3.58 g/m*3 -2 C 0 km/h
2567 30-11-2010 09:41:02 -2 C 3.58 g/m*3 -2 C 0 km/h
2568 30-11-2010 09:53:01 -2 C 3.58 g/m*3 -2 C 0 km/h
2569 30-11-2010 10:05:02 -2 C 3.58 g/m*3 -2 C 0 km/h
2570 30-11-2010 10:17:02 -2 C 3.58 g/m*3 -2 C 0 km/h
2571 30-11-2010 10:29:02 -1.7 C 3.49 g/m*3 -1.7 C 0 km/h
2572 30-11-2010 10:41:01 -1.8 C 3.42 g/m*3 -1.8 C 0 km/h
2573 30-11-2010 10:53:02 -1.6 C 3.47 g/m*3 -1.6 C 0 km/h
2574 30-11-2010 11:05:01 -1.6 C 3.47 g/m*3 -1.6 C 0 km/h
2575 30-11-2010 11:17:02 -1.6 C 3.47 g/m*3 -1.6 C 0 km/h
Sensor: Nr:Datum:Temp:Abs-Feuchte:Windchill:Wind:
Aussen-T/F 2576 30-11-2010 11:29:02 -1.6 C 3.47 g/m*3 -1.6 C 0 km/h
2577 30-11-2010 11:41:01 -1.3 C 3.41 g/m*3 -1.3 C 0 km/h
2578 30-11-2010 11:53:02 -1.4 C 3.39 g/m*3 -1.4 C 0 km/h
2579 30-11-2010 12:05:02 -1.3 C 3.32 g/m*3 -1.3 C 0 km/h
2580 30-11-2010 12:17:02 -1.2 C 3.34 g/m*3 -1.2 C 0 km/h
2581 30-11-2010 12:29:02 -1.3 C 3.23 g/m*3 -1.3 C 0 km/h
2582 30-11-2010 12:41:02 -1.3 C 3.28 g/m*3 -1.3 C 0 km/h
2583 30-11-2010 12:53:01 -1.4 C 3.21 g/m*3 -1.4 C 0 km/h
2584 30-11-2010 13:05:02 -1.2 C 3.25 g/m*3 -1.2 C 0 km/h
2585 30-11-2010 13:17:01 -1.1 C 3.28 g/m*3 -1.1 C 0 km/h
2586 30-11-2010 13:29:01 -1 C 3.25 g/m*3 -1 C 0 km/h
2587 30-11-2010 13:41:02 -1 C 3.25 g/m*3 -1 C 0 km/h
2588 30-11-2010 13:53:01 -1.1 C 3.19 g/m*3 -1.1 C 0 km/h
2589 30-11-2010 14:05:01 -1.2 C 3.17 g/m*3 -1.2 C 0 km/h
2590 30-11-2010 14:17:01 -1.3 C 3.19 g/m*3 -1.3 C 0 km/h
2591 30-11-2010 14:29:01 -1.4 C 3.21 g/m*3 -1.4 C 0 km/h
2592 30-11-2010 14:41:02 -1.3 C 3.23 g/m*3 -1.3 C 0 km/h
2593 30-11-2010 14:53:02 -1.4 C 3.21 g/m*3 -1.4 C 0 km/h
2594 30-11-2010 15:05:02 -1.4 C 3.21 g/m*3 -1.4 C 0 km/h
2595 30-11-2010 15:17:02 -1.5 C 3.23 g/m*3 -1.5 C 0 km/h
2596 30-11-2010 15:29:02 -1.5 C 3.23 g/m*3 -1.5 C 0 km/h
2597 30-11-2010 15:41:02 -1.5 C 3.23 g/m*3 -1.5 C 0 km/h
2598 30-11-2010 15:53:01 -1.5 C 3.23 g/m*3 -1.5 C 0 km/h
2599 30-11-2010 16:05:02 -1.5 C 3.23 g/m*3 -1.5 C 0 km/h
2600 30-11-2010 16:17:01 -1.5 C 3.23 g/m*3 -1.5 C 0 km/h
Sensor: Nr:Datum:Temp:Abs-Feuchte:Windchill:Wind:
Aussen-T/F 2601 30-11-2010 16:29:01 -1.5 C 3.23 g/m*3 -1.5 C 0 km/h
2602 30-11-2010 16:41:01 -1.5 C 3.23 g/m*3 -1.5 C 0 km/h
2603 30-11-2010 16:53:01 -1.5 C 3.23 g/m*3 -1.5 C 0 km/h
2604 30-11-2010 17:05:01 -1.5 C 3.23 g/m*3 -1.5 C 0 km/h
2605 30-11-2010 17:17:01 -2 C 3.25 g/m*3 -2 C 0 km/h
2606 30-11-2010 17:29:01 -1.9 C 3.23 g/m*3 -1.9 C 0 km/h
2607 30-11-2010 17:41:01 -2.1 C 3.18 g/m*3 -2.1 C 0 km/h
2608 30-11-2010 17:53:01 -2.1 C 3.18 g/m*3 -2.1 C 0 km/h
2609 30-11-2010 18:05:01 -2.1 C 3.18 g/m*3 -2.1 C 0 km/h
2610 30-11-2010 18:17:02 -2.1 C 3.18 g/m*3 -2.1 C 0 km/h
2611 30-11-2010 18:29:02 -2.1 C 3.18 g/m*3 -2.1 C 0 km/h
2612 30-11-2010 18:41:01 -2.1 C 3.18 g/m*3 -2.1 C 0 km/h
2613 30-11-2010 18:53:03 -2.1 C 3.18 g/m*3 -2.1 C 0 km/h
2614 30-11-2010 19:05:02 -2.1 C 3.18 g/m*3 -2.1 C 0 km/h
2615 30-11-2010 19:17:02 -2.1 C 3.18 g/m*3 -2.1 C 0 km/h
2616 30-11-2010 19:29:02 -2.1 C 3.18 g/m*3 -2.1 C 0 km/h
2617 30-11-2010 19:41:02 -2.1 C 3.18 g/m*3 -2.1 C 0 km/h
2618 30-11-2010 19:53:02 -2.1 C 3.14 g/m*3 -2.1 C 0 km/h
2619 30-11-2010 20:05:02 -2.1 C 3.14 g/m*3 -2.1 C 0 km/h
2620 30-11-2010 20:17:02 -2.2 C 3.12 g/m*3 -2.2 C 0 km/h
2621 30-11-2010 20:29:02 -2.3 C 3.1 g/m*3 -2.3 C 0 km/h
2622 30-11-2010 20:41:02 -2.4 C 3.07 g/m*3 -2.4 C 0 km/h
2623 30-11-2010 20:53:02 -2.3 C 3.14 g/m*3 -2.3 C 0 km/h
2624 30-11-2010 21:05:01 -2.4 C 3.07 g/m*3 -2.4 C 0 km/h
2625 30-11-2010 21:17:01 -2.4 C 3.07 g/m*3 -2.4 C 0 km/h
Sensor: Nr:Datum:Temp:Abs-Feuchte:Windchill:Wind:
Aussen-T/F 2626 30-11-2010 21:29:01 -2.4 C 3.07 g/m*3 -2.4 C 0 km/h
2627 30-11-2010 21:41:02 -2.4 C 3.03 g/m*3 -2.4 C 0 km/h
2628 30-11-2010 21:53:02 -2.4 C 2.99 g/m*3 -2.4 C 0 km/h
2629 30-11-2010 22:05:02 -2.5 C 2.97 g/m*3 -2.5 C 0 km/h
2630 30-11-2010 22:18:02 -2.6 C 2.95 g/m*3 -2.6 C 0 km/h
2631 30-11-2010 22:30:02 -2.6 C 2.95 g/m*3 -2.6 C 0 km/h
2632 30-11-2010 22:42:02 -2.6 C 2.91 g/m*3 -2.6 C 0 km/h
2633 30-11-2010 22:54:02 -2.6 C 2.91 g/m*3 -2.6 C 0 km/h
2634 30-11-2010 23:06:03 -2.6 C 2.87 g/m*3 -2.6 C 0 km/h
2635 30-11-2010 23:18:03 -2.7 C 2.85 g/m*3 -2.7 C 0 km/h
2636 30-11-2010 23:30:03 -2.8 C 2.83 g/m*3 -2.8 C 0 km/h
2637 30-11-2010 23:42:03 -2.8 C 2.83 g/m*3 -2.8 C 0 km/h
2638 30-11-2010 23:54:03 -2.9 C 2.77 g/m*3 -2.9 C 0 km/h
2639 01-12-2010 00:06:03 -2.9 C 2.81 g/m*3 -2.9 C 0 km/h
2640 01-12-2010 00:18:03 -3 C 2.75 g/m*3 -3 C 0 km/h
2641 01-12-2010 00:30:03 -3 C 2.75 g/m*3 -3 C 0 km/h
2642 01-12-2010 00:42:03 -3 C 2.75 g/m*3 -3 C 0 km/h
2643 01-12-2010 00:54:03 -3.1 C 2.73 g/m*3 -3.1 C 0 km/h
2644 01-12-2010 01:06:03 -3.2 C 2.71 g/m*3 -3.2 C 0 km/h
2645 01-12-2010 01:18:03 -3.2 C 2.71 g/m*3 -3.2 C 0 km/h
2646 01-12-2010 01:30:03 -3.3 C 2.65 g/m*3 -3.3 C 0 km/h
2647 01-12-2010 01:42:03 -3.3 C 2.65 g/m*3 -3.3 C 0 km/h
2648 01-12-2010 01:54:03 -3.5 C 2.62 g/m*3 -3.5 C 0 km/h
2649 01-12-2010 02:06:03 -3.6 C 2.6 g/m*3 -3.6 C 0 km/h
2650 01-12-2010 02:18:03 -3.8 C 2.52 g/m*3 -3.8 C 0 km/h
Sensor: Nr:Datum:Temp:Abs-Feuchte:Windchill:Wind:
Aussen-T/F 2651 01-12-2010 02:30:03 -4 C 2.49 g/m*3 -4 C 0 km/h
2652 01-12-2010 02:42:03 -4 C 2.49 g/m*3 -4 C 0 km/h
2653 01-12-2010 02:54:03 -4 C 2.45 g/m*3 -4 C 0 km/h
2654 01-12-2010 03:06:03 -4.1 C 2.43 g/m*3 -4.1 C 0 km/h
2655 01-12-2010 03:18:03 -4.2 C 2.42 g/m*3 -4.2 C 0 km/h
2656 01-12-2010 03:30:04 -4.3 C 2.36 g/m*3 -4.3 C 0 km/h
2657 01-12-2010 03:42:04 -4.5 C 2.33 g/m*3 -4.5 C 0 km/h
2658 01-12-2010 03:54:04 -4.6 C 2.28 g/m*3 -4.6 C 0 km/h
2659 01-12-2010 04:06:04 -4.8 C 2.28 g/m*3 -4.8 C 0 km/h
2660 01-12-2010 04:18:04 -4.9 C 2.26 g/m*3 -4.9 C 0 km/h
2661 01-12-2010 04:30:04 -5 C 2.21 g/m*3 -5 C 0 km/h
2662 01-12-2010 04:42:04 -5.1 C 2.2 g/m*3 -5.1 C 0 km/h
2663 01-12-2010 04:54:04 -5.2 C 2.22 g/m*3 -5.2 C 0 km/h
2664 01-12-2010 05:06:04 -5.3 C 2.17 g/m*3 -5.3 C 0 km/h
2665 01-12-2010 05:18:04 -5.4 C 2.18 g/m*3 -5.4 C 0 km/h
2666 01-12-2010 05:30:04 -5.4 C 2.18 g/m*3 -5.4 C 0 km/h
2667 01-12-2010 05:42:04 -5.5 C 2.17 g/m*3 -5.5 C 0 km/h
2668 01-12-2010 05:54:04 -5.4 C 2.22 g/m*3 -5.4 C 0 km/h
2669 01-12-2010 06:06:04 -5.4 C 2.18 g/m*3 -5.4 C 0 km/h
2670 01-12-2010 06:18:04 -5.4 C 2.18 g/m*3 -5.4 C 0 km/h
2671 01-12-2010 06:30:04 -5.6 C 2.12 g/m*3 -5.6 C 0 km/h
2672 01-12-2010 06:42:04 -5.6 C 2.12 g/m*3 -5.6 C 0 km/h
2673 01-12-2010 06:54:04 -5.8 C 2.09 g/m*3 -5.8 C 0 km/h
2674 01-12-2010 07:06:04 -5.8 C 2.09 g/m*3 -5.8 C 0 km/h
2675 01-12-2010 07:18:04 -5.8 C 2.09 g/m*3 -5.8 C 0 km/h
Sensor: Nr:Datum:Temp:Abs-Feuchte:Windchill:Wind:
Aussen-T/F 2676 01-12-2010 07:30:04 -5.9 C 2.04 g/m*3 -5.9 C 0 km/h
2677 01-12-2010 07:42:03 -6 C 2.03 g/m*3 -6 C 0 km/h
2678 01-12-2010 07:54:02 -6 C 2.03 g/m*3 -6 C 0 km/h
2679 01-12-2010 08:06:02 -6.1 C 1.98 g/m*3 -6.1 C 0 km/h
2680 01-12-2010 08:18:02 -6.2 C 1.97 g/m*3 -6.2 C 0 km/h
2681 01-12-2010 08:30:02 -6.2 C 1.97 g/m*3 -6.2 C 0 km/h
2682 01-12-2010 08:42:02 -6.4 C 1.91 g/m*3 -6.4 C 0 km/h
2683 01-12-2010 08:54:01 -6.4 C 1.91 g/m*3 -6.4 C 0 km/h
2684 01-12-2010 09:06:02 -6.2 C 1.94 g/m*3 -6.2 C 0 km/h
2685 01-12-2010 09:18:01 -6.1 C 1.92 g/m*3 -6.1 C 0 km/h
2686 01-12-2010 09:30:01 -6 C 1.9 g/m*3 -6 C 0 km/h
2687 01-12-2010 09:42:02 -5.8 C 1.93 g/m*3 -5.8 C 0 km/h
2688 01-12-2010 09:54:02 -5.7 C 1.94 g/m*3 -5.7 C 0 km/h
2689 01-12-2010 10:06:02 -5.6 C 1.96 g/m*3 -5.6 C 0 km/h
2690 01-12-2010 10:18:01 -5.5 C 1.97 g/m*3 -5.5 C 0 km/h
2691 01-12-2010 10:30:01 -5.4 C 1.95 g/m*3 -5.4 C 0 km/h
2692 01-12-2010 10:42:02 -5.6 C 1.92 g/m*3 -5.6 C 0 km/h
2693 01-12-2010 10:54:01 -5.6 C 1.96 g/m*3 -5.6 C 0 km/h
2694 01-12-2010 11:06:02 -5.5 C 1.97 g/m*3 -5.5 C 0 km/h
2695 01-12-2010 11:18:02 -5.4 C 1.98 g/m*3 -5.4 C 0 km/h
2696 01-12-2010 11:30:02 -5.4 C 1.98 g/m*3 -5.4 C 0 km/h
2697 01-12-2010 11:42:02 -5.6 C 1.96 g/m*3 -5.6 C 0 km/h
2698 01-12-2010 11:54:02 -5.5 C 1.97 g/m*3 -5.5 C 0 km/h
2699 01-12-2010 12:06:01 -5.6 C 1.96 g/m*3 -5.6 C 0 km/h
2700 01-12-2010 12:18:02 -5.7 C 1.94 g/m*3 -5.7 C 0 km/h
Sensor: Nr:Datum:Temp:Abs-Feuchte:Windchill:Wind:
Aussen-T/F 2701 01-12-2010 12:30:03 -5.8 C 1.93 g/m*3 -5.8 C 0 km/h
2702 01-12-2010 12:42:01 -6 C 1.9 g/m*3 -6 C 0 km/h
2703 01-12-2010 12:54:02 -6 C 1.9 g/m*3 -6 C 0 km/h
2704 01-12-2010 13:06:01 -6 C 1.87 g/m*3 -6 C 0 km/h
2705 01-12-2010 13:18:01 -6.1 C 1.89 g/m*3 -6.1 C 0 km/h
2706 01-12-2010 13:30:01 -6.1 C 1.86 g/m*3 -6.1 C 0 km/h
2707 01-12-2010 13:42:02 -6.1 C 1.82 g/m*3 -6.1 C 0 km/h
2708 01-12-2010 13:54:02 -6.2 C 1.81 g/m*3 -6.2 C 0 km/h
2709 01-12-2010 14:06:02 -6.2 C 1.81 g/m*3 -6.2 C 0 km/h
2710 01-12-2010 14:18:02 -6.2 C 1.78 g/m*3 -6.2 C 0 km/h
2711 01-12-2010 14:30:02 -6.2 C 1.78 g/m*3 -6.2 C 0 km/h
2712 01-12-2010 14:42:02 -6.1 C 1.79 g/m*3 -6.1 C 0 km/h
2713 01-12-2010 14:54:02 -6.2 C 1.78 g/m*3 -6.2 C 0 km/h
2714 01-12-2010 15:06:02 -6.2 C 1.78 g/m*3 -6.2 C 0 km/h
2715 01-12-2010 15:18:02 -6.2 C 1.78 g/m*3 -6.2 C 0 km/h
2716 01-12-2010 15:30:02 -6.3 C 1.77 g/m*3 -6.3 C 0 km/h
2717 01-12-2010 15:42:02 -6.3 C 1.8 g/m*3 -6.3 C 0 km/h
2718 01-12-2010 15:54:01 -6.4 C 1.78 g/m*3 -6.4 C 0 km/h
2719 01-12-2010 16:06:01 -6.5 C 1.74 g/m*3 -6.5 C 0 km/h
2720 01-12-2010 16:18:02 -6.6 C 1.73 g/m*3 -6.6 C 0 km/h
2721 01-12-2010 16:30:02 -6.6 C 1.76 g/m*3 -6.6 C 0 km/h
2722 01-12-2010 16:42:01 -6.6 C 1.76 g/m*3 -6.6 C 0 km/h
2723 01-12-2010 16:54:01 -6.6 C 1.76 g/m*3 -6.6 C 0 km/h
2724 01-12-2010 17:06:01 -6.6 C 1.79 g/m*3 -6.6 C 0 km/h
2725 01-12-2010 17:18:02 -6.6 C 1.79 g/m*3 -6.6 C 0 km/h
Sensor: Nr:Datum:Temp:Abs-Feuchte:Windchill:Wind:
Aussen-T/F 2726 01-12-2010 17:30:02 -6.6 C 1.79 g/m*3 -6.6 C 0 km/h
2727 01-12-2010 17:42:01 -6.6 C 1.79 g/m*3 -6.6 C 0 km/h
2728 01-12-2010 17:54:03 -6.5 C 1.83 g/m*3 -6.5 C 0 km/h
2729 01-12-2010 18:06:02 -6.5 C 1.83 g/m*3 -6.5 C 0 km/h
2730 01-12-2010 18:18:02 -6.5 C 1.83 g/m*3 -6.5 C 0 km/h
2731 01-12-2010 18:30:02 -6.6 C 1.79 g/m*3 -6.6 C 0 km/h
2732 01-12-2010 18:42:02 -6.5 C 1.83 g/m*3 -6.5 C 0 km/h
2733 01-12-2010 18:54:02 -6.6 C 1.82 g/m*3 -6.6 C 0 km/h
2734 01-12-2010 19:06:01 -6.6 C 1.82 g/m*3 -6.6 C 0 km/h
2735 01-12-2010 19:18:02 -6.5 C 1.8 g/m*3 -6.5 C 0 km/h
2736 01-12-2010 19:30:02 -6.6 C 1.82 g/m*3 -6.6 C 0 km/h
2737 01-12-2010 19:42:02 -6.6 C 1.82 g/m*3 -6.6 C 0 km/h
2738 01-12-2010 19:54:02 -6.6 C 1.79 g/m*3 -6.6 C 0 km/h
2739 01-12-2010 20:06:03 -6.6 C 1.79 g/m*3 -6.6 C 0 km/h
2740 01-12-2010 20:18:02 -6.6 C 1.76 g/m*3 -6.6 C 0 km/h
2741 01-12-2010 20:30:02 -6.7 C 1.75 g/m*3 -6.7 C 0 km/h
2742 01-12-2010 20:42:02 -6.7 C 1.75 g/m*3 -6.7 C 0 km/h
2743 01-12-2010 20:54:01 -6.6 C 1.82 g/m*3 -6.6 C 0 km/h
2744 01-12-2010 21:06:02 -6.6 C 1.82 g/m*3 -6.6 C 0 km/h
2745 01-12-2010 21:18:01 -6.8 C 1.73 g/m*3 -6.8 C 0 km/h
2746 01-12-2010 21:30:01 -6.8 C 1.7 g/m*3 -6.8 C 0 km/h
2747 01-12-2010 21:42:01 -6.7 C 1.75 g/m*3 -6.7 C 0 km/h
2748 01-12-2010 21:54:01 -6.8 C 1.7 g/m*3 -6.8 C 0 km/h
2749 01-12-2010 22:06:01 -6.8 C 1.67 g/m*3 -6.8 C 0 km/h
2750 01-12-2010 22:18:02 -6.8 C 1.7 g/m*3 -6.8 C 0 km/h
Sensor: Nr:Datum:Temp:Abs-Feuchte:Windchill:Wind:
Aussen-T/F 2751 01-12-2010 22:30:02 -6.9 C 1.72 g/m*3 -6.9 C 0 km/h
2752 01-12-2010 22:42:01 -6.9 C 1.75 g/m*3 -6.9 C 0 km/h
2753 01-12-2010 22:54:02 -6.9 C 1.78 g/m*3 -6.9 C 0 km/h
2754 01-12-2010 23:06:02 -7 C 1.74 g/m*3 -7 C 0 km/h
2755 01-12-2010 23:18:02 -7 C 1.77 g/m*3 -7 C 0 km/h
2756 01-12-2010 23:30:02 -7 C 1.8 g/m*3 -7 C 0 km/h
2757 01-12-2010 23:42:03 -7.1 C 1.78 g/m*3 -7.1 C 0 km/h
2758 01-12-2010 23:54:02 -7.2 C 1.77 g/m*3 -7.2 C 0 km/h
2759 02-12-2010 00:06:02 -7.1 C 1.81 g/m*3 -7.1 C 0 km/h
2760 02-12-2010 00:18:01 -7.1 C 1.81 g/m*3 -7.1 C 0 km/h
2761 02-12-2010 00:30:01 -7.1 C 1.84 g/m*3 -7.1 C 0 km/h
2762 02-12-2010 00:42:02 -7.2 C 1.8 g/m*3 -7.2 C 0 km/h
2763 02-12-2010 00:54:02 -7.2 C 1.8 g/m*3 -7.2 C 0 km/h
2764 02-12-2010 01:06:02 -7.2 C 1.8 g/m*3 -7.2 C 0 km/h
2765 02-12-2010 01:18:02 -7.1 C 1.81 g/m*3 -7.1 C 0 km/h
2766 02-12-2010 01:30:02 -7.1 C 1.78 g/m*3 -7.1 C 0 km/h
2767 02-12-2010 01:42:02 -7.1 C 1.78 g/m*3 -7.1 C 0 km/h
2768 02-12-2010 01:54:02 -7.1 C 1.75 g/m*3 -7.1 C 0 km/h
2769 02-12-2010 02:06:02 -7.2 C 1.74 g/m*3 -7.2 C 0 km/h
2770 02-12-2010 02:18:03 -7.3 C 1.67 g/m*3 -7.3 C 0 km/h
2771 02-12-2010 02:30:03 -7.3 C 1.7 g/m*3 -7.3 C 0 km/h
2772 02-12-2010 02:42:02 -7.3 C 1.7 g/m*3 -7.3 C 0 km/h
2773 02-12-2010 02:55:04 -7.3 C 1.73 g/m*3 -7.3 C 0 km/h
2774 02-12-2010 03:07:04 -7.3 C 1.73 g/m*3 -7.3 C 0 km/h
2775 02-12-2010 03:19:04 -7.2 C 1.77 g/m*3 -7.2 C 0 km/h
Sensor: Nr:Datum:Temp:Abs-Feuchte:Windchill:Wind:
Aussen-T/F 2776 02-12-2010 03:31:01 -7.3 C 1.76 g/m*3 -7.3 C 0 km/h
2777 02-12-2010 03:43:01 -7.4 C 1.72 g/m*3 -7.4 C 0 km/h
2778 02-12-2010 03:55:01 -7.4 C 1.72 g/m*3 -7.4 C 0 km/h
2779 02-12-2010 04:07:01 -7.5 C 1.73 g/m*3 -7.5 C 0 km/h
2780 02-12-2010 04:19:01 -7.5 C 1.76 g/m*3 -7.5 C 0 km/h
2781 02-12-2010 04:31:01 -7.5 C 1.79 g/m*3 -7.5 C 0 km/h
2782 02-12-2010 04:43:01 -7.5 C 1.82 g/m*3 -7.5 C 0 km/h
2783 02-12-2010 04:55:01 -7.5 C 1.79 g/m*3 -7.5 C 0 km/h
2784 02-12-2010 05:07:01 -7.6 C 1.77 g/m*3 -7.6 C 0 km/h
2785 02-12-2010 05:19:02 -7.6 C 1.77 g/m*3 -7.6 C 0 km/h
2786 02-12-2010 05:31:01 -7.6 C 1.77 g/m*3 -7.6 C 0 km/h
2787 02-12-2010 05:43:01 -7.6 C 1.83 g/m*3 -7.6 C 0 km/h
2788 02-12-2010 05:55:03 -7.8 C 1.78 g/m*3 -7.8 C 0 km/h
2789 02-12-2010 06:07:02 -7.8 C 1.8 g/m*3 -7.8 C 0 km/h
2790 02-12-2010 06:19:02 -7.7 C 1.85 g/m*3 -7.7 C 0 km/h
2791 02-12-2010 06:31:02 -7.8 C 1.83 g/m*3 -7.8 C 0 km/h
2792 02-12-2010 06:43:02 -7.8 C 1.83 g/m*3 -7.8 C 0 km/h
2793 02-12-2010 06:55:02 -7.7 C 1.87 g/m*3 -7.7 C 0 km/h
2794 02-12-2010 07:07:01 -7.7 C 1.9 g/m*3 -7.7 C 0 km/h
2795 02-12-2010 07:19:02 -7.7 C 1.9 g/m*3 -7.7 C 0 km/h
2796 02-12-2010 07:31:02 -7.8 C 1.86 g/m*3 -7.8 C 0 km/h
2797 02-12-2010 07:43:02 -7.7 C 1.9 g/m*3 -7.7 C 0 km/h
2798 02-12-2010 07:55:02 -7.7 C 1.9 g/m*3 -7.7 C 0 km/h
2799 02-12-2010 08:07:02 -7.7 C 1.9 g/m*3 -7.7 C 0 km/h
2800 02-12-2010 08:19:02 -7.7 C 1.87 g/m*3 -7.7 C 0 km/h
Sensor: Nr:Datum:Temp:Abs-Feuchte:Windchill:Wind:
Aussen-T/F 2801 02-12-2010 08:31:03 -7.7 C 1.87 g/m*3 -7.7 C 0 km/h
2802 02-12-2010 08:43:03 -7.8 C 1.83 g/m*3 -7.8 C 0 km/h
2803 02-12-2010 08:55:02 -7.6 C 1.86 g/m*3 -7.6 C 0 km/h
2804 02-12-2010 09:07:01 -7.4 C 1.92 g/m*3 -7.4 C 0 km/h
2805 02-12-2010 09:19:01 -7.1 C 1.96 g/m*3 -7.1 C 0 km/h
2806 02-12-2010 09:31:02 -7.2 C 1.94 g/m*3 -7.2 C 0 km/h
2807 02-12-2010 09:43:02 -7.1 C 1.96 g/m*3 -7.1 C 0 km/h
2808 02-12-2010 09:55:02 -6.7 C 2.02 g/m*3 -6.7 C 0 km/h
2809 02-12-2010 10:07:02 -6.5 C 2.02 g/m*3 -6.5 C 0 km/h
2810 02-12-2010 10:19:02 -6.3 C 1.98 g/m*3 -6.3 C 0 km/h
2811 02-12-2010 10:31:02 -6.1 C 1.98 g/m*3 -6.1 C 0 km/h
2812 02-12-2010 10:43:02 -6 C 1.96 g/m*3 -6 C 0 km/h
2813 02-12-2010 10:55:02 -5.8 C 2.02 g/m*3 -5.8 C 0 km/h
2814 02-12-2010 11:07:02 -5.8 C 2.02 g/m*3 -5.8 C 0 km/h
2815 02-12-2010 11:19:01 -6.1 C 1.95 g/m*3 -6.1 C 0 km/h
2816 02-12-2010 11:31:02 -5.2 C 2.11 g/m*3 -5.2 C 0 km/h
2817 02-12-2010 11:43:02 -5.6 C 2.02 g/m*3 -5.6 C 0 km/h
2818 02-12-2010 11:55:01 -5.4 C 2.05 g/m*3 -5.4 C 0 km/h
2819 02-12-2010 12:07:02 -6.2 C 1.97 g/m*3 -6.2 C 0 km/h
2820 02-12-2010 12:19:02 -6.2 C 2.03 g/m*3 -6.2 C 0 km/h
2821 02-12-2010 12:31:01 -6.1 C 2.04 g/m*3 -6.1 C 0 km/h
2822 02-12-2010 12:43:01 -6.1 C 2.08 g/m*3 -6.1 C 0 km/h
2823 02-12-2010 12:55:02 -5.8 C 2.15 g/m*3 -5.8 C 0 km/h
2824 02-12-2010 13:07:01 -5.8 C 2.12 g/m*3 -5.8 C 0 km/h
2825 02-12-2010 13:19:02 -5.7 C 2.14 g/m*3 -5.7 C 0 km/h
Sensor: Nr:Datum:Temp:Abs-Feuchte:Windchill:Wind:
Aussen-T/F 2826 02-12-2010 13:31:01 -5.3 C 2.2 g/m*3 -5.3 C 0 km/h
2827 02-12-2010 13:43:01 -4.5 C 2.26 g/m*3 -4.5 C 0 km/h
2828 02-12-2010 13:55:02 -5.2 C 2.05 g/m*3 -5.2 C 0 km/h
2829 02-12-2010 14:07:02 -5.1 C 2.13 g/m*3 -5.1 C 0 km/h
2830 02-12-2010 14:19:02 -5.6 C 2.12 g/m*3 -5.6 C 0 km/h
2831 02-12-2010 14:31:02 -6 C 2.06 g/m*3 -6 C 0 km/h
2832 02-12-2010 14:43:02 -6 C 2.15 g/m*3 -6 C 0 km/h
2833 02-12-2010 14:55:02 -5.3 C 2.33 g/m*3 -5.3 C 0 km/h
2834 02-12-2010 15:07:02 -4.9 C 2.37 g/m*3 -4.9 C 0 km/h
2835 02-12-2010 15:19:01 -4.6 C 2.31 g/m*3 -4.6 C 0 km/h
2836 02-12-2010 15:31:02 -4.6 C 2.24 g/m*3 -4.6 C 0 km/h
2837 02-12-2010 15:43:02 -4.8 C 2.21 g/m*3 -4.8 C 0 km/h
2838 02-12-2010 15:55:02 -4.8 C 2.25 g/m*3 -4.8 C 0 km/h
2839 02-12-2010 16:07:02 -4.9 C 2.26 g/m*3 -4.9 C 0 km/h
2840 02-12-2010 16:19:01 -5.1 C 2.26 g/m*3 -5.1 C 0 km/h
2841 02-12-2010 16:31:02 -5.1 C 2.3 g/m*3 -5.1 C 0 km/h
2842 02-12-2010 16:43:02 -5.2 C 2.32 g/m*3 -5.2 C 0 km/h
2843 02-12-2010 16:55:02 -5.3 C 2.37 g/m*3 -5.3 C 0 km/h
2844 02-12-2010 17:07:02 -5.7 C 2.3 g/m*3 -5.7 C 0 km/h
2845 02-12-2010 17:19:02 -6.9 C 2.11 g/m*3 -6.9 C 0 km/h
2846 02-12-2010 17:31:02 -7.9 C 2.04 g/m*3 -7.9 C 0 km/h
2847 02-12-2010 17:43:02 -8.2 C 2.05 g/m*3 -8.2 C 0 km/h
2848 02-12-2010 17:55:01 -8.1 C 2.12 g/m*3 -8.1 C 0 km/h
2849 02-12-2010 18:07:02 -8.2 C 2.13 g/m*3 -8.2 C 0 km/h
2850 02-12-2010 18:19:02 -8 C 2.19 g/m*3 -8 C 0 km/h
Sensor: Nr:Datum:Temp:Abs-Feuchte:Windchill:Wind:
Aussen-T/F 2851 02-12-2010 18:31:02 -7.8 C 2.25 g/m*3 -7.8 C 0 km/h
2852 02-12-2010 18:43:02 -8.2 C 2.18 g/m*3 -8.2 C 0 km/h
2853 02-12-2010 18:55:02 -7.9 C 2.23 g/m*3 -7.9 C 0 km/h
2854 02-12-2010 19:07:01 -7.9 C 2.26 g/m*3 -7.9 C 0 km/h
2855 02-12-2010 19:19:02 -7.9 C 2.26 g/m*3 -7.9 C 0 km/h
2856 02-12-2010 19:31:02 -8.6 C 2.12 g/m*3 -8.6 C 0 km/h
2857 02-12-2010 19:43:02 -8.9 C 2.07 g/m*3 -8.9 C 0 km/h
2858 02-12-2010 19:55:02 -8.8 C 2.09 g/m*3 -8.8 C 0 km/h
2859 02-12-2010 20:07:01 -9.4 C 2 g/m*3 -9.4 C 0 km/h
2860 02-12-2010 20:19:01 -9 C 2.06 g/m*3 -9 C 0 km/h
2861 02-12-2010 20:31:02 -7.7 C 2.32 g/m*3 -7.7 C 0 km/h
2862 02-12-2010 20:43:02 -7.2 C 2.41 g/m*3 -7.2 C 0 km/h
2863 02-12-2010 20:55:02 -6.9 C 2.49 g/m*3 -6.9 C 0 km/h
2864 02-12-2010 21:07:02 -6.9 C 2.46 g/m*3 -6.9 C 0 km/h
2865 02-12-2010 21:19:02 -7 C 2.44 g/m*3 -7 C 0 km/h
2866 02-12-2010 21:31:02 -7.5 C 2.33 g/m*3 -7.5 C 0 km/h
2867 02-12-2010 21:43:02 -7.9 C 2.26 g/m*3 -7.9 C 0 km/h
2868 02-12-2010 21:55:02 -8.4 C 2.15 g/m*3 -8.4 C 0 km/h
2869 02-12-2010 22:07:02 -8.2 C 2.21 g/m*3 -8.2 C 0 km/h
2870 02-12-2010 22:20:04 -8.5 C 2.13 g/m*3 -8.5 C 0 km/h
2871 02-12-2010 22:32:04 -8.9 C 2.07 g/m*3 -8.9 C 0 km/h
2872 02-12-2010 22:44:04 -8.9 C 2.05 g/m*3 -8.9 C 0 km/h
2873 02-12-2010 22:56:04 -8.2 C 2.18 g/m*3 -8.2 C 0 km/h
2874 02-12-2010 23:08:04 -8.3 C 2.17 g/m*3 -8.3 C 0 km/h
2875 02-12-2010 23:20:04 -7.8 C 2.28 g/m*3 -7.8 C 0 km/h
Sensor: Nr:Datum:Temp:Abs-Feuchte:Windchill:Wind:
Aussen-T/F 2876 02-12-2010 23:32:04 -7.9 C 2.23 g/m*3 -7.9 C 0 km/h
2877 02-12-2010 23:44:04 -7.8 C 2.25 g/m*3 -7.8 C 0 km/h
2878 02-12-2010 23:56:04 -8 C 2.22 g/m*3 -8 C 0 km/h
2879 03-12-2010 00:08:04 -8.5 C 2.11 g/m*3 -8.5 C 0 km/h
2880 03-12-2010 00:20:04 -9.5 C 1.93 g/m*3 -9.5 C 0 km/h
2881 03-12-2010 00:32:04 -10.1 C 1.82 g/m*3 -10.1 C 0 km/h
2882 03-12-2010 00:44:04 -10.7 C 1.72 g/m*3 -10.7 C 0 km/h
2883 03-12-2010 00:56:04 -10.6 C 1.73 g/m*3 -10.6 C 0 km/h
2884 03-12-2010 01:08:04 -10.4 C 1.76 g/m*3 -10.4 C 0 km/h
2885 03-12-2010 01:20:04 -9.8 C 1.89 g/m*3 -9.8 C 0 km/h
2886 03-12-2010 01:32:04 -9.7 C 1.9 g/m*3 -9.7 C 0 km/h
2887 03-12-2010 01:44:04 -9.3 C 1.99 g/m*3 -9.3 C 0 km/h
2888 03-12-2010 01:56:04 -9.1 C 2.02 g/m*3 -9.1 C 0 km/h
2889 03-12-2010 02:08:04 -9.1 C 2.02 g/m*3 -9.1 C 0 km/h
2890 03-12-2010 02:20:04 -9 C 2.03 g/m*3 -9 C 0 km/h
2891 03-12-2010 02:32:05 -9.1 C 1.99 g/m*3 -9.1 C 0 km/h
2892 03-12-2010 02:44:05 -9.1 C 1.99 g/m*3 -9.1 C 0 km/h
2893 03-12-2010 02:56:05 -9.3 C 1.96 g/m*3 -9.3 C 0 km/h
2894 03-12-2010 03:08:05 -9.2 C 1.98 g/m*3 -9.2 C 0 km/h
2895 03-12-2010 03:20:05 -9 C 2.01 g/m*3 -9 C 0 km/h
2896 03-12-2010 03:32:05 -8.7 C 2.05 g/m*3 -8.7 C 0 km/h
2897 03-12-2010 03:44:05 -8.5 C 2.11 g/m*3 -8.5 C 0 km/h
2898 03-12-2010 03:56:05 -8.5 C 2.08 g/m*3 -8.5 C 0 km/h
2899 03-12-2010 04:08:05 -8.2 C 2.13 g/m*3 -8.2 C 0 km/h
2900 03-12-2010 04:20:05 -8.1 C 2.14 g/m*3 -8.1 C 0 km/h
Sensor: Nr:Datum:Temp:Abs-Feuchte:Windchill:Wind:
Aussen-T/F 2901 03-12-2010 04:32:05 -7.9 C 2.18 g/m*3 -7.9 C 0 km/h
2902 03-12-2010 04:44:05 -8 C 2.16 g/m*3 -8 C 0 km/h
2903 03-12-2010 04:56:05 -8.1 C 2.12 g/m*3 -8.1 C 0 km/h
2904 03-12-2010 05:08:05 -8.6 C 2.04 g/m*3 -8.6 C 0 km/h
2905 03-12-2010 05:20:05 -8.8 C 1.98 g/m*3 -8.8 C 0 km/h
2906 03-12-2010 05:32:05 -8.6 C 2.04 g/m*3 -8.6 C 0 km/h
2907 03-12-2010 05:44:05 -8.5 C 2.08 g/m*3 -8.5 C 0 km/h
2908 03-12-2010 05:56:05 -8.9 C 2 g/m*3 -8.9 C 0 km/h
2909 03-12-2010 06:08:05 -9.5 C 1.91 g/m*3 -9.5 C 0 km/h
2910 03-12-2010 06:20:05 -9.8 C 1.84 g/m*3 -9.8 C 0 km/h
2911 03-12-2010 06:32:06 -9.6 C 1.89 g/m*3 -9.6 C 0 km/h
2912 03-12-2010 06:44:06 -9.4 C 1.92 g/m*3 -9.4 C 0 km/h
2913 03-12-2010 06:56:06 -9.1 C 1.99 g/m*3 -9.1 C 0 km/h
2914 03-12-2010 07:08:03 -8.7 C 2.08 g/m*3 -8.7 C 0 km/h
2915 03-12-2010 07:20:04 -8.7 C 2.08 g/m*3 -8.7 C 0 km/h
2916 03-12-2010 07:32:03 -8.9 C 2.02 g/m*3 -8.9 C 0 km/h
2917 03-12-2010 07:44:03 -9 C 2.01 g/m*3 -9 C 0 km/h
2918 03-12-2010 07:56:02 -9.3 C 1.96 g/m*3 -9.3 C 0 km/h
2919 03-12-2010 08:08:02 -9.5 C 1.93 g/m*3 -9.5 C 0 km/h
2920 03-12-2010 08:20:02 -9.9 C 1.85 g/m*3 -9.9 C 0 km/h
2921 03-12-2010 08:32:03 -10.2 C 1.81 g/m*3 -10.2 C 0 km/h
2922 03-12-2010 08:44:03 -10 C 1.84 g/m*3 -10 C 0 km/h
2923 03-12-2010 08:56:02 -10 C 1.84 g/m*3 -10 C 0 km/h
2924 03-12-2010 09:08:01 -10 C 1.84 g/m*3 -10 C 0 km/h
2925 03-12-2010 09:20:02 -9.8 C 1.87 g/m*3 -9.8 C 0 km/h
Sensor: Nr:Datum:Temp:Abs-Feuchte:Windchill:Wind:
Aussen-T/F 2926 03-12-2010 09:32:02 -10 C 1.81 g/m*3 -10 C 0 km/h
2927 03-12-2010 09:44:02 -9.8 C 1.84 g/m*3 -9.8 C 0 km/h
2928 03-12-2010 09:56:02 -9.4 C 1.87 g/m*3 -9.4 C 0 km/h
2929 03-12-2010 10:08:03 -9.1 C 1.92 g/m*3 -9.1 C 0 km/h
2930 03-12-2010 10:20:02 -8.6 C 1.96 g/m*3 -8.6 C 0 km/h
2931 03-12-2010 10:32:02 -8.2 C 2.05 g/m*3 -8.2 C 0 km/h
2932 03-12-2010 10:44:02 -7.5 C 2.16 g/m*3 -7.5 C 0 km/h
2933 03-12-2010 10:56:01 -7.1 C 2.19 g/m*3 -7.1 C 0 km/h
2934 03-12-2010 11:08:02 -6.6 C 2.24 g/m*3 -6.6 C 0 km/h
2935 03-12-2010 11:20:01 -6.6 C 2.21 g/m*3 -6.6 C 0 km/h
2936 03-12-2010 11:32:01 -6.4 C 2.21 g/m*3 -6.4 C 0 km/h
2937 03-12-2010 11:44:01 -6.2 C 2.22 g/m*3 -6.2 C 0 km/h
2938 03-12-2010 11:56:01 -5.8 C 2.25 g/m*3 -5.8 C 0 km/h
2939 03-12-2010 12:08:01 -5.7 C 2.23 g/m*3 -5.7 C 0 km/h
2940 03-12-2010 12:20:02 -5.4 C 2.25 g/m*3 -5.4 C 0 km/h
2941 03-12-2010 12:32:01 -4.9 C 2.33 g/m*3 -4.9 C 0 km/h
2942 03-12-2010 12:44:01 -4.8 C 2.31 g/m*3 -4.8 C 0 km/h
2943 03-12-2010 12:56:02 -5 C 2.28 g/m*3 -5 C 0 km/h
2944 03-12-2010 13:08:01 -4.9 C 2.3 g/m*3 -4.9 C 0 km/h
2945 03-12-2010 13:20:02 -4.7 C 2.33 g/m*3 -4.7 C 0 km/h
2946 03-12-2010 13:32:01 -4.8 C 2.31 g/m*3 -4.8 C 0 km/h
2947 03-12-2010 13:44:01 -4.7 C 2.33 g/m*3 -4.7 C 0 km/h
2948 03-12-2010 13:56:02 -4.6 C 2.35 g/m*3 -4.6 C 0 km/h
2949 03-12-2010 14:08:02 -4.4 C 2.35 g/m*3 -4.4 C 0 km/h
2950 03-12-2010 14:20:02 -4.3 C 2.4 g/m*3 -4.3 C 0 km/h
Sensor: Nr:Datum:Temp:Abs-Feuchte:Windchill:Wind:
Aussen-T/F 2951 03-12-2010 14:32:02 -4.3 C 2.36 g/m*3 -4.3 C 0 km/h
2952 03-12-2010 14:44:02 -4.2 C 2.38 g/m*3 -4.2 C 0 km/h
2953 03-12-2010 14:56:02 -4.1 C 2.4 g/m*3 -4.1 C 0 km/h
2954 03-12-2010 15:08:02 -4.2 C 2.42 g/m*3 -4.2 C 0 km/h
2955 03-12-2010 15:20:01 -4.4 C 2.42 g/m*3 -4.4 C 0 km/h
2956 03-12-2010 15:32:02 -4.7 C 2.4 g/m*3 -4.7 C 0 km/h
2957 03-12-2010 15:44:02 -4.8 C 2.42 g/m*3 -4.8 C 0 km/h
2958 03-12-2010 15:56:02 -5.3 C 2.37 g/m*3 -5.3 C 0 km/h
2959 03-12-2010 16:08:02 -5.7 C 2.36 g/m*3 -5.7 C 0 km/h
2960 03-12-2010 16:20:02 -6.1 C 2.36 g/m*3 -6.1 C 0 km/h
2961 03-12-2010 16:32:02 -6.3 C 2.35 g/m*3 -6.3 C 0 km/h
2962 03-12-2010 16:44:02 -6.3 C 2.39 g/m*3 -6.3 C 0 km/h
2963 03-12-2010 16:56:02 -6.5 C 2.38 g/m*3 -6.5 C 0 km/h
2964 03-12-2010 17:08:02 -6.8 C 2.33 g/m*3 -6.8 C 0 km/h
2965 03-12-2010 17:20:02 -6.8 C 2.36 g/m*3 -6.8 C 0 km/h
2966 03-12-2010 17:32:02 -7 C 2.33 g/m*3 -7 C 0 km/h
2967 03-12-2010 17:44:02 -7 C 2.36 g/m*3 -7 C 0 km/h
2968 03-12-2010 17:56:02 -7.3 C 2.3 g/m*3 -7.3 C 0 km/h
2969 03-12-2010 18:08:02 -7.4 C 2.29 g/m*3 -7.4 C 0 km/h
2970 03-12-2010 18:20:02 -7.3 C 2.3 g/m*3 -7.3 C 0 km/h
2971 03-12-2010 18:32:02 -7 C 2.36 g/m*3 -7 C 0 km/h
2972 03-12-2010 18:44:02 -6.8 C 2.42 g/m*3 -6.8 C 0 km/h
2973 03-12-2010 18:56:02 -6.6 C 2.46 g/m*3 -6.6 C 0 km/h
2974 03-12-2010 19:08:02 -6.1 C 2.58 g/m*3 -6.1 C 0 km/h
2975 03-12-2010 19:20:02 -5.8 C 2.64 g/m*3 -5.8 C 0 km/h
Sensor: Nr:Datum:Temp:Abs-Feuchte:Windchill:Wind:
Aussen-T/F 2976 03-12-2010 19:32:01 -5.7 C 2.65 g/m*3 -5.7 C 0 km/h
2977 03-12-2010 19:44:01 -5.6 C 2.64 g/m*3 -5.6 C 0 km/h
2978 03-12-2010 19:56:02 -5.5 C 2.66 g/m*3 -5.5 C 0 km/h
2979 03-12-2010 20:08:01 -5.5 C 2.63 g/m*3 -5.5 C 0 km/h
2980 03-12-2010 20:20:02 -5.4 C 2.65 g/m*3 -5.4 C 0 km/h
2981 03-12-2010 20:32:02 -5.3 C 2.67 g/m*3 -5.3 C 0 km/h
2982 03-12-2010 20:44:02 -5.3 C 2.63 g/m*3 -5.3 C 0 km/h
2983 03-12-2010 20:56:02 -5.3 C 2.63 g/m*3 -5.3 C 0 km/h
2984 03-12-2010 21:08:03 -5.3 C 2.63 g/m*3 -5.3 C 0 km/h
2985 03-12-2010 21:20:02 -5.5 C 2.56 g/m*3 -5.5 C 0 km/h
2986 03-12-2010 21:32:02 -6.1 C 2.45 g/m*3 -6.1 C 0 km/h
2987 03-12-2010 21:44:02 -6.1 C 2.48 g/m*3 -6.1 C 0 km/h
2988 03-12-2010 21:56:01 -5.6 C 2.61 g/m*3 -5.6 C 0 km/h
2989 03-12-2010 22:08:02 -5.9 C 2.55 g/m*3 -5.9 C 0 km/h
2990 03-12-2010 22:20:01 -6.5 C 2.41 g/m*3 -6.5 C 0 km/h
2991 03-12-2010 22:32:02 -6.9 C 2.37 g/m*3 -6.9 C 0 km/h
2992 03-12-2010 22:44:03 -7.2 C 2.32 g/m*3 -7.2 C 0 km/h
2993 03-12-2010 22:56:02 -7.4 C 2.32 g/m*3 -7.4 C 0 km/h
2994 03-12-2010 23:08:02 -8 C 2.22 g/m*3 -8 C 0 km/h
2995 03-12-2010 23:20:01 -8 C 2.22 g/m*3 -8 C 0 km/h
2996 03-12-2010 23:32:02 -8.2 C 2.18 g/m*3 -8.2 C 0 km/h
2997 03-12-2010 23:44:02 -7.2 C 2.41 g/m*3 -7.2 C 0 km/h
2998 03-12-2010 23:56:02 -8.2 C 2.21 g/m*3 -8.2 C 0 km/h
2999 04-12-2010 00:08:02 -8.7 C 2.13 g/m*3 -8.7 C 0 km/h
3000 04-12-2010 00:20:02 -8.4 C 2.18 g/m*3 -8.4 C 0 km/h
Sensor: Nr:Datum:Temp:Abs-Feuchte:Windchill:Wind:
Aussen-T/F 3001 04-12-2010 00:32:02 -8.5 C 2.16 g/m*3 -8.5 C 0 km/h
3002 04-12-2010 00:44:02 -8.6 C 2.14 g/m*3 -8.6 C 0 km/h
3003 04-12-2010 00:56:02 -8.3 C 2.22 g/m*3 -8.3 C 0 km/h
3004 04-12-2010 01:08:02 -8.2 C 2.24 g/m*3 -8.2 C 0 km/h
3005 04-12-2010 01:20:03 -9.1 C 2.04 g/m*3 -9.1 C 0 km/h
3006 04-12-2010 01:32:02 -9.4 C 2 g/m*3 -9.4 C 0 km/h
3007 04-12-2010 01:44:02 -9.4 C 2 g/m*3 -9.4 C 0 km/h
3008 04-12-2010 01:56:02 -9.4 C 2.02 g/m*3 -9.4 C 0 km/h
3009 04-12-2010 02:08:02 -9.6 C 1.97 g/m*3 -9.6 C 0 km/h
3010 04-12-2010 02:20:02 -9.4 C 2 g/m*3 -9.4 C 0 km/h
3011 04-12-2010 02:32:02 -9 C 2.08 g/m*3 -9 C 0 km/h
3012 04-12-2010 02:44:02 -9.1 C 2.04 g/m*3 -9.1 C 0 km/h
3013 04-12-2010 02:57:04 -9.2 C 2.03 g/m*3 -9.2 C 0 km/h
3014 04-12-2010 03:09:04 -9.8 C 1.94 g/m*3 -9.8 C 0 km/h
3015 04-12-2010 03:21:03 -10.4 C 1.83 g/m*3 -10.4 C 0 km/h
3016 04-12-2010 03:33:01 -10.5 C 1.79 g/m*3 -10.5 C 0 km/h
3017 04-12-2010 03:45:01 -10 C 1.88 g/m*3 -10 C 0 km/h
3018 04-12-2010 03:57:01 -9 C 2.06 g/m*3 -9 C 0 km/h
3019 04-12-2010 04:09:02 -8.8 C 2.09 g/m*3 -8.8 C 0 km/h
3020 04-12-2010 04:21:02 -8.2 C 2.21 g/m*3 -8.2 C 0 km/h
3021 04-12-2010 04:33:01 -8 C 2.24 g/m*3 -8 C 0 km/h
3022 04-12-2010 04:45:02 -7.6 C 2.31 g/m*3 -7.6 C 0 km/h
3023 04-12-2010 04:57:02 -7.2 C 2.38 g/m*3 -7.2 C 0 km/h
3024 04-12-2010 05:09:01 -6.9 C 2.43 g/m*3 -6.9 C 0 km/h
3025 04-12-2010 05:21:02 -6.3 C 2.57 g/m*3 -6.3 C 0 km/h
Sensor: Nr:Datum:Temp:Abs-Feuchte:Windchill:Wind:
Aussen-T/F 3026 04-12-2010 05:33:01 -5.1 C 2.81 g/m*3 -5.1 C 0 km/h
3027 04-12-2010 05:45:02 -4.5 C 2.82 g/m*3 -4.5 C 0 km/h
3028 04-12-2010 05:57:02 -4.8 C 2.73 g/m*3 -4.8 C 0 km/h
3029 04-12-2010 06:09:02 -4.5 C 2.68 g/m*3 -4.5 C 0 km/h
3030 04-12-2010 06:21:02 -4.9 C 2.57 g/m*3 -4.9 C 0 km/h
3031 04-12-2010 06:33:03 -5 C 2.55 g/m*3 -5 C 0 km/h
3032 04-12-2010 06:45:02 -5.3 C 2.53 g/m*3 -5.3 C 0 km/h
3033 04-12-2010 06:57:02 -5 C 2.62 g/m*3 -5 C 0 km/h
3034 04-12-2010 07:09:02 -5 C 2.62 g/m*3 -5 C 0 km/h
3035 04-12-2010 07:21:01 -5.3 C 2.53 g/m*3 -5.3 C 0 km/h
3036 04-12-2010 07:33:02 -5.4 C 2.51 g/m*3 -5.4 C 0 km/h
3037 04-12-2010 07:45:02 -5.2 C 2.58 g/m*3 -5.2 C 0 km/h
3038 04-12-2010 07:57:02 -4.8 C 2.66 g/m*3 -4.8 C 0 km/h
3039 04-12-2010 08:09:02 -4.8 C 2.63 g/m*3 -4.8 C 0 km/h
3040 04-12-2010 08:21:02 -4.1 C 2.76 g/m*3 -4.1 C 0 km/h
3041 04-12-2010 08:33:02 -3.8 C 2.71 g/m*3 -3.8 C 0 km/h
3042 04-12-2010 08:45:02 -3.5 C 2.65 g/m*3 -3.5 C 0 km/h
3043 04-12-2010 08:57:02 -3.5 C 2.58 g/m*3 -3.5 C 0 km/h
3044 04-12-2010 09:09:02 -3.3 C 2.61 g/m*3 -3.3 C 0 km/h
3045 04-12-2010 09:21:01 -3.1 C 2.57 g/m*3 -3.1 C 0 km/h
3046 04-12-2010 09:33:02 -3 C 2.59 g/m*3 -3 C 0 km/h
3047 04-12-2010 09:45:01 -2.9 C 2.61 g/m*3 -2.9 C 0 km/h
3048 04-12-2010 09:57:01 -3.2 C 2.52 g/m*3 -3.2 C 0 km/h
3049 04-12-2010 10:09:02 -2.9 C 2.57 g/m*3 -2.9 C 0 km/h
3050 04-12-2010 10:21:02 -2.4 C 2.66 g/m*3 -2.4 C 0 km/h
Sensor: Nr:Datum:Temp:Abs-Feuchte:Windchill:Wind:
Aussen-T/F 3051 04-12-2010 10:33:02 -2 C 2.82 g/m*3 -2 C 0 km/h
3052 04-12-2010 10:45:02 -1.8 C 2.69 g/m*3 -1.8 C 0 km/h
3053 04-12-2010 10:57:02 -1.5 C 2.62 g/m*3 -1.5 C 0 km/h
3054 04-12-2010 11:09:01 -1.5 C 2.58 g/m*3 -1.5 C 0 km/h
3055 04-12-2010 11:21:02 -1.3 C 2.43 g/m*3 -1.3 C 0 km/h
3056 04-12-2010 11:33:01 -1.5 C 2.4 g/m*3 -1.5 C 0 km/h
3057 04-12-2010 11:45:02 -1.3 C 2.43 g/m*3 -1.3 C 0 km/h
3058 04-12-2010 11:57:02 -1.3 C 2.39 g/m*3 -1.3 C 0 km/h
3059 04-12-2010 12:09:02 -1 C 2.49 g/m*3 -1 C 0 km/h
3060 04-12-2010 12:21:02 -0.9 C 2.41 g/m*3 -0.9 C 0 km/h
3061 04-12-2010 12:33:03 -0.7 C 2.49 g/m*3 -0.7 C 0 km/h
3062 04-12-2010 12:45:02 -0.8 C 2.43 g/m*3 -0.8 C 0 km/h
3063 04-12-2010 12:57:02 -0.9 C 2.46 g/m*3 -0.9 C 0 km/h
3064 04-12-2010 13:09:02 -1.3 C 2.39 g/m*3 -1.3 C 0 km/h
3065 04-12-2010 13:21:01 -1.6 C 2.38 g/m*3 -1.6 C 0 km/h
3066 04-12-2010 13:33:02 -1.6 C 2.38 g/m*3 -1.6 C 0 km/h
3067 04-12-2010 13:45:02 -1.3 C 2.43 g/m*3 -1.3 C 0 km/h
3068 04-12-2010 13:57:02 -1.2 C 2.45 g/m*3 -1.2 C 0 km/h
3069 04-12-2010 14:09:02 -1.1 C 2.47 g/m*3 -1.1 C 0 km/h
3070 04-12-2010 14:21:01 -1.1 C 2.47 g/m*3 -1.1 C 0 km/h
3071 04-12-2010 14:33:02 -0.9 C 2.46 g/m*3 -0.9 C 0 km/h
3072 04-12-2010 14:45:01 -1 C 2.49 g/m*3 -1 C 0 km/h
3073 04-12-2010 14:57:01 -0.9 C 2.46 g/m*3 -0.9 C 0 km/h
3074 04-12-2010 15:09:02 -0.9 C 2.5 g/m*3 -0.9 C 0 km/h
3075 04-12-2010 15:21:02 -0.9 C 2.5 g/m*3 -0.9 C 0 km/h
Sensor: Nr:Datum:Temp:Abs-Feuchte:Windchill:Wind:
Aussen-T/F 3076 04-12-2010 15:33:02 -0.9 C 2.5 g/m*3 -0.9 C 0 km/h
3077 04-12-2010 15:45:01 -0.9 C 2.5 g/m*3 -0.9 C 0 km/h
3078 04-12-2010 15:57:01 -1 C 2.58 g/m*3 -1 C 0 km/h
3079 04-12-2010 16:09:02 -1.1 C 2.6 g/m*3 -1.1 C 0 km/h
3080 04-12-2010 16:21:02 -1.1 C 2.6 g/m*3 -1.1 C 0 km/h
3081 04-12-2010 16:33:01 -1.3 C 2.66 g/m*3 -1.3 C 0 km/h
3082 04-12-2010 16:45:02 -1.2 C 2.67 g/m*3 -1.2 C 0 km/h
3083 04-12-2010 16:57:02 -1.4 C 2.68 g/m*3 -1.4 C 0 km/h
3084 04-12-2010 17:09:01 -1.2 C 2.72 g/m*3 -1.2 C 0 km/h
3085 04-12-2010 17:21:02 -1 C 2.76 g/m*3 -1 C 0 km/h
3086 04-12-2010 17:33:02 -1 C 2.76 g/m*3 -1 C 0 km/h
3087 04-12-2010 17:45:02 -1.1 C 2.78 g/m*3 -1.1 C 0 km/h
3088 04-12-2010 17:57:03 -1.1 C 2.78 g/m*3 -1.1 C 0 km/h
3089 04-12-2010 18:09:02 -1.1 C 2.78 g/m*3 -1.1 C 0 km/h
3090 04-12-2010 18:21:02 -1 C 2.8 g/m*3 -1 C 0 km/h
3091 04-12-2010 18:33:02 -0.8 C 2.8 g/m*3 -0.8 C 0 km/h
3092 04-12-2010 18:45:01 -0.8 C 2.8 g/m*3 -0.8 C 0 km/h
3093 04-12-2010 18:57:01 -0.8 C 2.8 g/m*3 -0.8 C 0 km/h
3094 04-12-2010 19:09:02 -0.9 C 2.78 g/m*3 -0.9 C 0 km/h
3095 04-12-2010 19:21:01 -0.8 C 2.8 g/m*3 -0.8 C 0 km/h
3096 04-12-2010 19:33:02 -0.8 C 2.8 g/m*3 -0.8 C 0 km/h
3097 04-12-2010 19:45:01 -1 C 2.8 g/m*3 -1 C 0 km/h
3098 04-12-2010 19:57:01 -1.1 C 2.78 g/m*3 -1.1 C 0 km/h
3099 04-12-2010 20:09:02 -1.1 C 2.83 g/m*3 -1.1 C 0 km/h
3100 04-12-2010 20:21:01 -1.2 C 2.85 g/m*3 -1.2 C 0 km/h
Sensor: Nr:Datum:Temp:Abs-Feuchte:Windchill:Wind:
Aussen-T/F 3101 04-12-2010 20:33:02 -0.9 C 2.87 g/m*3 -0.9 C 0 km/h
3102 04-12-2010 20:45:01 -0.7 C 2.91 g/m*3 -0.7 C 0 km/h
3103 04-12-2010 20:57:01 -0.9 C 2.91 g/m*3 -0.9 C 0 km/h
3104 04-12-2010 21:09:02 -1.2 C 2.94 g/m*3 -1.2 C 0 km/h
3105 04-12-2010 21:21:02 -1.1 C 3.01 g/m*3 -1.1 C 0 km/h
3106 04-12-2010 21:33:01 -1 C 3.12 g/m*3 -1 C 0 km/h
3107 04-12-2010 21:45:02 -1.1 C 3.28 g/m*3 -1.1 C 0 km/h
3108 04-12-2010 21:57:02 -1.1 C 3.32 g/m*3 -1.1 C 0 km/h
3109 04-12-2010 22:09:02 -1.3 C 3.32 g/m*3 -1.3 C 0 km/h
3110 04-12-2010 22:21:01 -1.1 C 3.46 g/m*3 -1.1 C 0 km/h
3111 04-12-2010 22:33:02 -1.3 C 3.45 g/m*3 -1.3 C 0 km/h
3112 04-12-2010 22:45:02 -1.1 C 3.55 g/m*3 -1.1 C 0 km/h
3113 04-12-2010 22:57:02 -1.1 C 3.55 g/m*3 -1.1 C 0 km/h
3114 04-12-2010 23:09:02 -1.3 C 3.5 g/m*3 -1.3 C 0 km/h
3115 04-12-2010 23:21:02 -1.4 C 3.47 g/m*3 -1.4 C 0 km/h
3116 04-12-2010 23:33:02 -1.1 C 3.5 g/m*3 -1.1 C 0 km/h
3117 04-12-2010 23:45:02 -1 C 3.53 g/m*3 -1 C 0 km/h
3118 04-12-2010 23:57:02 -0.8 C 3.53 g/m*3 -0.8 C 0 km/h
3119 05-12-2010 00:09:02 -0.8 C 3.48 g/m*3 -0.8 C 0 km/h
3120 05-12-2010 00:21:02 -0.7 C 3.51 g/m*3 -0.7 C 0 km/h
3121 05-12-2010 00:33:02 -0.5 C 3.51 g/m*3 -0.5 C 0 km/h
3122 05-12-2010 00:45:02 -0.4 C 3.49 g/m*3 -0.4 C 0 km/h
3123 05-12-2010 00:57:02 -0.1 C 3.42 g/m*3 -0.1 C 0 km/h
3124 05-12-2010 01:09:02 -0.1 C 3.42 g/m*3 -0.1 C 0 km/h
3125 05-12-2010 01:21:02 0.3 C 3.26 g/m*3 0.3 C 0 km/h
Sensor: Nr:Datum:Temp:Abs-Feuchte:Windchill:Wind:
Aussen-T/F 3126 05-12-2010 01:33:02 0.3 C 3.26 g/m*3 0.3 C 0 km/h
3127 05-12-2010 01:45:02 0.1 C 3.27 g/m*3 0.1 C 0 km/h
3128 05-12-2010 01:57:02 0 C 3.34 g/m*3 0 C 0 km/h
3129 05-12-2010 02:09:02 0 C 3.39 g/m*3 0 C 0 km/h
3130 05-12-2010 02:21:03 0.1 C 3.46 g/m*3 0.1 C 0 km/h
3131 05-12-2010 02:33:02 0 C 3.49 g/m*3 0 C 0 km/h
3132 05-12-2010 02:46:04 0 C 3.54 g/m*3 0 C 0 km/h
3133 05-12-2010 02:58:04 0 C 3.59 g/m*3 0 C 0 km/h
3134 05-12-2010 03:10:04 0 C 3.54 g/m*3 0 C 0 km/h
3135 05-12-2010 03:22:04 0.2 C 3.49 g/m*3 0.2 C 0 km/h
3136 05-12-2010 03:34:02 0.2 C 3.54 g/m*3 0.2 C 0 km/h
3137 05-12-2010 03:46:02 0.1 C 3.51 g/m*3 0.1 C 0 km/h
3138 05-12-2010 03:58:02 0.1 C 3.56 g/m*3 0.1 C 0 km/h
3139 05-12-2010 04:10:02 0.1 C 3.61 g/m*3 0.1 C 0 km/h
3140 05-12-2010 04:22:02 0.1 C 3.66 g/m*3 0.1 C 0 km/h
3141 05-12-2010 04:34:02 0.1 C 3.66 g/m*3 0.1 C 0 km/h
3142 05-12-2010 04:46:01 0.2 C 3.54 g/m*3 0.2 C 0 km/h
3143 05-12-2010 04:58:01 0.1 C 3.42 g/m*3 0.1 C 0 km/h
3144 05-12-2010 05:10:01 0.3 C 3.36 g/m*3 0.3 C 0 km/h
3145 05-12-2010 05:22:01 -0.1 C 3.32 g/m*3 -0.1 C 0 km/h
3146 05-12-2010 05:34:01 0.1 C 3.27 g/m*3 0.1 C 0 km/h
3147 05-12-2010 05:46:01 0.6 C 3.18 g/m*3 0.6 C 0 km/h
3148 05-12-2010 05:58:01 0.2 C 3.09 g/m*3 0.2 C 0 km/h
3149 05-12-2010 06:10:01 0.2 C 3.14 g/m*3 0.2 C 0 km/h
3150 05-12-2010 06:22:02 0.5 C 3.06 g/m*3 0.5 C 0 km/h
Sensor: Nr:Datum:Temp:Abs-Feuchte:Windchill:Wind:
Aussen-T/F 3151 05-12-2010 06:34:01 0.1 C 2.98 g/m*3 0.1 C 0 km/h
3152 05-12-2010 06:46:02 0.2 C 3 g/m*3 0.2 C 0 km/h
3153 05-12-2010 06:58:02 0.1 C 2.93 g/m*3 0.1 C 0 km/h
3154 05-12-2010 07:10:02 -0.2 C 3.01 g/m*3 -0.2 C 0 km/h
3155 05-12-2010 07:22:02 0.2 C 2.95 g/m*3 0.2 C 0 km/h
3156 05-12-2010 07:34:01 0.1 C 2.88 g/m*3 0.1 C 0 km/h
3157 05-12-2010 07:46:02 -0.2 C 2.82 g/m*3 -0.2 C 0 km/h
3158 05-12-2010 07:58:02 -0.3 C 2.89 g/m*3 -0.3 C 0 km/h
3159 05-12-2010 08:10:01 -0.5 C 2.9 g/m*3 -0.5 C 0 km/h
3160 05-12-2010 08:22:01 0.1 C 2.93 g/m*3 0.1 C 0 km/h
3161 05-12-2010 08:34:02 -0.1 C 2.84 g/m*3 -0.1 C 0 km/h
3162 05-12-2010 08:46:02 -0.4 C 2.83 g/m*3 -0.4 C 0 km/h
3163 05-12-2010 08:58:02 -0.7 C 3 g/m*3 -0.7 C 0 km/h
3164 05-12-2010 09:10:02 -0.6 C 3.02 g/m*3 -0.6 C 0 km/h
3165 05-12-2010 09:22:02 -0.4 C 3.02 g/m*3 -0.4 C 0 km/h
3166 05-12-2010 09:34:02 0 C 2.91 g/m*3 0 C 0 km/h
3167 05-12-2010 09:46:02 0.3 C 2.97 g/m*3 0.3 C 0 km/h
3168 05-12-2010 09:58:02 0.8 C 2.87 g/m*3 0.8 C 0 km/h
3169 05-12-2010 10:10:02 1.2 C 2.74 g/m*3 1.2 C 0 km/h
3170 05-12-2010 10:22:02 1.5 C 2.69 g/m*3 1.5 C 0 km/h
3171 05-12-2010 10:34:02 1.6 C 3.03 g/m*3 1.6 C 0 km/h
3172 05-12-2010 10:46:02 1.9 C 2.81 g/m*3 1.9 C 0 km/h
3173 05-12-2010 10:58:02 2.2 C 2.87 g/m*3 2.2 C 0 km/h
3174 05-12-2010 11:10:02 2.5 C 2.7 g/m*3 2.5 C 0 km/h
3175 05-12-2010 11:22:02 2.3 C 2.78 g/m*3 2.3 C 0 km/h
Sensor: Nr:Datum:Temp:Abs-Feuchte:Windchill:Wind:
Aussen-T/F 3176 05-12-2010 11:34:02 2.5 C 2.87 g/m*3 2.5 C 0 km/h
3177 05-12-2010 11:46:01 2.6 C 2.72 g/m*3 2.6 C 0 km/h
3178 05-12-2010 11:58:01 2.8 C 2.76 g/m*3 2.8 C 0 km/h
3179 05-12-2010 12:10:01 2.8 C 2.7 g/m*3 2.8 C 0 km/h
3180 05-12-2010 12:22:02 3 C 2.68 g/m*3 3 C 0 km/h
3181 05-12-2010 12:34:01 3.2 C 2.65 g/m*3 3.2 C 0 km/h
3182 05-12-2010 12:46:02 3.3 C 2.67 g/m*3 3.3 C 0 km/h
3183 05-12-2010 12:58:02 3.2 C 2.65 g/m*3 3.2 C 0 km/h
3184 05-12-2010 13:10:02 3.3 C 2.67 g/m*3 3.3 C 0 km/h
3185 05-12-2010 13:22:03 3.4 C 2.63 g/m*3 3.4 C 0 km/h
3186 05-12-2010 13:34:02 3.4 C 2.57 g/m*3 3.4 C 0 km/h
3187 05-12-2010 13:46:02 3.3 C 2.61 g/m*3 3.3 C 0 km/h
3188 05-12-2010 13:58:02 3.6 C 2.66 g/m*3 3.6 C 0 km/h
3189 05-12-2010 14:10:02 3.2 C 2.59 g/m*3 3.2 C 0 km/h
3190 05-12-2010 14:22:02 3.3 C 2.61 g/m*3 3.3 C 0 km/h
3191 05-12-2010 14:34:02 3.3 C 2.61 g/m*3 3.3 C 0 km/h
3192 05-12-2010 14:46:02 3.2 C 2.59 g/m*3 3.2 C 0 km/h
3193 05-12-2010 14:58:03 3.2 C 2.59 g/m*3 3.2 C 0 km/h
3194 05-12-2010 15:10:01 2.9 C 2.78 g/m*3 2.9 C 0 km/h
3195 05-12-2010 15:22:02 2.6 C 2.84 g/m*3 2.6 C 0 km/h
3196 05-12-2010 15:34:02 2.1 C 3.08 g/m*3 2.1 C 0 km/h
3197 05-12-2010 15:46:02 1.7 C 3.27 g/m*3 1.7 C 0 km/h
3198 05-12-2010 15:58:02 1.8 C 3.23 g/m*3 1.8 C 0 km/h
3199 05-12-2010 16:10:02 1.5 C 3.28 g/m*3 1.5 C 0 km/h
3200 05-12-2010 16:22:02 1.4 C 3.31 g/m*3 1.4 C 0 km/h
Sensor: Nr:Datum:Temp:Abs-Feuchte:Windchill:Wind:
Aussen-T/F 3201 05-12-2010 16:34:02 1.2 C 3.31 g/m*3 1.2 C 0 km/h
3202 05-12-2010 16:46:01 1.1 C 3.24 g/m*3 1.1 C 0 km/h
3203 05-12-2010 16:58:01 1 C 3.27 g/m*3 1 C 0 km/h
3204 05-12-2010 17:10:02 1 C 3.32 g/m*3 1 C 0 km/h
3205 05-12-2010 17:22:01 1.1 C 3.45 g/m*3 1.1 C 0 km/h
3206 05-12-2010 17:34:01 1.7 C 3.38 g/m*3 1.7 C 0 km/h
3207 05-12-2010 17:46:01 1.7 C 3.43 g/m*3 1.7 C 0 km/h
3208 05-12-2010 17:58:01 1.4 C 3.41 g/m*3 1.4 C 0 km/h
3209 05-12-2010 18:10:02 1 C 3.63 g/m*3 1 C 0 km/h
3210 05-12-2010 18:22:02 0.9 C 3.76 g/m*3 0.9 C 0 km/h
3211 05-12-2010 18:34:02 0.8 C 3.79 g/m*3 0.8 C 0 km/h
3212 05-12-2010 18:46:02 0.9 C 3.92 g/m*3 0.9 C 0 km/h
3213 05-12-2010 18:58:02 0.8 C 3.94 g/m*3 0.8 C 0 km/h
3214 05-12-2010 19:10:02 0.8 C 3.94 g/m*3 0.8 C 0 km/h
3215 05-12-2010 19:22:02 0.9 C 3.92 g/m*3 0.9 C 0 km/h
3216 05-12-2010 19:34:02 0.8 C 3.94 g/m*3 0.8 C 0 km/h
3217 05-12-2010 19:46:01 0.9 C 4.02 g/m*3 0.9 C 0 km/h
3218 05-12-2010 19:58:01 0.9 C 4.02 g/m*3 0.9 C 0 km/h
3219 05-12-2010 20:10:02 0.9 C 4.02 g/m*3 0.9 C 0 km/h
3220 05-12-2010 20:22:01 0.7 C 4.02 g/m*3 0.7 C 0 km/h
3221 05-12-2010 20:34:02 0.6 C 4.09 g/m*3 0.6 C 0 km/h
3222 05-12-2010 20:46:02 0.5 C 4.11 g/m*3 0.5 C 0 km/h
3223 05-12-2010 20:58:02 0.4 C 4.13 g/m*3 0.4 C 0 km/h
3224 05-12-2010 21:10:02 0.3 C 4.16 g/m*3 0.3 C 0 km/h
3225 05-12-2010 21:22:01 0.3 C 4.25 g/m*3 0.3 C 0 km/h
Sensor: Nr:Datum:Temp:Abs-Feuchte:Windchill:Wind:
Aussen-T/F 3226 05-12-2010 21:34:02 0.3 C 4.25 g/m*3 0.3 C 0 km/h
3227 05-12-2010 21:46:02 0.3 C 4.3 g/m*3 0.3 C 0 km/h
3228 05-12-2010 21:58:02 0.5 C 4.36 g/m*3 0.5 C 0 km/h
3229 05-12-2010 22:10:02 0.4 C 4.38 g/m*3 0.4 C 0 km/h
3230 05-12-2010 22:22:02 0.4 C 4.33 g/m*3 0.4 C 0 km/h
3231 05-12-2010 22:34:02 0.4 C 4.33 g/m*3 0.4 C 0 km/h
3232 05-12-2010 22:46:02 0.3 C 4.35 g/m*3 0.3 C 0 km/h
3233 05-12-2010 22:58:02 0.3 C 4.35 g/m*3 0.3 C 0 km/h
3234 05-12-2010 23:10:02 0.2 C 4.32 g/m*3 0.2 C 0 km/h
3235 05-12-2010 23:22:02 0.2 C 4.32 g/m*3 0.2 C 0 km/h
3236 05-12-2010 23:34:02 0.2 C 4.32 g/m*3 0.2 C 0 km/h
3237 05-12-2010 23:46:02 0.2 C 4.32 g/m*3 0.2 C 0 km/h
3238 05-12-2010 23:58:02 0.2 C 4.37 g/m*3 0.2 C 0 km/h
3239 06-12-2010 00:10:01 0.1 C 4.34 g/m*3 0.1 C 0 km/h
3240 06-12-2010 00:22:02 0.1 C 4.34 g/m*3 0.1 C 0 km/h
3241 06-12-2010 00:34:02 0.1 C 4.34 g/m*3 0.1 C 0 km/h
3242 06-12-2010 00:46:02 0.2 C 4.37 g/m*3 0.2 C 0 km/h
3243 06-12-2010 00:58:02 0.1 C 4.34 g/m*3 0.1 C 0 km/h